<?xml version="1.0" encoding="UTF-8" standalone="no" ?>
<gpx xmlns="http://www.topografix.com/GPX/1/1" xmlns:xsi="http://www.w3.org/2001/XMLSchema-instance" xsi:schemaLocation="http://www.topografix.com/GPX/1/1 http://www.topografix.com/GPX/1/1/gpx.xsd" version="1.1" creator="VisuGPX - https://www.visugpx.com">
  <metadata>
    <name>rando aux alentours des cabanes 09</name>
    <desc><![CDATA[pas de difficultés , jolie point de vue , depart du gite des Oustalous]]></desc>
  </metadata>
  <trk>
    <name><![CDATA[2014-06-21 18:47:38]]></name>
    <trkseg>
      <trkpt lat="42.78792" lon="1.68596">
        <ele>553.86</ele>
        <time>2014-06-21T11:50:52Z</time>
      </trkpt>
      <trkpt lat="42.78782" lon="1.68584">
        <ele>551.45</ele>
        <time>2014-06-21T11:51:17Z</time>
      </trkpt>
      <trkpt lat="42.78764" lon="1.68568">
        <ele>550.01</ele>
        <time>2014-06-21T11:51:41Z</time>
      </trkpt>
      <trkpt lat="42.78742" lon="1.68551">
        <ele>545.2</ele>
        <time>2014-06-21T11:52:10Z</time>
      </trkpt>
      <trkpt lat="42.78732" lon="1.68546">
        <ele>544.24</ele>
        <time>2014-06-21T11:52:36Z</time>
      </trkpt>
      <trkpt lat="42.78726" lon="1.68557">
        <ele>544.24</ele>
        <time>2014-06-21T11:53:04Z</time>
      </trkpt>
      <trkpt lat="42.78779" lon="1.686">
        <ele>551.93</ele>
        <time>2014-06-21T11:53:35Z</time>
      </trkpt>
      <trkpt lat="42.78773" lon="1.68588">
        <ele>552.9</ele>
        <time>2014-06-21T11:54:05Z</time>
      </trkpt>
      <trkpt lat="42.78779" lon="1.68587">
        <ele>553.86</ele>
        <time>2014-06-21T11:54:29Z</time>
      </trkpt>
      <trkpt lat="42.78748" lon="1.68575">
        <ele>556.74</ele>
        <time>2014-06-21T11:54:48Z</time>
      </trkpt>
      <trkpt lat="42.78739" lon="1.68577">
        <ele>559.62</ele>
        <time>2014-06-21T11:55:13Z</time>
      </trkpt>
      <trkpt lat="42.78735" lon="1.68581">
        <ele>560.59</ele>
        <time>2014-06-21T11:55:36Z</time>
      </trkpt>
      <trkpt lat="42.78745" lon="1.68569">
        <ele>554.82</ele>
        <time>2014-06-21T11:55:54Z</time>
      </trkpt>
      <trkpt lat="42.78735" lon="1.68572">
        <ele>556.74</ele>
        <time>2014-06-21T11:56:24Z</time>
      </trkpt>
      <trkpt lat="42.78733" lon="1.68578">
        <ele>558.18</ele>
        <time>2014-06-21T11:56:57Z</time>
      </trkpt>
      <trkpt lat="42.78736" lon="1.68582">
        <ele>561.07</ele>
        <time>2014-06-21T11:57:23Z</time>
      </trkpt>
      <trkpt lat="42.78727" lon="1.68575">
        <ele>559.62</ele>
        <time>2014-06-21T11:57:50Z</time>
      </trkpt>
      <trkpt lat="42.78733" lon="1.68566">
        <ele>557.7</ele>
        <time>2014-06-21T11:58:21Z</time>
      </trkpt>
      <trkpt lat="42.7874" lon="1.6856">
        <ele>555.78</ele>
        <time>2014-06-21T11:58:43Z</time>
      </trkpt>
      <trkpt lat="42.78741" lon="1.68554">
        <ele>553.86</ele>
        <time>2014-06-21T11:59:02Z</time>
      </trkpt>
      <trkpt lat="42.78739" lon="1.68542">
        <ele>549.53</ele>
        <time>2014-06-21T11:59:12Z</time>
      </trkpt>
      <trkpt lat="42.78734" lon="1.68534">
        <ele>545.69</ele>
        <time>2014-06-21T11:59:21Z</time>
      </trkpt>
      <trkpt lat="42.78731" lon="1.68531">
        <ele>545.69</ele>
        <time>2014-06-21T11:59:24Z</time>
      </trkpt>
      <trkpt lat="42.78728" lon="1.68537">
        <ele>542.32</ele>
        <time>2014-06-21T11:59:33Z</time>
      </trkpt>
      <trkpt lat="42.78727" lon="1.68537">
        <ele>536.55</ele>
        <time>2014-06-21T12:00:07Z</time>
      </trkpt>
      <trkpt lat="42.78725" lon="1.68543">
        <ele>540.4</ele>
        <time>2014-06-21T12:00:31Z</time>
      </trkpt>
      <trkpt lat="42.78727" lon="1.68542">
        <ele>538.48</ele>
        <time>2014-06-21T12:00:56Z</time>
      </trkpt>
      <trkpt lat="42.78725" lon="1.68541">
        <ele>541.36</ele>
        <time>2014-06-21T12:01:20Z</time>
      </trkpt>
      <trkpt lat="42.78727" lon="1.68533">
        <ele>541.84</ele>
        <time>2014-06-21T12:01:37Z</time>
      </trkpt>
      <trkpt lat="42.78732" lon="1.68522">
        <ele>540.4</ele>
        <time>2014-06-21T12:01:50Z</time>
      </trkpt>
      <trkpt lat="42.78728" lon="1.68518">
        <ele>540.4</ele>
        <time>2014-06-21T12:02:05Z</time>
      </trkpt>
      <trkpt lat="42.7873" lon="1.68511">
        <ele>539.92</ele>
        <time>2014-06-21T12:02:23Z</time>
      </trkpt>
      <trkpt lat="42.78732" lon="1.68504">
        <ele>540.88</ele>
        <time>2014-06-21T12:02:35Z</time>
      </trkpt>
      <trkpt lat="42.78726" lon="1.68503">
        <ele>542.32</ele>
        <time>2014-06-21T12:02:47Z</time>
      </trkpt>
      <trkpt lat="42.78723" lon="1.68505">
        <ele>541.84</ele>
        <time>2014-06-21T12:03:12Z</time>
      </trkpt>
      <trkpt lat="42.7872" lon="1.68506">
        <ele>542.32</ele>
        <time>2014-06-21T12:03:23Z</time>
      </trkpt>
      <trkpt lat="42.78717" lon="1.68505">
        <ele>541.84</ele>
        <time>2014-06-21T12:03:26Z</time>
      </trkpt>
      <trkpt lat="42.78705" lon="1.68509">
        <ele>542.8</ele>
        <time>2014-06-21T12:03:37Z</time>
      </trkpt>
      <trkpt lat="42.78691" lon="1.68518">
        <ele>544.72</ele>
        <time>2014-06-21T12:03:49Z</time>
      </trkpt>
      <trkpt lat="42.78687" lon="1.68521">
        <ele>546.17</ele>
        <time>2014-06-21T12:03:53Z</time>
      </trkpt>
      <trkpt lat="42.78683" lon="1.68531">
        <ele>545.69</ele>
        <time>2014-06-21T12:03:59Z</time>
      </trkpt>
      <trkpt lat="42.78679" lon="1.68551">
        <ele>542.32</ele>
        <time>2014-06-21T12:04:11Z</time>
      </trkpt>
      <trkpt lat="42.78675" lon="1.68574">
        <ele>540.4</ele>
        <time>2014-06-21T12:04:25Z</time>
      </trkpt>
      <trkpt lat="42.78673" lon="1.68589">
        <ele>537.99</ele>
        <time>2014-06-21T12:04:37Z</time>
      </trkpt>
      <trkpt lat="42.78669" lon="1.68603">
        <ele>537.51</ele>
        <time>2014-06-21T12:04:47Z</time>
      </trkpt>
      <trkpt lat="42.78668" lon="1.68611">
        <ele>537.51</ele>
        <time>2014-06-21T12:04:51Z</time>
      </trkpt>
      <trkpt lat="42.78665" lon="1.68623">
        <ele>537.51</ele>
        <time>2014-06-21T12:05:04Z</time>
      </trkpt>
      <trkpt lat="42.78662" lon="1.68642">
        <ele>536.55</ele>
        <time>2014-06-21T12:05:17Z</time>
      </trkpt>
      <trkpt lat="42.78661" lon="1.68657">
        <ele>535.59</ele>
        <time>2014-06-21T12:05:26Z</time>
      </trkpt>
      <trkpt lat="42.7866" lon="1.68671">
        <ele>535.11</ele>
        <time>2014-06-21T12:05:35Z</time>
      </trkpt>
      <trkpt lat="42.78656" lon="1.68687">
        <ele>535.11</ele>
        <time>2014-06-21T12:05:47Z</time>
      </trkpt>
      <trkpt lat="42.78652" lon="1.68707">
        <ele>534.63</ele>
        <time>2014-06-21T12:06:00Z</time>
      </trkpt>
      <trkpt lat="42.7865" lon="1.68723">
        <ele>534.63</ele>
        <time>2014-06-21T12:06:11Z</time>
      </trkpt>
      <trkpt lat="42.78646" lon="1.68742">
        <ele>534.15</ele>
        <time>2014-06-21T12:06:24Z</time>
      </trkpt>
      <trkpt lat="42.78642" lon="1.68763">
        <ele>534.63</ele>
        <time>2014-06-21T12:06:38Z</time>
      </trkpt>
      <trkpt lat="42.78639" lon="1.68784">
        <ele>533.19</ele>
        <time>2014-06-21T12:06:52Z</time>
      </trkpt>
      <trkpt lat="42.78638" lon="1.68791">
        <ele>532.71</ele>
        <time>2014-06-21T12:06:58Z</time>
      </trkpt>
      <trkpt lat="42.78635" lon="1.68815">
        <ele>532.71</ele>
        <time>2014-06-21T12:07:13Z</time>
      </trkpt>
      <trkpt lat="42.78632" lon="1.68834">
        <ele>532.23</ele>
        <time>2014-06-21T12:07:26Z</time>
      </trkpt>
      <trkpt lat="42.78631" lon="1.68839">
        <ele>532.23</ele>
        <time>2014-06-21T12:07:29Z</time>
      </trkpt>
      <trkpt lat="42.78626" lon="1.68841">
        <ele>532.71</ele>
        <time>2014-06-21T12:07:35Z</time>
      </trkpt>
      <trkpt lat="42.78618" lon="1.68838">
        <ele>533.19</ele>
        <time>2014-06-21T12:07:40Z</time>
      </trkpt>
      <trkpt lat="42.78601" lon="1.6883">
        <ele>534.63</ele>
        <time>2014-06-21T12:07:55Z</time>
      </trkpt>
      <trkpt lat="42.78587" lon="1.68825">
        <ele>539.44</ele>
        <time>2014-06-21T12:08:10Z</time>
      </trkpt>
      <trkpt lat="42.7857" lon="1.68827">
        <ele>543.28</ele>
        <time>2014-06-21T12:08:26Z</time>
      </trkpt>
      <trkpt lat="42.7855" lon="1.68825">
        <ele>546.65</ele>
        <time>2014-06-21T12:08:42Z</time>
      </trkpt>
      <trkpt lat="42.78536" lon="1.68828">
        <ele>553.86</ele>
        <time>2014-06-21T12:08:53Z</time>
      </trkpt>
      <trkpt lat="42.78521" lon="1.68825">
        <ele>556.26</ele>
        <time>2014-06-21T12:08:59Z</time>
      </trkpt>
      <trkpt lat="42.78505" lon="1.68817">
        <ele>564.91</ele>
        <time>2014-06-21T12:09:16Z</time>
      </trkpt>
      <trkpt lat="42.78502" lon="1.68819">
        <ele>566.35</ele>
        <time>2014-06-21T12:09:18Z</time>
      </trkpt>
      <trkpt lat="42.78495" lon="1.68828">
        <ele>574.53</ele>
        <time>2014-06-21T12:09:34Z</time>
      </trkpt>
      <trkpt lat="42.78492" lon="1.68819">
        <ele>583.66</ele>
        <time>2014-06-21T12:09:49Z</time>
      </trkpt>
      <trkpt lat="42.7849" lon="1.68823">
        <ele>581.25</ele>
        <time>2014-06-21T12:09:55Z</time>
      </trkpt>
      <trkpt lat="42.78485" lon="1.68836">
        <ele>571.64</ele>
        <time>2014-06-21T12:10:05Z</time>
      </trkpt>
      <trkpt lat="42.78476" lon="1.68859">
        <ele>569.72</ele>
        <time>2014-06-21T12:10:19Z</time>
      </trkpt>
      <trkpt lat="42.78465" lon="1.6886">
        <ele>561.55</ele>
        <time>2014-06-21T12:10:31Z</time>
      </trkpt>
      <trkpt lat="42.78459" lon="1.68857">
        <ele>561.55</ele>
        <time>2014-06-21T12:10:36Z</time>
      </trkpt>
      <trkpt lat="42.78451" lon="1.68854">
        <ele>559.62</ele>
        <time>2014-06-21T12:10:43Z</time>
      </trkpt>
      <trkpt lat="42.78449" lon="1.6885">
        <ele>555.78</ele>
        <time>2014-06-21T12:10:49Z</time>
      </trkpt>
      <trkpt lat="42.78431" lon="1.68841">
        <ele>555.3</ele>
        <time>2014-06-21T12:11:02Z</time>
      </trkpt>
      <trkpt lat="42.78419" lon="1.68837">
        <ele>552.41</ele>
        <time>2014-06-21T12:11:16Z</time>
      </trkpt>
      <trkpt lat="42.78401" lon="1.68828">
        <ele>551.93</ele>
        <time>2014-06-21T12:11:31Z</time>
      </trkpt>
      <trkpt lat="42.78395" lon="1.68821">
        <ele>552.41</ele>
        <time>2014-06-21T12:11:44Z</time>
      </trkpt>
      <trkpt lat="42.78394" lon="1.6882">
        <ele>553.38</ele>
        <time>2014-06-21T12:11:47Z</time>
      </trkpt>
      <trkpt lat="42.78383" lon="1.68808">
        <ele>554.82</ele>
        <time>2014-06-21T12:12:01Z</time>
      </trkpt>
      <trkpt lat="42.78374" lon="1.68795">
        <ele>553.86</ele>
        <time>2014-06-21T12:12:10Z</time>
      </trkpt>
      <trkpt lat="42.78368" lon="1.6878">
        <ele>551.93</ele>
        <time>2014-06-21T12:12:22Z</time>
      </trkpt>
      <trkpt lat="42.78367" lon="1.68777">
        <ele>551.93</ele>
        <time>2014-06-21T12:12:23Z</time>
      </trkpt>
      <trkpt lat="42.78367" lon="1.68775">
        <ele>551.45</ele>
        <time>2014-06-21T12:12:24Z</time>
      </trkpt>
      <trkpt lat="42.78371" lon="1.68765">
        <ele>550.49</ele>
        <time>2014-06-21T12:12:34Z</time>
      </trkpt>
      <trkpt lat="42.78372" lon="1.6876">
        <ele>555.3</ele>
        <time>2014-06-21T12:12:49Z</time>
      </trkpt>
      <trkpt lat="42.78371" lon="1.68755">
        <ele>555.3</ele>
        <time>2014-06-21T12:12:53Z</time>
      </trkpt>
      <trkpt lat="42.78371" lon="1.68752">
        <ele>555.3</ele>
        <time>2014-06-21T12:12:54Z</time>
      </trkpt>
      <trkpt lat="42.78373" lon="1.68747">
        <ele>551.93</ele>
        <time>2014-06-21T12:13:05Z</time>
      </trkpt>
      <trkpt lat="42.7836" lon="1.68761">
        <ele>550.49</ele>
        <time>2014-06-21T12:13:18Z</time>
      </trkpt>
      <trkpt lat="42.78356" lon="1.68774">
        <ele>551.45</ele>
        <time>2014-06-21T12:13:29Z</time>
      </trkpt>
      <trkpt lat="42.78355" lon="1.68776">
        <ele>551.45</ele>
        <time>2014-06-21T12:13:31Z</time>
      </trkpt>
      <trkpt lat="42.78355" lon="1.68781">
        <ele>551.93</ele>
        <time>2014-06-21T12:13:35Z</time>
      </trkpt>
      <trkpt lat="42.78354" lon="1.68796">
        <ele>551.45</ele>
        <time>2014-06-21T12:13:46Z</time>
      </trkpt>
      <trkpt lat="42.78354" lon="1.68803">
        <ele>555.3</ele>
        <time>2014-06-21T12:13:56Z</time>
      </trkpt>
      <trkpt lat="42.78356" lon="1.68801">
        <ele>555.78</ele>
        <time>2014-06-21T12:13:58Z</time>
      </trkpt>
      <trkpt lat="42.78352" lon="1.6879">
        <ele>558.66</ele>
        <time>2014-06-21T12:14:08Z</time>
      </trkpt>
      <trkpt lat="42.78346" lon="1.68792">
        <ele>561.55</ele>
        <time>2014-06-21T12:14:15Z</time>
      </trkpt>
      <trkpt lat="42.78342" lon="1.68805">
        <ele>563.47</ele>
        <time>2014-06-21T12:14:25Z</time>
      </trkpt>
      <trkpt lat="42.78338" lon="1.68813">
        <ele>565.39</ele>
        <time>2014-06-21T12:14:34Z</time>
      </trkpt>
      <trkpt lat="42.78336" lon="1.68812">
        <ele>566.35</ele>
        <time>2014-06-21T12:14:38Z</time>
      </trkpt>
      <trkpt lat="42.78332" lon="1.6882">
        <ele>566.83</ele>
        <time>2014-06-21T12:14:52Z</time>
      </trkpt>
      <trkpt lat="42.78333" lon="1.6882">
        <ele>566.35</ele>
        <time>2014-06-21T12:15:09Z</time>
      </trkpt>
      <trkpt lat="42.7833" lon="1.68824">
        <ele>566.35</ele>
        <time>2014-06-21T12:15:19Z</time>
      </trkpt>
      <trkpt lat="42.78329" lon="1.68826">
        <ele>565.87</ele>
        <time>2014-06-21T12:15:55Z</time>
      </trkpt>
      <trkpt lat="42.78328" lon="1.68826">
        <ele>565.87</ele>
        <time>2014-06-21T12:15:59Z</time>
      </trkpt>
      <trkpt lat="42.78321" lon="1.68824">
        <ele>565.87</ele>
        <time>2014-06-21T12:16:09Z</time>
      </trkpt>
      <trkpt lat="42.78317" lon="1.68826">
        <ele>569.24</ele>
        <time>2014-06-21T12:16:27Z</time>
      </trkpt>
      <trkpt lat="42.78307" lon="1.68823">
        <ele>571.16</ele>
        <time>2014-06-21T12:16:38Z</time>
      </trkpt>
      <trkpt lat="42.78294" lon="1.68819">
        <ele>573.08</ele>
        <time>2014-06-21T12:16:49Z</time>
      </trkpt>
      <trkpt lat="42.78287" lon="1.68817">
        <ele>572.6</ele>
        <time>2014-06-21T12:16:59Z</time>
      </trkpt>
      <trkpt lat="42.78282" lon="1.68818">
        <ele>574.04</ele>
        <time>2014-06-21T12:17:04Z</time>
      </trkpt>
      <trkpt lat="42.78278" lon="1.68826">
        <ele>576.45</ele>
        <time>2014-06-21T12:17:13Z</time>
      </trkpt>
      <trkpt lat="42.7828" lon="1.68842">
        <ele>575.01</ele>
        <time>2014-06-21T12:17:23Z</time>
      </trkpt>
      <trkpt lat="42.78278" lon="1.68848">
        <ele>575.01</ele>
        <time>2014-06-21T12:17:27Z</time>
      </trkpt>
      <trkpt lat="42.78276" lon="1.68855">
        <ele>577.41</ele>
        <time>2014-06-21T12:17:33Z</time>
      </trkpt>
      <trkpt lat="42.7827" lon="1.68864">
        <ele>581.73</ele>
        <time>2014-06-21T12:17:45Z</time>
      </trkpt>
      <trkpt lat="42.78269" lon="1.68866">
        <ele>583.66</ele>
        <time>2014-06-21T12:17:50Z</time>
      </trkpt>
      <trkpt lat="42.78259" lon="1.68867">
        <ele>587.02</ele>
        <time>2014-06-21T12:18:02Z</time>
      </trkpt>
      <trkpt lat="42.78251" lon="1.68869">
        <ele>589.91</ele>
        <time>2014-06-21T12:18:21Z</time>
      </trkpt>
      <trkpt lat="42.7825" lon="1.68871">
        <ele>592.31</ele>
        <time>2014-06-21T12:18:41Z</time>
      </trkpt>
      <trkpt lat="42.78243" lon="1.68868">
        <ele>587.98</ele>
        <time>2014-06-21T12:18:55Z</time>
      </trkpt>
      <trkpt lat="42.78229" lon="1.68869">
        <ele>590.87</ele>
        <time>2014-06-21T12:19:07Z</time>
      </trkpt>
      <trkpt lat="42.78225" lon="1.6887">
        <ele>592.31</ele>
        <time>2014-06-21T12:19:11Z</time>
      </trkpt>
      <trkpt lat="42.7821" lon="1.68883">
        <ele>591.83</ele>
        <time>2014-06-21T12:19:26Z</time>
      </trkpt>
      <trkpt lat="42.78206" lon="1.68886">
        <ele>594.23</ele>
        <time>2014-06-21T12:19:30Z</time>
      </trkpt>
      <trkpt lat="42.78196" lon="1.68897">
        <ele>599.04</ele>
        <time>2014-06-21T12:19:42Z</time>
      </trkpt>
      <trkpt lat="42.78185" lon="1.68905">
        <ele>603.36</ele>
        <time>2014-06-21T12:19:54Z</time>
      </trkpt>
      <trkpt lat="42.7818" lon="1.68905">
        <ele>604.81</ele>
        <time>2014-06-21T12:20:05Z</time>
      </trkpt>
      <trkpt lat="42.78173" lon="1.68901">
        <ele>607.21</ele>
        <time>2014-06-21T12:20:18Z</time>
      </trkpt>
      <trkpt lat="42.78175" lon="1.68923">
        <ele>606.25</ele>
        <time>2014-06-21T12:20:40Z</time>
      </trkpt>
      <trkpt lat="42.78166" lon="1.68921">
        <ele>603.85</ele>
        <time>2014-06-21T12:21:03Z</time>
      </trkpt>
      <trkpt lat="42.78161" lon="1.68914">
        <ele>600</ele>
        <time>2014-06-21T12:21:29Z</time>
      </trkpt>
      <trkpt lat="42.78161" lon="1.68914">
        <ele>599.04</ele>
        <time>2014-06-21T12:21:51Z</time>
      </trkpt>
      <trkpt lat="42.78148" lon="1.68909">
        <ele>600</ele>
        <time>2014-06-21T12:22:04Z</time>
      </trkpt>
      <trkpt lat="42.78143" lon="1.68911">
        <ele>600.96</ele>
        <time>2014-06-21T12:22:18Z</time>
      </trkpt>
      <trkpt lat="42.78138" lon="1.68922">
        <ele>602.88</ele>
        <time>2014-06-21T12:22:29Z</time>
      </trkpt>
      <trkpt lat="42.78132" lon="1.6894">
        <ele>603.36</ele>
        <time>2014-06-21T12:22:42Z</time>
      </trkpt>
      <trkpt lat="42.78131" lon="1.68944">
        <ele>603.85</ele>
        <time>2014-06-21T12:22:44Z</time>
      </trkpt>
      <trkpt lat="42.78133" lon="1.68958">
        <ele>605.77</ele>
        <time>2014-06-21T12:22:57Z</time>
      </trkpt>
      <trkpt lat="42.78134" lon="1.68975">
        <ele>605.77</ele>
        <time>2014-06-21T12:23:10Z</time>
      </trkpt>
      <trkpt lat="42.78142" lon="1.68995">
        <ele>609.13</ele>
        <time>2014-06-21T12:23:23Z</time>
      </trkpt>
      <trkpt lat="42.78146" lon="1.69006">
        <ele>610.09</ele>
        <time>2014-06-21T12:23:32Z</time>
      </trkpt>
      <trkpt lat="42.78144" lon="1.69039">
        <ele>612.5</ele>
        <time>2014-06-21T12:23:48Z</time>
      </trkpt>
      <trkpt lat="42.78148" lon="1.69059">
        <ele>612.02</ele>
        <time>2014-06-21T12:24:03Z</time>
      </trkpt>
      <trkpt lat="42.78147" lon="1.69073">
        <ele>613.46</ele>
        <time>2014-06-21T12:24:14Z</time>
      </trkpt>
      <trkpt lat="42.78145" lon="1.69085">
        <ele>615.86</ele>
        <time>2014-06-21T12:24:25Z</time>
      </trkpt>
      <trkpt lat="42.78142" lon="1.69101">
        <ele>621.15</ele>
        <time>2014-06-21T12:24:38Z</time>
      </trkpt>
      <trkpt lat="42.78134" lon="1.69116">
        <ele>620.67</ele>
        <time>2014-06-21T12:24:51Z</time>
      </trkpt>
      <trkpt lat="42.78131" lon="1.69125">
        <ele>618.26</ele>
        <time>2014-06-21T12:25:08Z</time>
      </trkpt>
      <trkpt lat="42.7813" lon="1.69132">
        <ele>615.38</ele>
        <time>2014-06-21T12:25:24Z</time>
      </trkpt>
      <trkpt lat="42.78131" lon="1.69138">
        <ele>614.42</ele>
        <time>2014-06-21T12:25:35Z</time>
      </trkpt>
      <trkpt lat="42.78127" lon="1.69147">
        <ele>613.94</ele>
        <time>2014-06-21T12:25:47Z</time>
      </trkpt>
      <trkpt lat="42.78119" lon="1.69154">
        <ele>614.42</ele>
        <time>2014-06-21T12:25:55Z</time>
      </trkpt>
      <trkpt lat="42.78106" lon="1.69168">
        <ele>614.9</ele>
        <time>2014-06-21T12:26:10Z</time>
      </trkpt>
      <trkpt lat="42.78105" lon="1.69169">
        <ele>614.42</ele>
        <time>2014-06-21T12:26:11Z</time>
      </trkpt>
      <trkpt lat="42.78094" lon="1.69186">
        <ele>614.42</ele>
        <time>2014-06-21T12:26:26Z</time>
      </trkpt>
      <trkpt lat="42.78086" lon="1.69199">
        <ele>614.9</ele>
        <time>2014-06-21T12:26:38Z</time>
      </trkpt>
      <trkpt lat="42.78078" lon="1.69209">
        <ele>615.38</ele>
        <time>2014-06-21T12:26:49Z</time>
      </trkpt>
      <trkpt lat="42.78076" lon="1.69214">
        <ele>615.86</ele>
        <time>2014-06-21T12:26:53Z</time>
      </trkpt>
      <trkpt lat="42.78064" lon="1.69226">
        <ele>617.3</ele>
        <time>2014-06-21T12:27:06Z</time>
      </trkpt>
      <trkpt lat="42.78058" lon="1.69239">
        <ele>617.78</ele>
        <time>2014-06-21T12:27:17Z</time>
      </trkpt>
      <trkpt lat="42.78048" lon="1.69248">
        <ele>618.75</ele>
        <time>2014-06-21T12:27:28Z</time>
      </trkpt>
      <trkpt lat="42.78041" lon="1.69252">
        <ele>620.67</ele>
        <time>2014-06-21T12:27:40Z</time>
      </trkpt>
      <trkpt lat="42.78034" lon="1.69257">
        <ele>621.15</ele>
        <time>2014-06-21T12:27:53Z</time>
      </trkpt>
      <trkpt lat="42.78026" lon="1.69258">
        <ele>624.03</ele>
        <time>2014-06-21T12:28:09Z</time>
      </trkpt>
      <trkpt lat="42.78013" lon="1.69262">
        <ele>630.76</ele>
        <time>2014-06-21T12:28:24Z</time>
      </trkpt>
      <trkpt lat="42.77995" lon="1.69272">
        <ele>637.49</ele>
        <time>2014-06-21T12:28:37Z</time>
      </trkpt>
      <trkpt lat="42.77986" lon="1.69283">
        <ele>639.41</ele>
        <time>2014-06-21T12:28:46Z</time>
      </trkpt>
      <trkpt lat="42.77977" lon="1.69293">
        <ele>637.97</ele>
        <time>2014-06-21T12:28:59Z</time>
      </trkpt>
      <trkpt lat="42.77967" lon="1.69296">
        <ele>635.09</ele>
        <time>2014-06-21T12:29:15Z</time>
      </trkpt>
      <trkpt lat="42.77967" lon="1.69296">
        <ele>635.09</ele>
        <time>2014-06-21T12:29:36Z</time>
      </trkpt>
      <trkpt lat="42.77964" lon="1.69297">
        <ele>634.13</ele>
        <time>2014-06-21T12:29:59Z</time>
      </trkpt>
      <trkpt lat="42.77967" lon="1.69293">
        <ele>635.57</ele>
        <time>2014-06-21T12:30:27Z</time>
      </trkpt>
      <trkpt lat="42.77967" lon="1.69292">
        <ele>637.49</ele>
        <time>2014-06-21T12:30:55Z</time>
      </trkpt>
      <trkpt lat="42.77967" lon="1.69294">
        <ele>639.41</ele>
        <time>2014-06-21T12:31:17Z</time>
      </trkpt>
      <trkpt lat="42.77969" lon="1.69292">
        <ele>637.01</ele>
        <time>2014-06-21T12:31:44Z</time>
      </trkpt>
      <trkpt lat="42.77969" lon="1.69294">
        <ele>632.68</ele>
        <time>2014-06-21T12:32:15Z</time>
      </trkpt>
      <trkpt lat="42.77953" lon="1.69291">
        <ele>629.8</ele>
        <time>2014-06-21T12:32:29Z</time>
      </trkpt>
      <trkpt lat="42.77937" lon="1.69292">
        <ele>630.28</ele>
        <time>2014-06-21T12:32:44Z</time>
      </trkpt>
      <trkpt lat="42.77928" lon="1.69294">
        <ele>631.24</ele>
        <time>2014-06-21T12:32:54Z</time>
      </trkpt>
      <trkpt lat="42.77924" lon="1.69298">
        <ele>634.13</ele>
        <time>2014-06-21T12:32:59Z</time>
      </trkpt>
      <trkpt lat="42.7792" lon="1.69304">
        <ele>635.09</ele>
        <time>2014-06-21T12:33:13Z</time>
      </trkpt>
      <trkpt lat="42.77916" lon="1.69307">
        <ele>637.01</ele>
        <time>2014-06-21T12:33:20Z</time>
      </trkpt>
      <trkpt lat="42.77914" lon="1.69306">
        <ele>636.53</ele>
        <time>2014-06-21T12:33:24Z</time>
      </trkpt>
      <trkpt lat="42.77912" lon="1.69302">
        <ele>635.09</ele>
        <time>2014-06-21T12:33:28Z</time>
      </trkpt>
      <trkpt lat="42.77913" lon="1.69299">
        <ele>634.61</ele>
        <time>2014-06-21T12:33:32Z</time>
      </trkpt>
      <trkpt lat="42.77911" lon="1.69294">
        <ele>634.61</ele>
        <time>2014-06-21T12:33:37Z</time>
      </trkpt>
      <trkpt lat="42.7791" lon="1.69291">
        <ele>634.13</ele>
        <time>2014-06-21T12:33:41Z</time>
      </trkpt>
      <trkpt lat="42.77898" lon="1.69284">
        <ele>634.13</ele>
        <time>2014-06-21T12:33:51Z</time>
      </trkpt>
      <trkpt lat="42.77892" lon="1.6928">
        <ele>634.61</ele>
        <time>2014-06-21T12:34:02Z</time>
      </trkpt>
      <trkpt lat="42.77885" lon="1.69279">
        <ele>636.53</ele>
        <time>2014-06-21T12:34:14Z</time>
      </trkpt>
      <trkpt lat="42.7787" lon="1.69283">
        <ele>640.38</ele>
        <time>2014-06-21T12:34:30Z</time>
      </trkpt>
      <trkpt lat="42.77859" lon="1.69289">
        <ele>644.7</ele>
        <time>2014-06-21T12:34:42Z</time>
      </trkpt>
      <trkpt lat="42.77842" lon="1.6929">
        <ele>648.55</ele>
        <time>2014-06-21T12:34:57Z</time>
      </trkpt>
      <trkpt lat="42.77833" lon="1.69287">
        <ele>649.03</ele>
        <time>2014-06-21T12:35:09Z</time>
      </trkpt>
      <trkpt lat="42.77823" lon="1.69285">
        <ele>650.95</ele>
        <time>2014-06-21T12:35:25Z</time>
      </trkpt>
      <trkpt lat="42.77813" lon="1.69279">
        <ele>648.55</ele>
        <time>2014-06-21T12:35:38Z</time>
      </trkpt>
      <trkpt lat="42.77801" lon="1.69273">
        <ele>647.59</ele>
        <time>2014-06-21T12:35:51Z</time>
      </trkpt>
      <trkpt lat="42.77793" lon="1.69273">
        <ele>647.1</ele>
        <time>2014-06-21T12:35:59Z</time>
      </trkpt>
      <trkpt lat="42.77783" lon="1.69273">
        <ele>647.59</ele>
        <time>2014-06-21T12:36:13Z</time>
      </trkpt>
      <trkpt lat="42.77774" lon="1.69274">
        <ele>650.47</ele>
        <time>2014-06-21T12:36:25Z</time>
      </trkpt>
      <trkpt lat="42.77768" lon="1.69273">
        <ele>650.95</ele>
        <time>2014-06-21T12:36:33Z</time>
      </trkpt>
      <trkpt lat="42.77757" lon="1.69273">
        <ele>650.95</ele>
        <time>2014-06-21T12:36:48Z</time>
      </trkpt>
      <trkpt lat="42.77746" lon="1.6927">
        <ele>651.91</ele>
        <time>2014-06-21T12:37:04Z</time>
      </trkpt>
      <trkpt lat="42.77741" lon="1.6927">
        <ele>651.91</ele>
        <time>2014-06-21T12:37:10Z</time>
      </trkpt>
      <trkpt lat="42.77729" lon="1.69273">
        <ele>653.83</ele>
        <time>2014-06-21T12:37:24Z</time>
      </trkpt>
      <trkpt lat="42.7772" lon="1.69274">
        <ele>656.24</ele>
        <time>2014-06-21T12:37:38Z</time>
      </trkpt>
      <trkpt lat="42.77709" lon="1.69275">
        <ele>662.01</ele>
        <time>2014-06-21T12:37:53Z</time>
      </trkpt>
      <trkpt lat="42.77698" lon="1.69276">
        <ele>665.85</ele>
        <time>2014-06-21T12:38:04Z</time>
      </trkpt>
      <trkpt lat="42.77688" lon="1.69283">
        <ele>670.18</ele>
        <time>2014-06-21T12:38:15Z</time>
      </trkpt>
      <trkpt lat="42.77683" lon="1.69281">
        <ele>671.62</ele>
        <time>2014-06-21T12:38:20Z</time>
      </trkpt>
      <trkpt lat="42.77673" lon="1.69282">
        <ele>672.1</ele>
        <time>2014-06-21T12:38:31Z</time>
      </trkpt>
      <trkpt lat="42.77665" lon="1.69283">
        <ele>671.62</ele>
        <time>2014-06-21T12:38:41Z</time>
      </trkpt>
      <trkpt lat="42.77657" lon="1.6928">
        <ele>670.18</ele>
        <time>2014-06-21T12:38:51Z</time>
      </trkpt>
      <trkpt lat="42.77647" lon="1.69278">
        <ele>670.18</ele>
        <time>2014-06-21T12:39:02Z</time>
      </trkpt>
      <trkpt lat="42.77641" lon="1.69278">
        <ele>669.22</ele>
        <time>2014-06-21T12:39:14Z</time>
      </trkpt>
      <trkpt lat="42.77633" lon="1.69279">
        <ele>671.62</ele>
        <time>2014-06-21T12:39:28Z</time>
      </trkpt>
      <trkpt lat="42.77626" lon="1.69274">
        <ele>675.46</ele>
        <time>2014-06-21T12:39:41Z</time>
      </trkpt>
      <trkpt lat="42.77618" lon="1.69272">
        <ele>677.87</ele>
        <time>2014-06-21T12:39:53Z</time>
      </trkpt>
      <trkpt lat="42.77606" lon="1.6927">
        <ele>679.31</ele>
        <time>2014-06-21T12:40:07Z</time>
      </trkpt>
      <trkpt lat="42.77593" lon="1.69269">
        <ele>680.27</ele>
        <time>2014-06-21T12:40:21Z</time>
      </trkpt>
      <trkpt lat="42.77582" lon="1.69277">
        <ele>681.71</ele>
        <time>2014-06-21T12:40:34Z</time>
      </trkpt>
      <trkpt lat="42.77572" lon="1.6928">
        <ele>686.04</ele>
        <time>2014-06-21T12:40:48Z</time>
      </trkpt>
      <trkpt lat="42.77572" lon="1.6928">
        <ele>686.04</ele>
        <time>2014-06-21T12:40:49Z</time>
      </trkpt>
      <trkpt lat="42.77568" lon="1.69283">
        <ele>687.96</ele>
        <time>2014-06-21T12:41:00Z</time>
      </trkpt>
      <trkpt lat="42.77562" lon="1.69289">
        <ele>692.29</ele>
        <time>2014-06-21T12:41:12Z</time>
      </trkpt>
      <trkpt lat="42.7756" lon="1.69291">
        <ele>692.29</ele>
        <time>2014-06-21T12:41:38Z</time>
      </trkpt>
      <trkpt lat="42.77562" lon="1.6929">
        <ele>691.33</ele>
        <time>2014-06-21T12:41:54Z</time>
      </trkpt>
      <trkpt lat="42.77566" lon="1.69288">
        <ele>690.84</ele>
        <time>2014-06-21T12:42:17Z</time>
      </trkpt>
      <trkpt lat="42.77567" lon="1.69289">
        <ele>690.36</ele>
        <time>2014-06-21T12:42:44Z</time>
      </trkpt>
      <trkpt lat="42.77564" lon="1.69285">
        <ele>692.29</ele>
        <time>2014-06-21T12:43:03Z</time>
      </trkpt>
      <trkpt lat="42.77561" lon="1.69291">
        <ele>695.65</ele>
        <time>2014-06-21T12:43:26Z</time>
      </trkpt>
      <trkpt lat="42.77562" lon="1.69295">
        <ele>691.81</ele>
        <time>2014-06-21T12:43:53Z</time>
      </trkpt>
      <trkpt lat="42.77566" lon="1.69298">
        <ele>694.21</ele>
        <time>2014-06-21T12:44:29Z</time>
      </trkpt>
      <trkpt lat="42.77563" lon="1.69295">
        <ele>689.4</ele>
        <time>2014-06-21T12:45:04Z</time>
      </trkpt>
      <trkpt lat="42.77561" lon="1.69292">
        <ele>686.52</ele>
        <time>2014-06-21T12:45:39Z</time>
      </trkpt>
      <trkpt lat="42.77564" lon="1.69289">
        <ele>689.88</ele>
        <time>2014-06-21T12:46:14Z</time>
      </trkpt>
      <trkpt lat="42.77566" lon="1.6929">
        <ele>692.29</ele>
        <time>2014-06-21T12:46:44Z</time>
      </trkpt>
      <trkpt lat="42.77565" lon="1.69294">
        <ele>696.13</ele>
        <time>2014-06-21T12:47:17Z</time>
      </trkpt>
      <trkpt lat="42.77563" lon="1.6929">
        <ele>692.29</ele>
        <time>2014-06-21T12:47:44Z</time>
      </trkpt>
      <trkpt lat="42.77568" lon="1.69285">
        <ele>689.88</ele>
        <time>2014-06-21T12:48:18Z</time>
      </trkpt>
      <trkpt lat="42.77567" lon="1.69284">
        <ele>692.77</ele>
        <time>2014-06-21T12:48:45Z</time>
      </trkpt>
      <trkpt lat="42.77565" lon="1.69285">
        <ele>688.92</ele>
        <time>2014-06-21T12:49:06Z</time>
      </trkpt>
      <trkpt lat="42.77559" lon="1.69293">
        <ele>689.88</ele>
        <time>2014-06-21T12:49:37Z</time>
      </trkpt>
      <trkpt lat="42.77555" lon="1.69288">
        <ele>692.29</ele>
        <time>2014-06-21T12:49:54Z</time>
      </trkpt>
      <trkpt lat="42.77545" lon="1.69289">
        <ele>693.73</ele>
        <time>2014-06-21T12:50:09Z</time>
      </trkpt>
      <trkpt lat="42.77534" lon="1.69287">
        <ele>694.69</ele>
        <time>2014-06-21T12:50:23Z</time>
      </trkpt>
      <trkpt lat="42.77524" lon="1.69291">
        <ele>696.61</ele>
        <time>2014-06-21T12:50:37Z</time>
      </trkpt>
      <trkpt lat="42.77513" lon="1.69291">
        <ele>697.09</ele>
        <time>2014-06-21T12:50:48Z</time>
      </trkpt>
      <trkpt lat="42.77508" lon="1.69291">
        <ele>696.61</ele>
        <time>2014-06-21T12:50:59Z</time>
      </trkpt>
      <trkpt lat="42.77499" lon="1.69292">
        <ele>696.61</ele>
        <time>2014-06-21T12:51:11Z</time>
      </trkpt>
      <trkpt lat="42.77496" lon="1.69286">
        <ele>696.13</ele>
        <time>2014-06-21T12:51:22Z</time>
      </trkpt>
      <trkpt lat="42.77491" lon="1.69279">
        <ele>697.57</ele>
        <time>2014-06-21T12:51:33Z</time>
      </trkpt>
      <trkpt lat="42.77488" lon="1.69273">
        <ele>699.5</ele>
        <time>2014-06-21T12:51:44Z</time>
      </trkpt>
      <trkpt lat="42.77478" lon="1.69274">
        <ele>702.38</ele>
        <time>2014-06-21T12:51:58Z</time>
      </trkpt>
      <trkpt lat="42.77466" lon="1.69277">
        <ele>702.86</ele>
        <time>2014-06-21T12:52:10Z</time>
      </trkpt>
      <trkpt lat="42.77459" lon="1.69285">
        <ele>703.34</ele>
        <time>2014-06-21T12:52:22Z</time>
      </trkpt>
      <trkpt lat="42.77447" lon="1.6929">
        <ele>704.78</ele>
        <time>2014-06-21T12:52:36Z</time>
      </trkpt>
      <trkpt lat="42.77436" lon="1.69296">
        <ele>705.26</ele>
        <time>2014-06-21T12:52:51Z</time>
      </trkpt>
      <trkpt lat="42.77424" lon="1.69299">
        <ele>707.19</ele>
        <time>2014-06-21T12:53:06Z</time>
      </trkpt>
      <trkpt lat="42.77412" lon="1.69307">
        <ele>709.11</ele>
        <time>2014-06-21T12:53:20Z</time>
      </trkpt>
      <trkpt lat="42.77399" lon="1.6931">
        <ele>711.99</ele>
        <time>2014-06-21T12:53:32Z</time>
      </trkpt>
      <trkpt lat="42.77391" lon="1.69308">
        <ele>711.51</ele>
        <time>2014-06-21T12:53:49Z</time>
      </trkpt>
      <trkpt lat="42.77379" lon="1.6931">
        <ele>712.95</ele>
        <time>2014-06-21T12:54:01Z</time>
      </trkpt>
      <trkpt lat="42.77373" lon="1.69316">
        <ele>716.8</ele>
        <time>2014-06-21T12:54:23Z</time>
      </trkpt>
      <trkpt lat="42.77364" lon="1.69318">
        <ele>718.72</ele>
        <time>2014-06-21T12:54:39Z</time>
      </trkpt>
      <trkpt lat="42.77357" lon="1.69324">
        <ele>720.65</ele>
        <time>2014-06-21T12:54:53Z</time>
      </trkpt>
      <trkpt lat="42.77352" lon="1.69328">
        <ele>721.13</ele>
        <time>2014-06-21T12:55:04Z</time>
      </trkpt>
      <trkpt lat="42.77338" lon="1.69338">
        <ele>717.28</ele>
        <time>2014-06-21T12:55:20Z</time>
      </trkpt>
      <trkpt lat="42.7733" lon="1.69354">
        <ele>717.76</ele>
        <time>2014-06-21T12:55:35Z</time>
      </trkpt>
      <trkpt lat="42.77332" lon="1.69364">
        <ele>717.28</ele>
        <time>2014-06-21T12:55:47Z</time>
      </trkpt>
      <trkpt lat="42.77325" lon="1.69376">
        <ele>718.24</ele>
        <time>2014-06-21T12:56:00Z</time>
      </trkpt>
      <trkpt lat="42.77318" lon="1.69382">
        <ele>720.65</ele>
        <time>2014-06-21T12:56:11Z</time>
      </trkpt>
      <trkpt lat="42.77312" lon="1.69387">
        <ele>723.05</ele>
        <time>2014-06-21T12:56:25Z</time>
      </trkpt>
      <trkpt lat="42.77313" lon="1.69397">
        <ele>722.09</ele>
        <time>2014-06-21T12:56:42Z</time>
      </trkpt>
      <trkpt lat="42.77313" lon="1.69407">
        <ele>717.28</ele>
        <time>2014-06-21T12:57:14Z</time>
      </trkpt>
      <trkpt lat="42.77311" lon="1.69408">
        <ele>716.32</ele>
        <time>2014-06-21T12:57:33Z</time>
      </trkpt>
      <trkpt lat="42.77302" lon="1.6941">
        <ele>718.72</ele>
        <time>2014-06-21T12:57:47Z</time>
      </trkpt>
      <trkpt lat="42.77297" lon="1.69416">
        <ele>720.16</ele>
        <time>2014-06-21T12:57:59Z</time>
      </trkpt>
      <trkpt lat="42.77294" lon="1.69419">
        <ele>719.2</ele>
        <time>2014-06-21T12:58:05Z</time>
      </trkpt>
      <trkpt lat="42.77288" lon="1.69433">
        <ele>717.76</ele>
        <time>2014-06-21T12:58:21Z</time>
      </trkpt>
      <trkpt lat="42.77281" lon="1.69449">
        <ele>711.51</ele>
        <time>2014-06-21T12:58:39Z</time>
      </trkpt>
      <trkpt lat="42.77275" lon="1.69461">
        <ele>710.55</ele>
        <time>2014-06-21T12:58:53Z</time>
      </trkpt>
      <trkpt lat="42.77275" lon="1.69475">
        <ele>709.59</ele>
        <time>2014-06-21T12:59:06Z</time>
      </trkpt>
      <trkpt lat="42.77269" lon="1.69486">
        <ele>710.55</ele>
        <time>2014-06-21T12:59:18Z</time>
      </trkpt>
      <trkpt lat="42.77261" lon="1.69504">
        <ele>708.15</ele>
        <time>2014-06-21T12:59:34Z</time>
      </trkpt>
      <trkpt lat="42.77252" lon="1.69515">
        <ele>708.15</ele>
        <time>2014-06-21T12:59:48Z</time>
      </trkpt>
      <trkpt lat="42.77248" lon="1.69525">
        <ele>708.63</ele>
        <time>2014-06-21T13:00:01Z</time>
      </trkpt>
      <trkpt lat="42.77244" lon="1.69538">
        <ele>706.23</ele>
        <time>2014-06-21T13:00:15Z</time>
      </trkpt>
      <trkpt lat="42.77239" lon="1.6955">
        <ele>703.34</ele>
        <time>2014-06-21T13:00:28Z</time>
      </trkpt>
      <trkpt lat="42.77236" lon="1.69566">
        <ele>698.53</ele>
        <time>2014-06-21T13:00:43Z</time>
      </trkpt>
      <trkpt lat="42.77229" lon="1.69584">
        <ele>698.05</ele>
        <time>2014-06-21T13:00:55Z</time>
      </trkpt>
      <trkpt lat="42.77222" lon="1.69601">
        <ele>699.98</ele>
        <time>2014-06-21T13:01:09Z</time>
      </trkpt>
      <trkpt lat="42.77216" lon="1.6962">
        <ele>701.42</ele>
        <time>2014-06-21T13:01:24Z</time>
      </trkpt>
      <trkpt lat="42.77208" lon="1.69642">
        <ele>703.34</ele>
        <time>2014-06-21T13:01:40Z</time>
      </trkpt>
      <trkpt lat="42.772" lon="1.69661">
        <ele>705.26</ele>
        <time>2014-06-21T13:01:52Z</time>
      </trkpt>
      <trkpt lat="42.77193" lon="1.69674">
        <ele>705.26</ele>
        <time>2014-06-21T13:02:03Z</time>
      </trkpt>
      <trkpt lat="42.77191" lon="1.69683">
        <ele>702.86</ele>
        <time>2014-06-21T13:02:14Z</time>
      </trkpt>
      <trkpt lat="42.7719" lon="1.69684">
        <ele>702.86</ele>
        <time>2014-06-21T13:02:15Z</time>
      </trkpt>
      <trkpt lat="42.77185" lon="1.69697">
        <ele>699.5</ele>
        <time>2014-06-21T13:02:29Z</time>
      </trkpt>
      <trkpt lat="42.77179" lon="1.69713">
        <ele>695.65</ele>
        <time>2014-06-21T13:02:41Z</time>
      </trkpt>
      <trkpt lat="42.77177" lon="1.6973">
        <ele>691.33</ele>
        <time>2014-06-21T13:02:54Z</time>
      </trkpt>
      <trkpt lat="42.7717" lon="1.69742">
        <ele>686.04</ele>
        <time>2014-06-21T13:03:10Z</time>
      </trkpt>
      <trkpt lat="42.77155" lon="1.69755">
        <ele>682.67</ele>
        <time>2014-06-21T13:03:29Z</time>
      </trkpt>
      <trkpt lat="42.77149" lon="1.69778">
        <ele>683.15</ele>
        <time>2014-06-21T13:03:48Z</time>
      </trkpt>
      <trkpt lat="42.77146" lon="1.69798">
        <ele>685.08</ele>
        <time>2014-06-21T13:04:04Z</time>
      </trkpt>
      <trkpt lat="42.77144" lon="1.69807">
        <ele>685.56</ele>
        <time>2014-06-21T13:04:10Z</time>
      </trkpt>
      <trkpt lat="42.77142" lon="1.69821">
        <ele>685.08</ele>
        <time>2014-06-21T13:04:19Z</time>
      </trkpt>
      <trkpt lat="42.77137" lon="1.69841">
        <ele>682.19</ele>
        <time>2014-06-21T13:04:31Z</time>
      </trkpt>
      <trkpt lat="42.77139" lon="1.69864">
        <ele>682.19</ele>
        <time>2014-06-21T13:04:47Z</time>
      </trkpt>
      <trkpt lat="42.77148" lon="1.69877">
        <ele>678.83</ele>
        <time>2014-06-21T13:05:00Z</time>
      </trkpt>
      <trkpt lat="42.77155" lon="1.69883">
        <ele>678.83</ele>
        <time>2014-06-21T13:05:09Z</time>
      </trkpt>
      <trkpt lat="42.77168" lon="1.69892">
        <ele>677.39</ele>
        <time>2014-06-21T13:05:22Z</time>
      </trkpt>
      <trkpt lat="42.77181" lon="1.69901">
        <ele>670.18</ele>
        <time>2014-06-21T13:05:34Z</time>
      </trkpt>
      <trkpt lat="42.77188" lon="1.69916">
        <ele>664.89</ele>
        <time>2014-06-21T13:05:46Z</time>
      </trkpt>
      <trkpt lat="42.77189" lon="1.6992">
        <ele>663.45</ele>
        <time>2014-06-21T13:05:51Z</time>
      </trkpt>
      <trkpt lat="42.77185" lon="1.69934">
        <ele>662.97</ele>
        <time>2014-06-21T13:06:06Z</time>
      </trkpt>
      <trkpt lat="42.77174" lon="1.69955">
        <ele>663.45</ele>
        <time>2014-06-21T13:06:22Z</time>
      </trkpt>
      <trkpt lat="42.7717" lon="1.69965">
        <ele>662.97</ele>
        <time>2014-06-21T13:06:44Z</time>
      </trkpt>
      <trkpt lat="42.77174" lon="1.69971">
        <ele>662.49</ele>
        <time>2014-06-21T13:07:04Z</time>
      </trkpt>
      <trkpt lat="42.77167" lon="1.69989">
        <ele>661.52</ele>
        <time>2014-06-21T13:07:23Z</time>
      </trkpt>
      <trkpt lat="42.77163" lon="1.69995">
        <ele>660.56</ele>
        <time>2014-06-21T13:07:32Z</time>
      </trkpt>
      <trkpt lat="42.77151" lon="1.70012">
        <ele>657.68</ele>
        <time>2014-06-21T13:07:47Z</time>
      </trkpt>
      <trkpt lat="42.77151" lon="1.70012">
        <ele>657.68</ele>
        <time>2014-06-21T13:07:48Z</time>
      </trkpt>
      <trkpt lat="42.77148" lon="1.70016">
        <ele>658.16</ele>
        <time>2014-06-21T13:07:54Z</time>
      </trkpt>
      <trkpt lat="42.77135" lon="1.70032">
        <ele>655.76</ele>
        <time>2014-06-21T13:08:09Z</time>
      </trkpt>
      <trkpt lat="42.77111" lon="1.70045">
        <ele>651.91</ele>
        <time>2014-06-21T13:08:27Z</time>
      </trkpt>
      <trkpt lat="42.77105" lon="1.70053">
        <ele>650.95</ele>
        <time>2014-06-21T13:08:38Z</time>
      </trkpt>
      <trkpt lat="42.77097" lon="1.7006">
        <ele>651.91</ele>
        <time>2014-06-21T13:08:52Z</time>
      </trkpt>
      <trkpt lat="42.77088" lon="1.70069">
        <ele>654.31</ele>
        <time>2014-06-21T13:09:06Z</time>
      </trkpt>
      <trkpt lat="42.77082" lon="1.70079">
        <ele>656.24</ele>
        <time>2014-06-21T13:09:19Z</time>
      </trkpt>
      <trkpt lat="42.77077" lon="1.70095">
        <ele>654.8</ele>
        <time>2014-06-21T13:09:34Z</time>
      </trkpt>
      <trkpt lat="42.77077" lon="1.70126">
        <ele>653.35</ele>
        <time>2014-06-21T13:09:51Z</time>
      </trkpt>
      <trkpt lat="42.77075" lon="1.70132">
        <ele>651.91</ele>
        <time>2014-06-21T13:09:56Z</time>
      </trkpt>
      <trkpt lat="42.77072" lon="1.70151">
        <ele>649.51</ele>
        <time>2014-06-21T13:10:11Z</time>
      </trkpt>
      <trkpt lat="42.77064" lon="1.70174">
        <ele>647.1</ele>
        <time>2014-06-21T13:10:28Z</time>
      </trkpt>
      <trkpt lat="42.77048" lon="1.70185">
        <ele>644.7</ele>
        <time>2014-06-21T13:10:43Z</time>
      </trkpt>
      <trkpt lat="42.77039" lon="1.70201">
        <ele>646.14</ele>
        <time>2014-06-21T13:10:58Z</time>
      </trkpt>
      <trkpt lat="42.77039" lon="1.7021">
        <ele>649.51</ele>
        <time>2014-06-21T13:11:07Z</time>
      </trkpt>
      <trkpt lat="42.77031" lon="1.70224">
        <ele>653.83</ele>
        <time>2014-06-21T13:11:21Z</time>
      </trkpt>
      <trkpt lat="42.77026" lon="1.70248">
        <ele>650.47</ele>
        <time>2014-06-21T13:11:36Z</time>
      </trkpt>
      <trkpt lat="42.77033" lon="1.70242">
        <ele>639.89</ele>
        <time>2014-06-21T13:11:49Z</time>
      </trkpt>
      <trkpt lat="42.77038" lon="1.70238">
        <ele>635.09</ele>
        <time>2014-06-21T13:12:06Z</time>
      </trkpt>
      <trkpt lat="42.77048" lon="1.70245">
        <ele>632.2</ele>
        <time>2014-06-21T13:12:22Z</time>
      </trkpt>
      <trkpt lat="42.77057" lon="1.70253">
        <ele>627.4</ele>
        <time>2014-06-21T13:12:39Z</time>
      </trkpt>
      <trkpt lat="42.7706" lon="1.70267">
        <ele>626.44</ele>
        <time>2014-06-21T13:12:52Z</time>
      </trkpt>
      <trkpt lat="42.7707" lon="1.70271">
        <ele>625.47</ele>
        <time>2014-06-21T13:13:02Z</time>
      </trkpt>
      <trkpt lat="42.77073" lon="1.70275">
        <ele>626.92</ele>
        <time>2014-06-21T13:13:13Z</time>
      </trkpt>
      <trkpt lat="42.77079" lon="1.70257">
        <ele>624.03</ele>
        <time>2014-06-21T13:13:44Z</time>
      </trkpt>
      <trkpt lat="42.77077" lon="1.70264">
        <ele>621.15</ele>
        <time>2014-06-21T13:14:00Z</time>
      </trkpt>
      <trkpt lat="42.77073" lon="1.70277">
        <ele>620.19</ele>
        <time>2014-06-21T13:14:09Z</time>
      </trkpt>
      <trkpt lat="42.77069" lon="1.70283">
        <ele>619.23</ele>
        <time>2014-06-21T13:14:15Z</time>
      </trkpt>
      <trkpt lat="42.77065" lon="1.70284">
        <ele>622.59</ele>
        <time>2014-06-21T13:14:31Z</time>
      </trkpt>
      <trkpt lat="42.77064" lon="1.70289">
        <ele>625.96</ele>
        <time>2014-06-21T13:15:13Z</time>
      </trkpt>
      <trkpt lat="42.77065" lon="1.70292">
        <ele>626.44</ele>
        <time>2014-06-21T13:15:14Z</time>
      </trkpt>
      <trkpt lat="42.77075" lon="1.70289">
        <ele>623.55</ele>
        <time>2014-06-21T13:15:21Z</time>
      </trkpt>
      <trkpt lat="42.77077" lon="1.7029">
        <ele>623.07</ele>
        <time>2014-06-21T13:15:23Z</time>
      </trkpt>
      <trkpt lat="42.77086" lon="1.70285">
        <ele>621.15</ele>
        <time>2014-06-21T13:15:36Z</time>
      </trkpt>
      <trkpt lat="42.77095" lon="1.70281">
        <ele>620.19</ele>
        <time>2014-06-21T13:15:49Z</time>
      </trkpt>
      <trkpt lat="42.77101" lon="1.70281">
        <ele>617.78</ele>
        <time>2014-06-21T13:16:01Z</time>
      </trkpt>
      <trkpt lat="42.77107" lon="1.70282">
        <ele>618.26</ele>
        <time>2014-06-21T13:16:13Z</time>
      </trkpt>
      <trkpt lat="42.77113" lon="1.70284">
        <ele>619.23</ele>
        <time>2014-06-21T13:16:26Z</time>
      </trkpt>
      <trkpt lat="42.77126" lon="1.70284">
        <ele>616.82</ele>
        <time>2014-06-21T13:16:41Z</time>
      </trkpt>
      <trkpt lat="42.7714" lon="1.70278">
        <ele>614.42</ele>
        <time>2014-06-21T13:16:55Z</time>
      </trkpt>
      <trkpt lat="42.77147" lon="1.70282">
        <ele>611.54</ele>
        <time>2014-06-21T13:17:10Z</time>
      </trkpt>
      <trkpt lat="42.7715" lon="1.70287">
        <ele>607.69</ele>
        <time>2014-06-21T13:17:23Z</time>
      </trkpt>
      <trkpt lat="42.77151" lon="1.70296">
        <ele>606.73</ele>
        <time>2014-06-21T13:17:36Z</time>
      </trkpt>
      <trkpt lat="42.77156" lon="1.7031">
        <ele>605.77</ele>
        <time>2014-06-21T13:17:50Z</time>
      </trkpt>
      <trkpt lat="42.77156" lon="1.70308">
        <ele>607.21</ele>
        <time>2014-06-21T13:18:11Z</time>
      </trkpt>
      <trkpt lat="42.77155" lon="1.70313">
        <ele>605.29</ele>
        <time>2014-06-21T13:18:27Z</time>
      </trkpt>
      <trkpt lat="42.77159" lon="1.70315">
        <ele>606.73</ele>
        <time>2014-06-21T13:18:45Z</time>
      </trkpt>
      <trkpt lat="42.77169" lon="1.70311">
        <ele>603.85</ele>
        <time>2014-06-21T13:19:02Z</time>
      </trkpt>
      <trkpt lat="42.77178" lon="1.70309">
        <ele>602.4</ele>
        <time>2014-06-21T13:19:24Z</time>
      </trkpt>
      <trkpt lat="42.77183" lon="1.70309">
        <ele>601.44</ele>
        <time>2014-06-21T13:19:42Z</time>
      </trkpt>
      <trkpt lat="42.77181" lon="1.7031">
        <ele>597.12</ele>
        <time>2014-06-21T13:20:12Z</time>
      </trkpt>
      <trkpt lat="42.7718" lon="1.70308">
        <ele>596.64</ele>
        <time>2014-06-21T13:20:43Z</time>
      </trkpt>
      <trkpt lat="42.77179" lon="1.7031">
        <ele>603.85</ele>
        <time>2014-06-21T13:21:11Z</time>
      </trkpt>
      <trkpt lat="42.77187" lon="1.70312">
        <ele>600.48</ele>
        <time>2014-06-21T13:21:42Z</time>
      </trkpt>
      <trkpt lat="42.77176" lon="1.70316">
        <ele>601.44</ele>
        <time>2014-06-21T13:22:11Z</time>
      </trkpt>
      <trkpt lat="42.77187" lon="1.70316">
        <ele>605.77</ele>
        <time>2014-06-21T13:22:44Z</time>
      </trkpt>
      <trkpt lat="42.77191" lon="1.70314">
        <ele>604.33</ele>
        <time>2014-06-21T13:23:03Z</time>
      </trkpt>
      <trkpt lat="42.77183" lon="1.70313">
        <ele>600</ele>
        <time>2014-06-21T13:23:29Z</time>
      </trkpt>
      <trkpt lat="42.77179" lon="1.70309">
        <ele>598.08</ele>
        <time>2014-06-21T13:23:57Z</time>
      </trkpt>
      <trkpt lat="42.77179" lon="1.70307">
        <ele>598.56</ele>
        <time>2014-06-21T13:24:17Z</time>
      </trkpt>
      <trkpt lat="42.77173" lon="1.70302">
        <ele>597.6</ele>
        <time>2014-06-21T13:24:39Z</time>
      </trkpt>
      <trkpt lat="42.77168" lon="1.70297">
        <ele>589.43</ele>
        <time>2014-06-21T13:25:09Z</time>
      </trkpt>
      <trkpt lat="42.77172" lon="1.70302">
        <ele>591.35</ele>
        <time>2014-06-21T13:25:35Z</time>
      </trkpt>
      <trkpt lat="42.77165" lon="1.70314">
        <ele>595.19</ele>
        <time>2014-06-21T13:26:05Z</time>
      </trkpt>
      <trkpt lat="42.7717" lon="1.7031">
        <ele>594.23</ele>
        <time>2014-06-21T13:26:37Z</time>
      </trkpt>
      <trkpt lat="42.77179" lon="1.70309">
        <ele>593.75</ele>
        <time>2014-06-21T13:26:55Z</time>
      </trkpt>
      <trkpt lat="42.77193" lon="1.70306">
        <ele>593.75</ele>
        <time>2014-06-21T13:27:10Z</time>
      </trkpt>
      <trkpt lat="42.77194" lon="1.70304">
        <ele>594.23</ele>
        <time>2014-06-21T13:27:23Z</time>
      </trkpt>
      <trkpt lat="42.772" lon="1.70307">
        <ele>593.75</ele>
        <time>2014-06-21T13:27:39Z</time>
      </trkpt>
      <trkpt lat="42.7721" lon="1.70312">
        <ele>591.83</ele>
        <time>2014-06-21T13:27:52Z</time>
      </trkpt>
      <trkpt lat="42.77221" lon="1.70314">
        <ele>590.87</ele>
        <time>2014-06-21T13:28:05Z</time>
      </trkpt>
      <trkpt lat="42.77231" lon="1.70312">
        <ele>587.98</ele>
        <time>2014-06-21T13:28:18Z</time>
      </trkpt>
      <trkpt lat="42.77236" lon="1.70312">
        <ele>582.22</ele>
        <time>2014-06-21T13:28:35Z</time>
      </trkpt>
      <trkpt lat="42.77246" lon="1.70312">
        <ele>582.7</ele>
        <time>2014-06-21T13:28:49Z</time>
      </trkpt>
      <trkpt lat="42.77256" lon="1.70312">
        <ele>582.7</ele>
        <time>2014-06-21T13:29:00Z</time>
      </trkpt>
      <trkpt lat="42.77268" lon="1.70307">
        <ele>582.7</ele>
        <time>2014-06-21T13:29:14Z</time>
      </trkpt>
      <trkpt lat="42.77272" lon="1.70304">
        <ele>582.7</ele>
        <time>2014-06-21T13:29:17Z</time>
      </trkpt>
      <trkpt lat="42.77279" lon="1.70299">
        <ele>583.66</ele>
        <time>2014-06-21T13:29:29Z</time>
      </trkpt>
      <trkpt lat="42.77288" lon="1.70298">
        <ele>583.66</ele>
        <time>2014-06-21T13:29:40Z</time>
      </trkpt>
      <trkpt lat="42.77298" lon="1.70298">
        <ele>582.7</ele>
        <time>2014-06-21T13:29:52Z</time>
      </trkpt>
      <trkpt lat="42.773" lon="1.70299">
        <ele>582.7</ele>
        <time>2014-06-21T13:29:54Z</time>
      </trkpt>
      <trkpt lat="42.77306" lon="1.70302">
        <ele>583.18</ele>
        <time>2014-06-21T13:30:01Z</time>
      </trkpt>
      <trkpt lat="42.77318" lon="1.70304">
        <ele>581.25</ele>
        <time>2014-06-21T13:30:13Z</time>
      </trkpt>
      <trkpt lat="42.77326" lon="1.70308">
        <ele>579.81</ele>
        <time>2014-06-21T13:30:23Z</time>
      </trkpt>
      <trkpt lat="42.77328" lon="1.70307">
        <ele>579.33</ele>
        <time>2014-06-21T13:30:25Z</time>
      </trkpt>
      <trkpt lat="42.77334" lon="1.70309">
        <ele>578.85</ele>
        <time>2014-06-21T13:30:30Z</time>
      </trkpt>
      <trkpt lat="42.77341" lon="1.70312">
        <ele>577.41</ele>
        <time>2014-06-21T13:30:42Z</time>
      </trkpt>
      <trkpt lat="42.77343" lon="1.70312">
        <ele>577.41</ele>
        <time>2014-06-21T13:30:45Z</time>
      </trkpt>
      <trkpt lat="42.77348" lon="1.70316">
        <ele>576.93</ele>
        <time>2014-06-21T13:30:55Z</time>
      </trkpt>
      <trkpt lat="42.77354" lon="1.70317">
        <ele>576.45</ele>
        <time>2014-06-21T13:31:07Z</time>
      </trkpt>
      <trkpt lat="42.77357" lon="1.70314">
        <ele>575.49</ele>
        <time>2014-06-21T13:31:23Z</time>
      </trkpt>
      <trkpt lat="42.7737" lon="1.7032">
        <ele>573.08</ele>
        <time>2014-06-21T13:31:35Z</time>
      </trkpt>
      <trkpt lat="42.77372" lon="1.70322">
        <ele>573.08</ele>
        <time>2014-06-21T13:31:37Z</time>
      </trkpt>
      <trkpt lat="42.77377" lon="1.70321">
        <ele>569.24</ele>
        <time>2014-06-21T13:31:50Z</time>
      </trkpt>
      <trkpt lat="42.77376" lon="1.70321">
        <ele>571.16</ele>
        <time>2014-06-21T13:32:13Z</time>
      </trkpt>
      <trkpt lat="42.77383" lon="1.70327">
        <ele>572.12</ele>
        <time>2014-06-21T13:32:24Z</time>
      </trkpt>
      <trkpt lat="42.77389" lon="1.70331">
        <ele>573.08</ele>
        <time>2014-06-21T13:32:35Z</time>
      </trkpt>
      <trkpt lat="42.77391" lon="1.70332">
        <ele>573.56</ele>
        <time>2014-06-21T13:32:43Z</time>
      </trkpt>
      <trkpt lat="42.77397" lon="1.70334">
        <ele>574.04</ele>
        <time>2014-06-21T13:32:52Z</time>
      </trkpt>
      <trkpt lat="42.77408" lon="1.70338">
        <ele>572.12</ele>
        <time>2014-06-21T13:33:05Z</time>
      </trkpt>
      <trkpt lat="42.77412" lon="1.70339">
        <ele>572.12</ele>
        <time>2014-06-21T13:33:10Z</time>
      </trkpt>
      <trkpt lat="42.77426" lon="1.70344">
        <ele>572.6</ele>
        <time>2014-06-21T13:33:23Z</time>
      </trkpt>
      <trkpt lat="42.77429" lon="1.70346">
        <ele>573.56</ele>
        <time>2014-06-21T13:33:27Z</time>
      </trkpt>
      <trkpt lat="42.7744" lon="1.70349">
        <ele>571.16</ele>
        <time>2014-06-21T13:33:39Z</time>
      </trkpt>
      <trkpt lat="42.77448" lon="1.70353">
        <ele>570.2</ele>
        <time>2014-06-21T13:33:48Z</time>
      </trkpt>
      <trkpt lat="42.77462" lon="1.70357">
        <ele>568.28</ele>
        <time>2014-06-21T13:34:01Z</time>
      </trkpt>
      <trkpt lat="42.77469" lon="1.70362">
        <ele>566.35</ele>
        <time>2014-06-21T13:34:11Z</time>
      </trkpt>
      <trkpt lat="42.77483" lon="1.70366">
        <ele>564.91</ele>
        <time>2014-06-21T13:34:25Z</time>
      </trkpt>
      <trkpt lat="42.77493" lon="1.70361">
        <ele>563.47</ele>
        <time>2014-06-21T13:34:35Z</time>
      </trkpt>
      <trkpt lat="42.77494" lon="1.70358">
        <ele>564.91</ele>
        <time>2014-06-21T13:34:53Z</time>
      </trkpt>
      <trkpt lat="42.77495" lon="1.70347">
        <ele>562.03</ele>
        <time>2014-06-21T13:35:06Z</time>
      </trkpt>
      <trkpt lat="42.77499" lon="1.70349">
        <ele>560.59</ele>
        <time>2014-06-21T13:35:12Z</time>
      </trkpt>
      <trkpt lat="42.775" lon="1.70347">
        <ele>560.11</ele>
        <time>2014-06-21T13:35:14Z</time>
      </trkpt>
      <trkpt lat="42.77509" lon="1.70339">
        <ele>558.66</ele>
        <time>2014-06-21T13:35:26Z</time>
      </trkpt>
      <trkpt lat="42.77509" lon="1.70338">
        <ele>558.66</ele>
        <time>2014-06-21T13:35:30Z</time>
      </trkpt>
      <trkpt lat="42.77514" lon="1.70329">
        <ele>558.18</ele>
        <time>2014-06-21T13:35:39Z</time>
      </trkpt>
      <trkpt lat="42.77519" lon="1.70323">
        <ele>559.14</ele>
        <time>2014-06-21T13:35:50Z</time>
      </trkpt>
      <trkpt lat="42.77525" lon="1.70317">
        <ele>559.14</ele>
        <time>2014-06-21T13:35:59Z</time>
      </trkpt>
      <trkpt lat="42.77535" lon="1.70307">
        <ele>558.18</ele>
        <time>2014-06-21T13:36:10Z</time>
      </trkpt>
      <trkpt lat="42.77545" lon="1.70303">
        <ele>557.7</ele>
        <time>2014-06-21T13:36:21Z</time>
      </trkpt>
      <trkpt lat="42.77555" lon="1.70305">
        <ele>557.7</ele>
        <time>2014-06-21T13:36:32Z</time>
      </trkpt>
      <trkpt lat="42.77554" lon="1.70302">
        <ele>558.66</ele>
        <time>2014-06-21T13:36:36Z</time>
      </trkpt>
      <trkpt lat="42.77546" lon="1.70298">
        <ele>560.11</ele>
        <time>2014-06-21T13:36:51Z</time>
      </trkpt>
      <trkpt lat="42.77553" lon="1.70301">
        <ele>556.74</ele>
        <time>2014-06-21T13:37:19Z</time>
      </trkpt>
      <trkpt lat="42.77554" lon="1.70302">
        <ele>556.74</ele>
        <time>2014-06-21T13:37:20Z</time>
      </trkpt>
      <trkpt lat="42.77563" lon="1.70304">
        <ele>556.26</ele>
        <time>2014-06-21T13:37:29Z</time>
      </trkpt>
      <trkpt lat="42.77572" lon="1.70306">
        <ele>558.18</ele>
        <time>2014-06-21T13:37:40Z</time>
      </trkpt>
      <trkpt lat="42.77582" lon="1.70306">
        <ele>558.18</ele>
        <time>2014-06-21T13:37:51Z</time>
      </trkpt>
      <trkpt lat="42.77588" lon="1.70308">
        <ele>557.7</ele>
        <time>2014-06-21T13:38:00Z</time>
      </trkpt>
      <trkpt lat="42.77591" lon="1.70309">
        <ele>559.62</ele>
        <time>2014-06-21T13:38:18Z</time>
      </trkpt>
      <trkpt lat="42.77597" lon="1.70311">
        <ele>559.62</ele>
        <time>2014-06-21T13:38:32Z</time>
      </trkpt>
      <trkpt lat="42.77607" lon="1.70312">
        <ele>559.14</ele>
        <time>2014-06-21T13:38:43Z</time>
      </trkpt>
      <trkpt lat="42.77608" lon="1.70312">
        <ele>558.66</ele>
        <time>2014-06-21T13:38:44Z</time>
      </trkpt>
      <trkpt lat="42.77617" lon="1.70303">
        <ele>559.14</ele>
        <time>2014-06-21T13:38:56Z</time>
      </trkpt>
      <trkpt lat="42.7762" lon="1.703">
        <ele>558.66</ele>
        <time>2014-06-21T13:39:07Z</time>
      </trkpt>
      <trkpt lat="42.77621" lon="1.703">
        <ele>558.66</ele>
        <time>2014-06-21T13:39:08Z</time>
      </trkpt>
      <trkpt lat="42.77623" lon="1.70295">
        <ele>559.14</ele>
        <time>2014-06-21T13:39:23Z</time>
      </trkpt>
      <trkpt lat="42.77623" lon="1.70289">
        <ele>558.18</ele>
        <time>2014-06-21T13:39:42Z</time>
      </trkpt>
      <trkpt lat="42.77625" lon="1.70287">
        <ele>553.86</ele>
        <time>2014-06-21T13:39:58Z</time>
      </trkpt>
      <trkpt lat="42.77622" lon="1.70282">
        <ele>557.22</ele>
        <time>2014-06-21T13:40:24Z</time>
      </trkpt>
      <trkpt lat="42.77621" lon="1.70283">
        <ele>555.3</ele>
        <time>2014-06-21T13:40:36Z</time>
      </trkpt>
      <trkpt lat="42.7762" lon="1.70285">
        <ele>555.3</ele>
        <time>2014-06-21T13:40:54Z</time>
      </trkpt>
      <trkpt lat="42.77619" lon="1.70284">
        <ele>555.3</ele>
        <time>2014-06-21T13:41:24Z</time>
      </trkpt>
      <trkpt lat="42.77626" lon="1.70281">
        <ele>553.86</ele>
        <time>2014-06-21T13:41:39Z</time>
      </trkpt>
      <trkpt lat="42.77626" lon="1.70281">
        <ele>553.86</ele>
        <time>2014-06-21T13:41:40Z</time>
      </trkpt>
      <trkpt lat="42.77635" lon="1.70281">
        <ele>557.22</ele>
        <time>2014-06-21T13:41:51Z</time>
      </trkpt>
      <trkpt lat="42.77637" lon="1.70281">
        <ele>557.7</ele>
        <time>2014-06-21T13:41:53Z</time>
      </trkpt>
      <trkpt lat="42.77643" lon="1.70281">
        <ele>558.66</ele>
        <time>2014-06-21T13:41:58Z</time>
      </trkpt>
      <trkpt lat="42.77646" lon="1.70282">
        <ele>560.59</ele>
        <time>2014-06-21T13:42:01Z</time>
      </trkpt>
      <trkpt lat="42.77657" lon="1.70287">
        <ele>564.91</ele>
        <time>2014-06-21T13:42:12Z</time>
      </trkpt>
      <trkpt lat="42.77662" lon="1.7029">
        <ele>566.83</ele>
        <time>2014-06-21T13:42:18Z</time>
      </trkpt>
      <trkpt lat="42.77668" lon="1.70292">
        <ele>568.76</ele>
        <time>2014-06-21T13:42:23Z</time>
      </trkpt>
      <trkpt lat="42.77671" lon="1.70291">
        <ele>568.76</ele>
        <time>2014-06-21T13:42:26Z</time>
      </trkpt>
      <trkpt lat="42.77673" lon="1.7029">
        <ele>568.76</ele>
        <time>2014-06-21T13:42:28Z</time>
      </trkpt>
      <trkpt lat="42.77677" lon="1.70289">
        <ele>568.76</ele>
        <time>2014-06-21T13:42:32Z</time>
      </trkpt>
      <trkpt lat="42.77677" lon="1.70284">
        <ele>568.76</ele>
        <time>2014-06-21T13:42:35Z</time>
      </trkpt>
      <trkpt lat="42.77677" lon="1.70276">
        <ele>572.6</ele>
        <time>2014-06-21T13:42:44Z</time>
      </trkpt>
      <trkpt lat="42.77679" lon="1.7026">
        <ele>576.45</ele>
        <time>2014-06-21T13:42:55Z</time>
      </trkpt>
      <trkpt lat="42.77684" lon="1.70241">
        <ele>575.49</ele>
        <time>2014-06-21T13:43:05Z</time>
      </trkpt>
      <trkpt lat="42.77685" lon="1.70237">
        <ele>575.97</ele>
        <time>2014-06-21T13:43:14Z</time>
      </trkpt>
      <trkpt lat="42.77684" lon="1.70236">
        <ele>576.45</ele>
        <time>2014-06-21T13:43:22Z</time>
      </trkpt>
      <trkpt lat="42.77688" lon="1.70239">
        <ele>577.41</ele>
        <time>2014-06-21T13:43:33Z</time>
      </trkpt>
      <trkpt lat="42.7769" lon="1.7024">
        <ele>576.93</ele>
        <time>2014-06-21T13:43:41Z</time>
      </trkpt>
      <trkpt lat="42.77695" lon="1.70241">
        <ele>577.89</ele>
        <time>2014-06-21T13:43:49Z</time>
      </trkpt>
      <trkpt lat="42.77701" lon="1.7024">
        <ele>575.97</ele>
        <time>2014-06-21T13:43:58Z</time>
      </trkpt>
      <trkpt lat="42.77707" lon="1.70244">
        <ele>577.89</ele>
        <time>2014-06-21T13:44:13Z</time>
      </trkpt>
      <trkpt lat="42.77712" lon="1.70245">
        <ele>577.41</ele>
        <time>2014-06-21T13:44:20Z</time>
      </trkpt>
      <trkpt lat="42.77714" lon="1.70245">
        <ele>576.93</ele>
        <time>2014-06-21T13:44:22Z</time>
      </trkpt>
      <trkpt lat="42.77714" lon="1.70253">
        <ele>573.56</ele>
        <time>2014-06-21T13:44:32Z</time>
      </trkpt>
      <trkpt lat="42.77715" lon="1.70254">
        <ele>573.56</ele>
        <time>2014-06-21T13:44:45Z</time>
      </trkpt>
      <trkpt lat="42.77718" lon="1.70251">
        <ele>574.04</ele>
        <time>2014-06-21T13:44:56Z</time>
      </trkpt>
      <trkpt lat="42.77718" lon="1.70259">
        <ele>574.04</ele>
        <time>2014-06-21T13:45:09Z</time>
      </trkpt>
      <trkpt lat="42.7772" lon="1.70254">
        <ele>573.56</ele>
        <time>2014-06-21T13:45:35Z</time>
      </trkpt>
      <trkpt lat="42.77722" lon="1.70256">
        <ele>571.64</ele>
        <time>2014-06-21T13:46:05Z</time>
      </trkpt>
      <trkpt lat="42.77719" lon="1.7026">
        <ele>564.43</ele>
        <time>2014-06-21T13:46:43Z</time>
      </trkpt>
      <trkpt lat="42.77716" lon="1.70256">
        <ele>563.47</ele>
        <time>2014-06-21T13:47:10Z</time>
      </trkpt>
      <trkpt lat="42.77719" lon="1.70255">
        <ele>570.2</ele>
        <time>2014-06-21T13:47:33Z</time>
      </trkpt>
      <trkpt lat="42.77719" lon="1.70256">
        <ele>564.91</ele>
        <time>2014-06-21T13:48:03Z</time>
      </trkpt>
      <trkpt lat="42.77717" lon="1.70259">
        <ele>565.39</ele>
        <time>2014-06-21T13:48:24Z</time>
      </trkpt>
      <trkpt lat="42.77717" lon="1.7026">
        <ele>567.8</ele>
        <time>2014-06-21T13:49:02Z</time>
      </trkpt>
      <trkpt lat="42.77715" lon="1.7026">
        <ele>566.83</ele>
        <time>2014-06-21T13:49:32Z</time>
      </trkpt>
      <trkpt lat="42.77717" lon="1.70262">
        <ele>566.35</ele>
        <time>2014-06-21T13:50:03Z</time>
      </trkpt>
      <trkpt lat="42.77718" lon="1.70259">
        <ele>567.32</ele>
        <time>2014-06-21T13:50:20Z</time>
      </trkpt>
      <trkpt lat="42.7772" lon="1.70256">
        <ele>566.83</ele>
        <time>2014-06-21T13:50:35Z</time>
      </trkpt>
      <trkpt lat="42.7772" lon="1.70258">
        <ele>566.83</ele>
        <time>2014-06-21T13:51:00Z</time>
      </trkpt>
      <trkpt lat="42.77719" lon="1.70255">
        <ele>571.16</ele>
        <time>2014-06-21T13:51:19Z</time>
      </trkpt>
      <trkpt lat="42.77717" lon="1.70249">
        <ele>574.04</ele>
        <time>2014-06-21T13:51:47Z</time>
      </trkpt>
      <trkpt lat="42.7772" lon="1.70254">
        <ele>569.72</ele>
        <time>2014-06-21T13:52:02Z</time>
      </trkpt>
      <trkpt lat="42.77723" lon="1.70255">
        <ele>569.24</ele>
        <time>2014-06-21T13:52:17Z</time>
      </trkpt>
      <trkpt lat="42.77723" lon="1.70251">
        <ele>567.8</ele>
        <time>2014-06-21T13:52:39Z</time>
      </trkpt>
      <trkpt lat="42.77727" lon="1.70244">
        <ele>569.72</ele>
        <time>2014-06-21T13:52:47Z</time>
      </trkpt>
      <trkpt lat="42.77728" lon="1.70243">
        <ele>570.2</ele>
        <time>2014-06-21T13:52:48Z</time>
      </trkpt>
      <trkpt lat="42.77734" lon="1.70245">
        <ele>574.04</ele>
        <time>2014-06-21T13:52:58Z</time>
      </trkpt>
      <trkpt lat="42.77736" lon="1.70244">
        <ele>574.53</ele>
        <time>2014-06-21T13:53:00Z</time>
      </trkpt>
      <trkpt lat="42.77752" lon="1.70234">
        <ele>579.33</ele>
        <time>2014-06-21T13:53:16Z</time>
      </trkpt>
      <trkpt lat="42.77766" lon="1.7022">
        <ele>577.89</ele>
        <time>2014-06-21T13:53:30Z</time>
      </trkpt>
      <trkpt lat="42.77769" lon="1.70217">
        <ele>576.93</ele>
        <time>2014-06-21T13:53:34Z</time>
      </trkpt>
      <trkpt lat="42.7777" lon="1.70216">
        <ele>576.45</ele>
        <time>2014-06-21T13:53:35Z</time>
      </trkpt>
      <trkpt lat="42.77777" lon="1.70211">
        <ele>573.56</ele>
        <time>2014-06-21T13:53:46Z</time>
      </trkpt>
      <trkpt lat="42.77789" lon="1.70202">
        <ele>574.53</ele>
        <time>2014-06-21T13:54:00Z</time>
      </trkpt>
      <trkpt lat="42.77793" lon="1.70199">
        <ele>575.01</ele>
        <time>2014-06-21T13:54:04Z</time>
      </trkpt>
      <trkpt lat="42.77795" lon="1.70198">
        <ele>575.01</ele>
        <time>2014-06-21T13:54:05Z</time>
      </trkpt>
      <trkpt lat="42.77805" lon="1.70193">
        <ele>575.97</ele>
        <time>2014-06-21T13:54:16Z</time>
      </trkpt>
      <trkpt lat="42.77806" lon="1.70191">
        <ele>576.45</ele>
        <time>2014-06-21T13:54:17Z</time>
      </trkpt>
      <trkpt lat="42.77807" lon="1.70189">
        <ele>576.45</ele>
        <time>2014-06-21T13:54:18Z</time>
      </trkpt>
      <trkpt lat="42.7782" lon="1.70172">
        <ele>577.41</ele>
        <time>2014-06-21T13:54:28Z</time>
      </trkpt>
      <trkpt lat="42.77821" lon="1.7017">
        <ele>577.41</ele>
        <time>2014-06-21T13:54:29Z</time>
      </trkpt>
      <trkpt lat="42.77822" lon="1.70169">
        <ele>577.41</ele>
        <time>2014-06-21T13:54:30Z</time>
      </trkpt>
      <trkpt lat="42.77823" lon="1.70167">
        <ele>577.41</ele>
        <time>2014-06-21T13:54:31Z</time>
      </trkpt>
      <trkpt lat="42.77824" lon="1.70166">
        <ele>577.89</ele>
        <time>2014-06-21T13:54:32Z</time>
      </trkpt>
      <trkpt lat="42.77824" lon="1.70165">
        <ele>577.89</ele>
        <time>2014-06-21T13:54:33Z</time>
      </trkpt>
      <trkpt lat="42.77835" lon="1.7015">
        <ele>578.37</ele>
        <time>2014-06-21T13:54:47Z</time>
      </trkpt>
      <trkpt lat="42.77837" lon="1.70151">
        <ele>579.81</ele>
        <time>2014-06-21T13:54:53Z</time>
      </trkpt>
      <trkpt lat="42.77839" lon="1.70148">
        <ele>581.73</ele>
        <time>2014-06-21T13:54:58Z</time>
      </trkpt>
      <trkpt lat="42.7784" lon="1.70146">
        <ele>582.22</ele>
        <time>2014-06-21T13:54:59Z</time>
      </trkpt>
      <trkpt lat="42.77841" lon="1.70144">
        <ele>582.22</ele>
        <time>2014-06-21T13:55:00Z</time>
      </trkpt>
      <trkpt lat="42.7785" lon="1.70129">
        <ele>584.14</ele>
        <time>2014-06-21T13:55:11Z</time>
      </trkpt>
      <trkpt lat="42.77858" lon="1.70115">
        <ele>584.14</ele>
        <time>2014-06-21T13:55:23Z</time>
      </trkpt>
      <trkpt lat="42.77865" lon="1.70104">
        <ele>584.62</ele>
        <time>2014-06-21T13:55:29Z</time>
      </trkpt>
      <trkpt lat="42.77869" lon="1.70094">
        <ele>584.62</ele>
        <time>2014-06-21T13:55:41Z</time>
      </trkpt>
      <trkpt lat="42.77869" lon="1.70099">
        <ele>585.1</ele>
        <time>2014-06-21T13:55:46Z</time>
      </trkpt>
      <trkpt lat="42.77867" lon="1.70104">
        <ele>587.98</ele>
        <time>2014-06-21T13:55:53Z</time>
      </trkpt>
      <trkpt lat="42.77863" lon="1.70114">
        <ele>593.27</ele>
        <time>2014-06-21T13:56:04Z</time>
      </trkpt>
      <trkpt lat="42.7786" lon="1.70126">
        <ele>600.48</ele>
        <time>2014-06-21T13:56:15Z</time>
      </trkpt>
      <trkpt lat="42.77859" lon="1.70139">
        <ele>602.88</ele>
        <time>2014-06-21T13:56:26Z</time>
      </trkpt>
      <trkpt lat="42.77857" lon="1.70157">
        <ele>605.77</ele>
        <time>2014-06-21T13:56:37Z</time>
      </trkpt>
      <trkpt lat="42.77856" lon="1.7017">
        <ele>606.73</ele>
        <time>2014-06-21T13:56:47Z</time>
      </trkpt>
      <trkpt lat="42.77856" lon="1.70172">
        <ele>606.73</ele>
        <time>2014-06-21T13:56:48Z</time>
      </trkpt>
      <trkpt lat="42.77856" lon="1.70175">
        <ele>606.73</ele>
        <time>2014-06-21T13:56:49Z</time>
      </trkpt>
      <trkpt lat="42.77856" lon="1.70191">
        <ele>607.21</ele>
        <time>2014-06-21T13:56:59Z</time>
      </trkpt>
      <trkpt lat="42.77856" lon="1.70213">
        <ele>608.65</ele>
        <time>2014-06-21T13:57:11Z</time>
      </trkpt>
      <trkpt lat="42.77856" lon="1.70229">
        <ele>609.13</ele>
        <time>2014-06-21T13:57:22Z</time>
      </trkpt>
      <trkpt lat="42.77855" lon="1.70242">
        <ele>608.65</ele>
        <time>2014-06-21T13:57:31Z</time>
      </trkpt>
      <trkpt lat="42.77854" lon="1.70244">
        <ele>608.65</ele>
        <time>2014-06-21T13:57:32Z</time>
      </trkpt>
      <trkpt lat="42.77848" lon="1.70256">
        <ele>608.65</ele>
        <time>2014-06-21T13:57:42Z</time>
      </trkpt>
      <trkpt lat="42.77836" lon="1.70269">
        <ele>608.65</ele>
        <time>2014-06-21T13:57:53Z</time>
      </trkpt>
      <trkpt lat="42.77826" lon="1.70282">
        <ele>607.69</ele>
        <time>2014-06-21T13:58:04Z</time>
      </trkpt>
      <trkpt lat="42.77826" lon="1.70284">
        <ele>607.21</ele>
        <time>2014-06-21T13:58:05Z</time>
      </trkpt>
      <trkpt lat="42.77826" lon="1.70286">
        <ele>607.21</ele>
        <time>2014-06-21T13:58:06Z</time>
      </trkpt>
      <trkpt lat="42.77826" lon="1.70295">
        <ele>606.73</ele>
        <time>2014-06-21T13:58:12Z</time>
      </trkpt>
      <trkpt lat="42.77826" lon="1.70297">
        <ele>606.73</ele>
        <time>2014-06-21T13:58:13Z</time>
      </trkpt>
      <trkpt lat="42.77826" lon="1.70299">
        <ele>606.73</ele>
        <time>2014-06-21T13:58:14Z</time>
      </trkpt>
      <trkpt lat="42.77827" lon="1.70315">
        <ele>605.77</ele>
        <time>2014-06-21T13:58:24Z</time>
      </trkpt>
      <trkpt lat="42.77827" lon="1.70319">
        <ele>605.77</ele>
        <time>2014-06-21T13:58:27Z</time>
      </trkpt>
      <trkpt lat="42.77827" lon="1.7033">
        <ele>605.77</ele>
        <time>2014-06-21T13:58:34Z</time>
      </trkpt>
      <trkpt lat="42.77828" lon="1.70332">
        <ele>605.77</ele>
        <time>2014-06-21T13:58:35Z</time>
      </trkpt>
      <trkpt lat="42.7783" lon="1.70341">
        <ele>606.25</ele>
        <time>2014-06-21T13:58:41Z</time>
      </trkpt>
      <trkpt lat="42.77831" lon="1.70343">
        <ele>606.25</ele>
        <time>2014-06-21T13:58:42Z</time>
      </trkpt>
      <trkpt lat="42.7784" lon="1.70346">
        <ele>607.21</ele>
        <time>2014-06-21T13:58:51Z</time>
      </trkpt>
      <trkpt lat="42.77841" lon="1.70345">
        <ele>607.21</ele>
        <time>2014-06-21T13:58:52Z</time>
      </trkpt>
      <trkpt lat="42.77852" lon="1.70333">
        <ele>606.25</ele>
        <time>2014-06-21T13:59:02Z</time>
      </trkpt>
      <trkpt lat="42.77864" lon="1.7032">
        <ele>609.13</ele>
        <time>2014-06-21T13:59:15Z</time>
      </trkpt>
      <trkpt lat="42.77877" lon="1.70305">
        <ele>608.65</ele>
        <time>2014-06-21T13:59:28Z</time>
      </trkpt>
      <trkpt lat="42.77886" lon="1.70291">
        <ele>608.65</ele>
        <time>2014-06-21T13:59:40Z</time>
      </trkpt>
      <trkpt lat="42.77885" lon="1.70283">
        <ele>608.65</ele>
        <time>2014-06-21T13:59:52Z</time>
      </trkpt>
      <trkpt lat="42.77885" lon="1.70278">
        <ele>608.65</ele>
        <time>2014-06-21T14:00:06Z</time>
      </trkpt>
      <trkpt lat="42.77885" lon="1.70277">
        <ele>608.65</ele>
        <time>2014-06-21T14:00:07Z</time>
      </trkpt>
      <trkpt lat="42.77889" lon="1.70258">
        <ele>609.61</ele>
        <time>2014-06-21T14:00:19Z</time>
      </trkpt>
      <trkpt lat="42.7789" lon="1.70257">
        <ele>609.61</ele>
        <time>2014-06-21T14:00:20Z</time>
      </trkpt>
      <trkpt lat="42.7789" lon="1.70255">
        <ele>609.61</ele>
        <time>2014-06-21T14:00:21Z</time>
      </trkpt>
      <trkpt lat="42.77892" lon="1.70242">
        <ele>610.09</ele>
        <time>2014-06-21T14:00:28Z</time>
      </trkpt>
      <trkpt lat="42.77893" lon="1.7024">
        <ele>610.09</ele>
        <time>2014-06-21T14:00:29Z</time>
      </trkpt>
      <trkpt lat="42.77895" lon="1.70225">
        <ele>612.02</ele>
        <time>2014-06-21T14:00:40Z</time>
      </trkpt>
      <trkpt lat="42.77897" lon="1.70211">
        <ele>612.02</ele>
        <time>2014-06-21T14:00:52Z</time>
      </trkpt>
      <trkpt lat="42.77898" lon="1.70203">
        <ele>612.98</ele>
        <time>2014-06-21T14:01:02Z</time>
      </trkpt>
      <trkpt lat="42.77902" lon="1.70193">
        <ele>613.94</ele>
        <time>2014-06-21T14:01:12Z</time>
      </trkpt>
      <trkpt lat="42.77906" lon="1.70178">
        <ele>614.9</ele>
        <time>2014-06-21T14:01:23Z</time>
      </trkpt>
      <trkpt lat="42.77913" lon="1.70162">
        <ele>616.82</ele>
        <time>2014-06-21T14:01:35Z</time>
      </trkpt>
      <trkpt lat="42.77915" lon="1.70161">
        <ele>616.82</ele>
        <time>2014-06-21T14:01:40Z</time>
      </trkpt>
      <trkpt lat="42.77913" lon="1.70167">
        <ele>615.38</ele>
        <time>2014-06-21T14:01:47Z</time>
      </trkpt>
      <trkpt lat="42.77912" lon="1.70169">
        <ele>615.38</ele>
        <time>2014-06-21T14:01:48Z</time>
      </trkpt>
      <trkpt lat="42.77912" lon="1.70171">
        <ele>615.38</ele>
        <time>2014-06-21T14:01:49Z</time>
      </trkpt>
      <trkpt lat="42.77911" lon="1.70173">
        <ele>615.38</ele>
        <time>2014-06-21T14:01:50Z</time>
      </trkpt>
      <trkpt lat="42.7791" lon="1.70175">
        <ele>615.38</ele>
        <time>2014-06-21T14:01:51Z</time>
      </trkpt>
      <trkpt lat="42.77909" lon="1.70178">
        <ele>615.38</ele>
        <time>2014-06-21T14:01:55Z</time>
      </trkpt>
      <trkpt lat="42.77909" lon="1.7018">
        <ele>615.38</ele>
        <time>2014-06-21T14:01:56Z</time>
      </trkpt>
      <trkpt lat="42.77909" lon="1.70182">
        <ele>615.38</ele>
        <time>2014-06-21T14:01:57Z</time>
      </trkpt>
      <trkpt lat="42.77905" lon="1.70199">
        <ele>614.9</ele>
        <time>2014-06-21T14:02:08Z</time>
      </trkpt>
      <trkpt lat="42.77903" lon="1.70208">
        <ele>614.9</ele>
        <time>2014-06-21T14:02:20Z</time>
      </trkpt>
      <trkpt lat="42.77903" lon="1.70211">
        <ele>611.54</ele>
        <time>2014-06-21T14:02:33Z</time>
      </trkpt>
      <trkpt lat="42.77903" lon="1.70211">
        <ele>612.02</ele>
        <time>2014-06-21T14:02:36Z</time>
      </trkpt>
      <trkpt lat="42.77903" lon="1.70217">
        <ele>612.5</ele>
        <time>2014-06-21T14:02:41Z</time>
      </trkpt>
      <trkpt lat="42.77902" lon="1.70231">
        <ele>614.9</ele>
        <time>2014-06-21T14:02:53Z</time>
      </trkpt>
      <trkpt lat="42.77903" lon="1.70245">
        <ele>617.3</ele>
        <time>2014-06-21T14:03:05Z</time>
      </trkpt>
      <trkpt lat="42.77904" lon="1.70247">
        <ele>617.3</ele>
        <time>2014-06-21T14:03:06Z</time>
      </trkpt>
      <trkpt lat="42.77905" lon="1.70249">
        <ele>617.3</ele>
        <time>2014-06-21T14:03:07Z</time>
      </trkpt>
      <trkpt lat="42.77906" lon="1.70251">
        <ele>617.3</ele>
        <time>2014-06-21T14:03:08Z</time>
      </trkpt>
      <trkpt lat="42.77909" lon="1.70272">
        <ele>619.23</ele>
        <time>2014-06-21T14:03:20Z</time>
      </trkpt>
      <trkpt lat="42.77912" lon="1.70287">
        <ele>620.19</ele>
        <time>2014-06-21T14:03:30Z</time>
      </trkpt>
      <trkpt lat="42.77913" lon="1.70289">
        <ele>620.67</ele>
        <time>2014-06-21T14:03:31Z</time>
      </trkpt>
      <trkpt lat="42.77913" lon="1.70291">
        <ele>620.67</ele>
        <time>2014-06-21T14:03:32Z</time>
      </trkpt>
      <trkpt lat="42.77913" lon="1.70293">
        <ele>620.67</ele>
        <time>2014-06-21T14:03:33Z</time>
      </trkpt>
      <trkpt lat="42.77913" lon="1.70296">
        <ele>620.67</ele>
        <time>2014-06-21T14:03:34Z</time>
      </trkpt>
      <trkpt lat="42.77913" lon="1.70298">
        <ele>621.15</ele>
        <time>2014-06-21T14:03:35Z</time>
      </trkpt>
      <trkpt lat="42.77913" lon="1.70301">
        <ele>621.15</ele>
        <time>2014-06-21T14:03:36Z</time>
      </trkpt>
      <trkpt lat="42.77914" lon="1.70303">
        <ele>621.15</ele>
        <time>2014-06-21T14:03:37Z</time>
      </trkpt>
      <trkpt lat="42.77915" lon="1.70305">
        <ele>621.15</ele>
        <time>2014-06-21T14:03:38Z</time>
      </trkpt>
      <trkpt lat="42.77919" lon="1.70324">
        <ele>623.07</ele>
        <time>2014-06-21T14:03:50Z</time>
      </trkpt>
      <trkpt lat="42.77919" lon="1.70326">
        <ele>623.55</ele>
        <time>2014-06-21T14:03:51Z</time>
      </trkpt>
      <trkpt lat="42.7792" lon="1.70328">
        <ele>623.55</ele>
        <time>2014-06-21T14:03:52Z</time>
      </trkpt>
      <trkpt lat="42.77926" lon="1.70347">
        <ele>622.59</ele>
        <time>2014-06-21T14:04:04Z</time>
      </trkpt>
      <trkpt lat="42.7793" lon="1.70368">
        <ele>622.59</ele>
        <time>2014-06-21T14:04:16Z</time>
      </trkpt>
      <trkpt lat="42.77931" lon="1.70373">
        <ele>624.03</ele>
        <time>2014-06-21T14:04:22Z</time>
      </trkpt>
      <trkpt lat="42.77932" lon="1.70373">
        <ele>624.03</ele>
        <time>2014-06-21T14:04:29Z</time>
      </trkpt>
      <trkpt lat="42.77932" lon="1.7038">
        <ele>624.51</ele>
        <time>2014-06-21T14:04:34Z</time>
      </trkpt>
      <trkpt lat="42.77933" lon="1.70399">
        <ele>626.92</ele>
        <time>2014-06-21T14:04:46Z</time>
      </trkpt>
      <trkpt lat="42.77933" lon="1.70403">
        <ele>627.4</ele>
        <time>2014-06-21T14:04:48Z</time>
      </trkpt>
      <trkpt lat="42.77933" lon="1.70405">
        <ele>627.4</ele>
        <time>2014-06-21T14:04:49Z</time>
      </trkpt>
      <trkpt lat="42.77933" lon="1.70411">
        <ele>627.88</ele>
        <time>2014-06-21T14:04:54Z</time>
      </trkpt>
      <trkpt lat="42.77933" lon="1.70418">
        <ele>628.36</ele>
        <time>2014-06-21T14:04:58Z</time>
      </trkpt>
      <trkpt lat="42.77933" lon="1.7042">
        <ele>628.36</ele>
        <time>2014-06-21T14:04:59Z</time>
      </trkpt>
      <trkpt lat="42.77932" lon="1.70426">
        <ele>630.28</ele>
        <time>2014-06-21T14:05:04Z</time>
      </trkpt>
      <trkpt lat="42.77932" lon="1.70428">
        <ele>630.76</ele>
        <time>2014-06-21T14:05:05Z</time>
      </trkpt>
      <trkpt lat="42.77931" lon="1.7043">
        <ele>630.76</ele>
        <time>2014-06-21T14:05:06Z</time>
      </trkpt>
      <trkpt lat="42.7793" lon="1.70432">
        <ele>631.24</ele>
        <time>2014-06-21T14:05:07Z</time>
      </trkpt>
      <trkpt lat="42.7793" lon="1.70434">
        <ele>632.2</ele>
        <time>2014-06-21T14:05:08Z</time>
      </trkpt>
      <trkpt lat="42.77926" lon="1.70451">
        <ele>635.09</ele>
        <time>2014-06-21T14:05:20Z</time>
      </trkpt>
      <trkpt lat="42.77926" lon="1.70454">
        <ele>635.09</ele>
        <time>2014-06-21T14:05:23Z</time>
      </trkpt>
      <trkpt lat="42.77922" lon="1.70479">
        <ele>637.01</ele>
        <time>2014-06-21T14:05:36Z</time>
      </trkpt>
      <trkpt lat="42.77922" lon="1.70499">
        <ele>637.49</ele>
        <time>2014-06-21T14:05:48Z</time>
      </trkpt>
      <trkpt lat="42.77923" lon="1.70522">
        <ele>636.53</ele>
        <time>2014-06-21T14:06:01Z</time>
      </trkpt>
      <trkpt lat="42.77922" lon="1.70542">
        <ele>637.49</ele>
        <time>2014-06-21T14:06:13Z</time>
      </trkpt>
      <trkpt lat="42.77922" lon="1.70546">
        <ele>637.49</ele>
        <time>2014-06-21T14:06:16Z</time>
      </trkpt>
      <trkpt lat="42.77922" lon="1.70547">
        <ele>637.49</ele>
        <time>2014-06-21T14:06:17Z</time>
      </trkpt>
      <trkpt lat="42.77922" lon="1.70549">
        <ele>637.97</ele>
        <time>2014-06-21T14:06:18Z</time>
      </trkpt>
      <trkpt lat="42.77918" lon="1.70568">
        <ele>637.97</ele>
        <time>2014-06-21T14:06:29Z</time>
      </trkpt>
      <trkpt lat="42.77918" lon="1.70588">
        <ele>637.01</ele>
        <time>2014-06-21T14:06:41Z</time>
      </trkpt>
      <trkpt lat="42.77917" lon="1.70602">
        <ele>637.49</ele>
        <time>2014-06-21T14:06:50Z</time>
      </trkpt>
      <trkpt lat="42.77917" lon="1.70604">
        <ele>637.01</ele>
        <time>2014-06-21T14:06:51Z</time>
      </trkpt>
      <trkpt lat="42.77917" lon="1.70607">
        <ele>637.01</ele>
        <time>2014-06-21T14:06:52Z</time>
      </trkpt>
      <trkpt lat="42.77917" lon="1.7061">
        <ele>637.01</ele>
        <time>2014-06-21T14:06:53Z</time>
      </trkpt>
      <trkpt lat="42.77916" lon="1.70611">
        <ele>637.01</ele>
        <time>2014-06-21T14:06:54Z</time>
      </trkpt>
      <trkpt lat="42.77916" lon="1.70613">
        <ele>637.01</ele>
        <time>2014-06-21T14:06:55Z</time>
      </trkpt>
      <trkpt lat="42.77913" lon="1.70628">
        <ele>638.45</ele>
        <time>2014-06-21T14:07:06Z</time>
      </trkpt>
      <trkpt lat="42.77915" lon="1.70646">
        <ele>639.41</ele>
        <time>2014-06-21T14:07:16Z</time>
      </trkpt>
      <trkpt lat="42.77919" lon="1.70646">
        <ele>639.89</ele>
        <time>2014-06-21T14:07:21Z</time>
      </trkpt>
      <trkpt lat="42.77919" lon="1.70645">
        <ele>639.89</ele>
        <time>2014-06-21T14:07:22Z</time>
      </trkpt>
      <trkpt lat="42.77921" lon="1.70643">
        <ele>640.38</ele>
        <time>2014-06-21T14:07:23Z</time>
      </trkpt>
      <trkpt lat="42.77922" lon="1.70641">
        <ele>640.86</ele>
        <time>2014-06-21T14:07:24Z</time>
      </trkpt>
      <trkpt lat="42.77922" lon="1.7064">
        <ele>640.86</ele>
        <time>2014-06-21T14:07:25Z</time>
      </trkpt>
      <trkpt lat="42.77923" lon="1.70638">
        <ele>640.86</ele>
        <time>2014-06-21T14:07:26Z</time>
      </trkpt>
      <trkpt lat="42.77923" lon="1.70636">
        <ele>640.86</ele>
        <time>2014-06-21T14:07:27Z</time>
      </trkpt>
      <trkpt lat="42.77924" lon="1.70635">
        <ele>640.86</ele>
        <time>2014-06-21T14:07:28Z</time>
      </trkpt>
      <trkpt lat="42.77933" lon="1.70607">
        <ele>641.82</ele>
        <time>2014-06-21T14:07:48Z</time>
      </trkpt>
      <trkpt lat="42.77939" lon="1.70598">
        <ele>641.34</ele>
        <time>2014-06-21T14:07:54Z</time>
      </trkpt>
      <trkpt lat="42.77939" lon="1.70596">
        <ele>641.34</ele>
        <time>2014-06-21T14:07:55Z</time>
      </trkpt>
      <trkpt lat="42.77939" lon="1.70595">
        <ele>641.34</ele>
        <time>2014-06-21T14:07:56Z</time>
      </trkpt>
      <trkpt lat="42.7794" lon="1.70594">
        <ele>641.34</ele>
        <time>2014-06-21T14:07:57Z</time>
      </trkpt>
      <trkpt lat="42.77946" lon="1.7058">
        <ele>642.3</ele>
        <time>2014-06-21T14:08:08Z</time>
      </trkpt>
      <trkpt lat="42.77949" lon="1.7057">
        <ele>642.78</ele>
        <time>2014-06-21T14:08:13Z</time>
      </trkpt>
      <trkpt lat="42.77956" lon="1.70551">
        <ele>644.7</ele>
        <time>2014-06-21T14:08:26Z</time>
      </trkpt>
      <trkpt lat="42.77959" lon="1.70538">
        <ele>644.22</ele>
        <time>2014-06-21T14:08:34Z</time>
      </trkpt>
      <trkpt lat="42.77964" lon="1.70518">
        <ele>644.22</ele>
        <time>2014-06-21T14:08:48Z</time>
      </trkpt>
      <trkpt lat="42.77966" lon="1.70511">
        <ele>645.66</ele>
        <time>2014-06-21T14:08:59Z</time>
      </trkpt>
      <trkpt lat="42.77968" lon="1.70509">
        <ele>644.7</ele>
        <time>2014-06-21T14:09:27Z</time>
      </trkpt>
      <trkpt lat="42.77975" lon="1.70497">
        <ele>645.66</ele>
        <time>2014-06-21T14:09:38Z</time>
      </trkpt>
      <trkpt lat="42.77983" lon="1.70481">
        <ele>645.66</ele>
        <time>2014-06-21T14:09:49Z</time>
      </trkpt>
      <trkpt lat="42.7799" lon="1.70465">
        <ele>647.59</ele>
        <time>2014-06-21T14:10:01Z</time>
      </trkpt>
      <trkpt lat="42.77994" lon="1.70446">
        <ele>648.07</ele>
        <time>2014-06-21T14:10:13Z</time>
      </trkpt>
      <trkpt lat="42.77997" lon="1.70439">
        <ele>648.07</ele>
        <time>2014-06-21T14:10:16Z</time>
      </trkpt>
      <trkpt lat="42.77999" lon="1.70435">
        <ele>648.55</ele>
        <time>2014-06-21T14:10:21Z</time>
      </trkpt>
      <trkpt lat="42.78" lon="1.70433">
        <ele>648.07</ele>
        <time>2014-06-21T14:10:22Z</time>
      </trkpt>
      <trkpt lat="42.78001" lon="1.70432">
        <ele>648.07</ele>
        <time>2014-06-21T14:10:23Z</time>
      </trkpt>
      <trkpt lat="42.78007" lon="1.70411">
        <ele>649.03</ele>
        <time>2014-06-21T14:10:35Z</time>
      </trkpt>
      <trkpt lat="42.78007" lon="1.70406">
        <ele>650.47</ele>
        <time>2014-06-21T14:10:39Z</time>
      </trkpt>
      <trkpt lat="42.78007" lon="1.70404">
        <ele>650.47</ele>
        <time>2014-06-21T14:10:40Z</time>
      </trkpt>
      <trkpt lat="42.78009" lon="1.70386">
        <ele>651.43</ele>
        <time>2014-06-21T14:10:51Z</time>
      </trkpt>
      <trkpt lat="42.7801" lon="1.7038">
        <ele>651.43</ele>
        <time>2014-06-21T14:10:53Z</time>
      </trkpt>
      <trkpt lat="42.7801" lon="1.70364">
        <ele>652.39</ele>
        <time>2014-06-21T14:11:03Z</time>
      </trkpt>
      <trkpt lat="42.78008" lon="1.70346">
        <ele>653.83</ele>
        <time>2014-06-21T14:11:15Z</time>
      </trkpt>
      <trkpt lat="42.78004" lon="1.70308">
        <ele>657.68</ele>
        <time>2014-06-21T14:11:36Z</time>
      </trkpt>
      <trkpt lat="42.78001" lon="1.70288">
        <ele>657.68</ele>
        <time>2014-06-21T14:11:50Z</time>
      </trkpt>
      <trkpt lat="42.78005" lon="1.70288">
        <ele>657.68</ele>
        <time>2014-06-21T14:11:55Z</time>
      </trkpt>
      <trkpt lat="42.78006" lon="1.70292">
        <ele>657.68</ele>
        <time>2014-06-21T14:11:59Z</time>
      </trkpt>
      <trkpt lat="42.78007" lon="1.70294">
        <ele>658.16</ele>
        <time>2014-06-21T14:12:00Z</time>
      </trkpt>
      <trkpt lat="42.78007" lon="1.70295">
        <ele>658.16</ele>
        <time>2014-06-21T14:12:01Z</time>
      </trkpt>
      <trkpt lat="42.78007" lon="1.70297">
        <ele>658.16</ele>
        <time>2014-06-21T14:12:02Z</time>
      </trkpt>
      <trkpt lat="42.78008" lon="1.703">
        <ele>658.64</ele>
        <time>2014-06-21T14:12:03Z</time>
      </trkpt>
      <trkpt lat="42.78008" lon="1.70302">
        <ele>658.64</ele>
        <time>2014-06-21T14:12:04Z</time>
      </trkpt>
      <trkpt lat="42.78008" lon="1.70304">
        <ele>658.64</ele>
        <time>2014-06-21T14:12:05Z</time>
      </trkpt>
      <trkpt lat="42.78008" lon="1.70306">
        <ele>659.12</ele>
        <time>2014-06-21T14:12:06Z</time>
      </trkpt>
      <trkpt lat="42.78008" lon="1.70308">
        <ele>659.12</ele>
        <time>2014-06-21T14:12:07Z</time>
      </trkpt>
      <trkpt lat="42.78012" lon="1.70327">
        <ele>661.04</ele>
        <time>2014-06-21T14:12:18Z</time>
      </trkpt>
      <trkpt lat="42.78016" lon="1.70346">
        <ele>661.04</ele>
        <time>2014-06-21T14:12:30Z</time>
      </trkpt>
      <trkpt lat="42.7802" lon="1.70364">
        <ele>662.01</ele>
        <time>2014-06-21T14:12:42Z</time>
      </trkpt>
      <trkpt lat="42.78021" lon="1.70369">
        <ele>662.49</ele>
        <time>2014-06-21T14:12:47Z</time>
      </trkpt>
      <trkpt lat="42.78022" lon="1.70371">
        <ele>662.97</ele>
        <time>2014-06-21T14:12:48Z</time>
      </trkpt>
      <trkpt lat="42.78031" lon="1.70391">
        <ele>663.93</ele>
        <time>2014-06-21T14:13:01Z</time>
      </trkpt>
      <trkpt lat="42.78038" lon="1.70408">
        <ele>664.41</ele>
        <time>2014-06-21T14:13:13Z</time>
      </trkpt>
      <trkpt lat="42.7804" lon="1.70426">
        <ele>665.37</ele>
        <time>2014-06-21T14:13:25Z</time>
      </trkpt>
      <trkpt lat="42.78041" lon="1.70442">
        <ele>667.29</ele>
        <time>2014-06-21T14:13:35Z</time>
      </trkpt>
      <trkpt lat="42.78042" lon="1.70451">
        <ele>668.25</ele>
        <time>2014-06-21T14:13:42Z</time>
      </trkpt>
      <trkpt lat="42.78043" lon="1.70453">
        <ele>668.25</ele>
        <time>2014-06-21T14:13:43Z</time>
      </trkpt>
      <trkpt lat="42.78043" lon="1.70455">
        <ele>668.25</ele>
        <time>2014-06-21T14:13:44Z</time>
      </trkpt>
      <trkpt lat="42.78043" lon="1.70471">
        <ele>670.66</ele>
        <time>2014-06-21T14:13:54Z</time>
      </trkpt>
      <trkpt lat="42.78043" lon="1.70473">
        <ele>670.66</ele>
        <time>2014-06-21T14:13:55Z</time>
      </trkpt>
      <trkpt lat="42.78043" lon="1.70475">
        <ele>671.14</ele>
        <time>2014-06-21T14:13:56Z</time>
      </trkpt>
      <trkpt lat="42.78043" lon="1.70477">
        <ele>671.14</ele>
        <time>2014-06-21T14:13:57Z</time>
      </trkpt>
      <trkpt lat="42.78043" lon="1.7048">
        <ele>671.62</ele>
        <time>2014-06-21T14:13:58Z</time>
      </trkpt>
      <trkpt lat="42.78044" lon="1.70495">
        <ele>673.54</ele>
        <time>2014-06-21T14:14:08Z</time>
      </trkpt>
      <trkpt lat="42.78044" lon="1.705">
        <ele>674.02</ele>
        <time>2014-06-21T14:14:13Z</time>
      </trkpt>
      <trkpt lat="42.78044" lon="1.70502">
        <ele>674.02</ele>
        <time>2014-06-21T14:14:14Z</time>
      </trkpt>
      <trkpt lat="42.78044" lon="1.70505">
        <ele>674.02</ele>
        <time>2014-06-21T14:14:15Z</time>
      </trkpt>
      <trkpt lat="42.78045" lon="1.70507">
        <ele>674.02</ele>
        <time>2014-06-21T14:14:16Z</time>
      </trkpt>
      <trkpt lat="42.78045" lon="1.70509">
        <ele>674.02</ele>
        <time>2014-06-21T14:14:17Z</time>
      </trkpt>
      <trkpt lat="42.78047" lon="1.70518">
        <ele>674.5</ele>
        <time>2014-06-21T14:14:28Z</time>
      </trkpt>
      <trkpt lat="42.78049" lon="1.70523">
        <ele>674.98</ele>
        <time>2014-06-21T14:14:39Z</time>
      </trkpt>
      <trkpt lat="42.78052" lon="1.70521">
        <ele>674.02</ele>
        <time>2014-06-21T14:14:56Z</time>
      </trkpt>
      <trkpt lat="42.78051" lon="1.70526">
        <ele>674.02</ele>
        <time>2014-06-21T14:15:02Z</time>
      </trkpt>
      <trkpt lat="42.78052" lon="1.70528">
        <ele>674.02</ele>
        <time>2014-06-21T14:15:03Z</time>
      </trkpt>
      <trkpt lat="42.78052" lon="1.70537">
        <ele>674.5</ele>
        <time>2014-06-21T14:15:09Z</time>
      </trkpt>
      <trkpt lat="42.78052" lon="1.70539">
        <ele>674.5</ele>
        <time>2014-06-21T14:15:10Z</time>
      </trkpt>
      <trkpt lat="42.78053" lon="1.7054">
        <ele>674.5</ele>
        <time>2014-06-21T14:15:11Z</time>
      </trkpt>
      <trkpt lat="42.78053" lon="1.7055">
        <ele>674.98</ele>
        <time>2014-06-21T14:15:18Z</time>
      </trkpt>
      <trkpt lat="42.78054" lon="1.70552">
        <ele>675.46</ele>
        <time>2014-06-21T14:15:19Z</time>
      </trkpt>
      <trkpt lat="42.78054" lon="1.70554">
        <ele>675.46</ele>
        <time>2014-06-21T14:15:20Z</time>
      </trkpt>
      <trkpt lat="42.78055" lon="1.70572">
        <ele>677.39</ele>
        <time>2014-06-21T14:15:30Z</time>
      </trkpt>
      <trkpt lat="42.78056" lon="1.70576">
        <ele>677.87</ele>
        <time>2014-06-21T14:15:34Z</time>
      </trkpt>
      <trkpt lat="42.78056" lon="1.70578">
        <ele>677.87</ele>
        <time>2014-06-21T14:15:35Z</time>
      </trkpt>
      <trkpt lat="42.78056" lon="1.70579">
        <ele>677.87</ele>
        <time>2014-06-21T14:15:36Z</time>
      </trkpt>
      <trkpt lat="42.78056" lon="1.70582">
        <ele>677.87</ele>
        <time>2014-06-21T14:15:37Z</time>
      </trkpt>
      <trkpt lat="42.78056" lon="1.70584">
        <ele>678.35</ele>
        <time>2014-06-21T14:15:38Z</time>
      </trkpt>
      <trkpt lat="42.78056" lon="1.70589">
        <ele>678.35</ele>
        <time>2014-06-21T14:15:43Z</time>
      </trkpt>
      <trkpt lat="42.78056" lon="1.70591">
        <ele>678.35</ele>
        <time>2014-06-21T14:15:44Z</time>
      </trkpt>
      <trkpt lat="42.78056" lon="1.70593">
        <ele>678.35</ele>
        <time>2014-06-21T14:15:45Z</time>
      </trkpt>
      <trkpt lat="42.78056" lon="1.70596">
        <ele>678.83</ele>
        <time>2014-06-21T14:15:46Z</time>
      </trkpt>
      <trkpt lat="42.78056" lon="1.70598">
        <ele>678.83</ele>
        <time>2014-06-21T14:15:47Z</time>
      </trkpt>
      <trkpt lat="42.78056" lon="1.70617">
        <ele>680.27</ele>
        <time>2014-06-21T14:15:58Z</time>
      </trkpt>
      <trkpt lat="42.78056" lon="1.70635">
        <ele>680.75</ele>
        <time>2014-06-21T14:16:10Z</time>
      </trkpt>
      <trkpt lat="42.78055" lon="1.70654">
        <ele>681.71</ele>
        <time>2014-06-21T14:16:21Z</time>
      </trkpt>
      <trkpt lat="42.78054" lon="1.70672">
        <ele>683.15</ele>
        <time>2014-06-21T14:16:32Z</time>
      </trkpt>
      <trkpt lat="42.78055" lon="1.70693">
        <ele>682.67</ele>
        <time>2014-06-21T14:16:45Z</time>
      </trkpt>
      <trkpt lat="42.78056" lon="1.7071">
        <ele>682.67</ele>
        <time>2014-06-21T14:16:56Z</time>
      </trkpt>
      <trkpt lat="42.78057" lon="1.7073">
        <ele>683.63</ele>
        <time>2014-06-21T14:17:07Z</time>
      </trkpt>
      <trkpt lat="42.78063" lon="1.70746">
        <ele>685.08</ele>
        <time>2014-06-21T14:17:18Z</time>
      </trkpt>
      <trkpt lat="42.78072" lon="1.70758">
        <ele>688.44</ele>
        <time>2014-06-21T14:17:30Z</time>
      </trkpt>
      <trkpt lat="42.78073" lon="1.70759">
        <ele>688.44</ele>
        <time>2014-06-21T14:17:31Z</time>
      </trkpt>
      <trkpt lat="42.78074" lon="1.7076">
        <ele>688.44</ele>
        <time>2014-06-21T14:17:32Z</time>
      </trkpt>
      <trkpt lat="42.78075" lon="1.70761">
        <ele>688.44</ele>
        <time>2014-06-21T14:17:33Z</time>
      </trkpt>
      <trkpt lat="42.78076" lon="1.70763">
        <ele>688.44</ele>
        <time>2014-06-21T14:17:34Z</time>
      </trkpt>
      <trkpt lat="42.78077" lon="1.70765">
        <ele>688.92</ele>
        <time>2014-06-21T14:17:35Z</time>
      </trkpt>
      <trkpt lat="42.78082" lon="1.70778">
        <ele>690.36</ele>
        <time>2014-06-21T14:17:45Z</time>
      </trkpt>
      <trkpt lat="42.7809" lon="1.70786">
        <ele>691.33</ele>
        <time>2014-06-21T14:17:56Z</time>
      </trkpt>
      <trkpt lat="42.78091" lon="1.70784">
        <ele>691.33</ele>
        <time>2014-06-21T14:17:57Z</time>
      </trkpt>
      <trkpt lat="42.78092" lon="1.70782">
        <ele>691.33</ele>
        <time>2014-06-21T14:17:58Z</time>
      </trkpt>
      <trkpt lat="42.78092" lon="1.70774">
        <ele>691.81</ele>
        <time>2014-06-21T14:18:04Z</time>
      </trkpt>
      <trkpt lat="42.78091" lon="1.70772">
        <ele>691.33</ele>
        <time>2014-06-21T14:18:05Z</time>
      </trkpt>
      <trkpt lat="42.78083" lon="1.70757">
        <ele>692.77</ele>
        <time>2014-06-21T14:18:16Z</time>
      </trkpt>
      <trkpt lat="42.78077" lon="1.70743">
        <ele>693.25</ele>
        <time>2014-06-21T14:18:26Z</time>
      </trkpt>
      <trkpt lat="42.78074" lon="1.70728">
        <ele>693.73</ele>
        <time>2014-06-21T14:18:36Z</time>
      </trkpt>
      <trkpt lat="42.78077" lon="1.70712">
        <ele>693.73</ele>
        <time>2014-06-21T14:18:47Z</time>
      </trkpt>
      <trkpt lat="42.78082" lon="1.70696">
        <ele>694.21</ele>
        <time>2014-06-21T14:18:58Z</time>
      </trkpt>
      <trkpt lat="42.78087" lon="1.70679">
        <ele>694.21</ele>
        <time>2014-06-21T14:19:09Z</time>
      </trkpt>
      <trkpt lat="42.78093" lon="1.70662">
        <ele>694.21</ele>
        <time>2014-06-21T14:19:21Z</time>
      </trkpt>
      <trkpt lat="42.78098" lon="1.7065">
        <ele>695.65</ele>
        <time>2014-06-21T14:19:29Z</time>
      </trkpt>
      <trkpt lat="42.78099" lon="1.70649">
        <ele>695.65</ele>
        <time>2014-06-21T14:19:30Z</time>
      </trkpt>
      <trkpt lat="42.781" lon="1.70647">
        <ele>695.65</ele>
        <time>2014-06-21T14:19:31Z</time>
      </trkpt>
      <trkpt lat="42.781" lon="1.70645">
        <ele>695.65</ele>
        <time>2014-06-21T14:19:32Z</time>
      </trkpt>
      <trkpt lat="42.78103" lon="1.70639">
        <ele>696.61</ele>
        <time>2014-06-21T14:19:37Z</time>
      </trkpt>
      <trkpt lat="42.78107" lon="1.70631">
        <ele>697.57</ele>
        <time>2014-06-21T14:19:43Z</time>
      </trkpt>
      <trkpt lat="42.78107" lon="1.70629">
        <ele>697.57</ele>
        <time>2014-06-21T14:19:44Z</time>
      </trkpt>
      <trkpt lat="42.78107" lon="1.70626">
        <ele>698.05</ele>
        <time>2014-06-21T14:19:45Z</time>
      </trkpt>
      <trkpt lat="42.78108" lon="1.70624">
        <ele>698.05</ele>
        <time>2014-06-21T14:19:46Z</time>
      </trkpt>
      <trkpt lat="42.7811" lon="1.7062">
        <ele>698.53</ele>
        <time>2014-06-21T14:19:50Z</time>
      </trkpt>
      <trkpt lat="42.7811" lon="1.70618">
        <ele>698.53</ele>
        <time>2014-06-21T14:19:51Z</time>
      </trkpt>
      <trkpt lat="42.78111" lon="1.70617">
        <ele>699.02</ele>
        <time>2014-06-21T14:19:52Z</time>
      </trkpt>
      <trkpt lat="42.78112" lon="1.70602">
        <ele>700.46</ele>
        <time>2014-06-21T14:20:02Z</time>
      </trkpt>
      <trkpt lat="42.78112" lon="1.70585">
        <ele>700.46</ele>
        <time>2014-06-21T14:20:12Z</time>
      </trkpt>
      <trkpt lat="42.78111" lon="1.70562">
        <ele>701.42</ele>
        <time>2014-06-21T14:20:24Z</time>
      </trkpt>
      <trkpt lat="42.78111" lon="1.70548">
        <ele>700.94</ele>
        <time>2014-06-21T14:20:33Z</time>
      </trkpt>
      <trkpt lat="42.7811" lon="1.70533">
        <ele>701.42</ele>
        <time>2014-06-21T14:20:44Z</time>
      </trkpt>
      <trkpt lat="42.78111" lon="1.70513">
        <ele>702.38</ele>
        <time>2014-06-21T14:20:56Z</time>
      </trkpt>
      <trkpt lat="42.78116" lon="1.70496">
        <ele>703.82</ele>
        <time>2014-06-21T14:21:07Z</time>
      </trkpt>
      <trkpt lat="42.78122" lon="1.70479">
        <ele>704.3</ele>
        <time>2014-06-21T14:21:18Z</time>
      </trkpt>
      <trkpt lat="42.78127" lon="1.70461">
        <ele>705.26</ele>
        <time>2014-06-21T14:21:30Z</time>
      </trkpt>
      <trkpt lat="42.78134" lon="1.70444">
        <ele>706.71</ele>
        <time>2014-06-21T14:21:42Z</time>
      </trkpt>
      <trkpt lat="42.78138" lon="1.70432">
        <ele>707.67</ele>
        <time>2014-06-21T14:21:51Z</time>
      </trkpt>
      <trkpt lat="42.78139" lon="1.7043">
        <ele>708.63</ele>
        <time>2014-06-21T14:21:54Z</time>
      </trkpt>
      <trkpt lat="42.78142" lon="1.70412">
        <ele>710.55</ele>
        <time>2014-06-21T14:22:05Z</time>
      </trkpt>
      <trkpt lat="42.78144" lon="1.70394">
        <ele>712.47</ele>
        <time>2014-06-21T14:22:16Z</time>
      </trkpt>
      <trkpt lat="42.78143" lon="1.7037">
        <ele>713.92</ele>
        <time>2014-06-21T14:22:30Z</time>
      </trkpt>
      <trkpt lat="42.78142" lon="1.70368">
        <ele>713.92</ele>
        <time>2014-06-21T14:22:31Z</time>
      </trkpt>
      <trkpt lat="42.78142" lon="1.70365">
        <ele>713.92</ele>
        <time>2014-06-21T14:22:32Z</time>
      </trkpt>
      <trkpt lat="42.78141" lon="1.70363">
        <ele>713.92</ele>
        <time>2014-06-21T14:22:33Z</time>
      </trkpt>
      <trkpt lat="42.78141" lon="1.70361">
        <ele>714.4</ele>
        <time>2014-06-21T14:22:34Z</time>
      </trkpt>
      <trkpt lat="42.78141" lon="1.70358">
        <ele>714.4</ele>
        <time>2014-06-21T14:22:35Z</time>
      </trkpt>
      <trkpt lat="42.78136" lon="1.70339">
        <ele>713.92</ele>
        <time>2014-06-21T14:22:47Z</time>
      </trkpt>
      <trkpt lat="42.78131" lon="1.70318">
        <ele>714.4</ele>
        <time>2014-06-21T14:22:59Z</time>
      </trkpt>
      <trkpt lat="42.78129" lon="1.70314">
        <ele>713.92</ele>
        <time>2014-06-21T14:23:03Z</time>
      </trkpt>
      <trkpt lat="42.78127" lon="1.70307">
        <ele>712.95</ele>
        <time>2014-06-21T14:23:13Z</time>
      </trkpt>
      <trkpt lat="42.78126" lon="1.70306">
        <ele>711.99</ele>
        <time>2014-06-21T14:23:31Z</time>
      </trkpt>
      <trkpt lat="42.78122" lon="1.70304">
        <ele>714.4</ele>
        <time>2014-06-21T14:23:57Z</time>
      </trkpt>
      <trkpt lat="42.78123" lon="1.70309">
        <ele>712.95</ele>
        <time>2014-06-21T14:24:16Z</time>
      </trkpt>
      <trkpt lat="42.78123" lon="1.70309">
        <ele>713.92</ele>
        <time>2014-06-21T14:24:49Z</time>
      </trkpt>
      <trkpt lat="42.78122" lon="1.7031">
        <ele>715.84</ele>
        <time>2014-06-21T14:25:15Z</time>
      </trkpt>
      <trkpt lat="42.78124" lon="1.70313">
        <ele>711.03</ele>
        <time>2014-06-21T14:25:48Z</time>
      </trkpt>
      <trkpt lat="42.78122" lon="1.70313">
        <ele>715.84</ele>
        <time>2014-06-21T14:26:22Z</time>
      </trkpt>
      <trkpt lat="42.78122" lon="1.7031">
        <ele>716.32</ele>
        <time>2014-06-21T14:26:50Z</time>
      </trkpt>
      <trkpt lat="42.7812" lon="1.70311">
        <ele>713.92</ele>
        <time>2014-06-21T14:27:20Z</time>
      </trkpt>
      <trkpt lat="42.7812" lon="1.7031">
        <ele>712.95</ele>
        <time>2014-06-21T14:28:01Z</time>
      </trkpt>
      <trkpt lat="42.7812" lon="1.70311">
        <ele>714.4</ele>
        <time>2014-06-21T14:28:38Z</time>
      </trkpt>
      <trkpt lat="42.78123" lon="1.70311">
        <ele>714.4</ele>
        <time>2014-06-21T14:29:13Z</time>
      </trkpt>
      <trkpt lat="42.78121" lon="1.70311">
        <ele>711.03</ele>
        <time>2014-06-21T14:29:52Z</time>
      </trkpt>
      <trkpt lat="42.78122" lon="1.70313">
        <ele>715.36</ele>
        <time>2014-06-21T14:30:27Z</time>
      </trkpt>
      <trkpt lat="42.78123" lon="1.70312">
        <ele>715.84</ele>
        <time>2014-06-21T14:31:09Z</time>
      </trkpt>
      <trkpt lat="42.78124" lon="1.70311">
        <ele>713.44</ele>
        <time>2014-06-21T14:31:43Z</time>
      </trkpt>
      <trkpt lat="42.78122" lon="1.70313">
        <ele>716.8</ele>
        <time>2014-06-21T14:32:18Z</time>
      </trkpt>
      <trkpt lat="42.78122" lon="1.70311">
        <ele>718.24</ele>
        <time>2014-06-21T14:32:54Z</time>
      </trkpt>
      <trkpt lat="42.78122" lon="1.70311">
        <ele>715.84</ele>
        <time>2014-06-21T14:33:29Z</time>
      </trkpt>
      <trkpt lat="42.78124" lon="1.70311">
        <ele>713.92</ele>
        <time>2014-06-21T14:34:06Z</time>
      </trkpt>
      <trkpt lat="42.78123" lon="1.7031">
        <ele>718.72</ele>
        <time>2014-06-21T14:34:43Z</time>
      </trkpt>
      <trkpt lat="42.78123" lon="1.70311">
        <ele>717.28</ele>
        <time>2014-06-21T14:35:17Z</time>
      </trkpt>
      <trkpt lat="42.78122" lon="1.70308">
        <ele>711.03</ele>
        <time>2014-06-21T14:35:44Z</time>
      </trkpt>
      <trkpt lat="42.78122" lon="1.70308">
        <ele>711.51</ele>
        <time>2014-06-21T14:36:13Z</time>
      </trkpt>
      <trkpt lat="42.78121" lon="1.7031">
        <ele>713.44</ele>
        <time>2014-06-21T14:36:39Z</time>
      </trkpt>
      <trkpt lat="42.78125" lon="1.70318">
        <ele>716.32</ele>
        <time>2014-06-21T14:37:09Z</time>
      </trkpt>
      <trkpt lat="42.78124" lon="1.70315">
        <ele>717.28</ele>
        <time>2014-06-21T14:37:49Z</time>
      </trkpt>
      <trkpt lat="42.78123" lon="1.70313">
        <ele>714.4</ele>
        <time>2014-06-21T14:38:26Z</time>
      </trkpt>
      <trkpt lat="42.78122" lon="1.70308">
        <ele>713.92</ele>
        <time>2014-06-21T14:39:03Z</time>
      </trkpt>
      <trkpt lat="42.78121" lon="1.70312">
        <ele>712.47</ele>
        <time>2014-06-21T14:39:33Z</time>
      </trkpt>
      <trkpt lat="42.7812" lon="1.7031">
        <ele>714.4</ele>
        <time>2014-06-21T14:40:01Z</time>
      </trkpt>
      <trkpt lat="42.78125" lon="1.70306">
        <ele>713.44</ele>
        <time>2014-06-21T14:40:18Z</time>
      </trkpt>
      <trkpt lat="42.78128" lon="1.70305">
        <ele>713.92</ele>
        <time>2014-06-21T14:40:22Z</time>
      </trkpt>
      <trkpt lat="42.78129" lon="1.70305">
        <ele>714.4</ele>
        <time>2014-06-21T14:40:23Z</time>
      </trkpt>
      <trkpt lat="42.7813" lon="1.70305">
        <ele>714.4</ele>
        <time>2014-06-21T14:40:24Z</time>
      </trkpt>
      <trkpt lat="42.78133" lon="1.70308">
        <ele>715.36</ele>
        <time>2014-06-21T14:40:29Z</time>
      </trkpt>
      <trkpt lat="42.78134" lon="1.7031">
        <ele>715.36</ele>
        <time>2014-06-21T14:40:30Z</time>
      </trkpt>
      <trkpt lat="42.78136" lon="1.70311">
        <ele>714.88</ele>
        <time>2014-06-21T14:40:35Z</time>
      </trkpt>
      <trkpt lat="42.78133" lon="1.70302">
        <ele>713.92</ele>
        <time>2014-06-21T14:40:46Z</time>
      </trkpt>
      <trkpt lat="42.78129" lon="1.70301">
        <ele>713.44</ele>
        <time>2014-06-21T14:40:48Z</time>
      </trkpt>
      <trkpt lat="42.78128" lon="1.70302">
        <ele>712.95</ele>
        <time>2014-06-21T14:40:49Z</time>
      </trkpt>
      <trkpt lat="42.78126" lon="1.70304">
        <ele>712.95</ele>
        <time>2014-06-21T14:40:51Z</time>
      </trkpt>
      <trkpt lat="42.78125" lon="1.70307">
        <ele>711.03</ele>
        <time>2014-06-21T14:41:04Z</time>
      </trkpt>
      <trkpt lat="42.78123" lon="1.70306">
        <ele>709.11</ele>
        <time>2014-06-21T14:41:22Z</time>
      </trkpt>
      <trkpt lat="42.78124" lon="1.70304">
        <ele>712.47</ele>
        <time>2014-06-21T14:41:42Z</time>
      </trkpt>
      <trkpt lat="42.78124" lon="1.70303">
        <ele>713.44</ele>
        <time>2014-06-21T14:41:52Z</time>
      </trkpt>
      <trkpt lat="42.78123" lon="1.70307">
        <ele>713.44</ele>
        <time>2014-06-21T14:42:08Z</time>
      </trkpt>
      <trkpt lat="42.78124" lon="1.70307">
        <ele>710.55</ele>
        <time>2014-06-21T14:42:51Z</time>
      </trkpt>
      <trkpt lat="42.78127" lon="1.70306">
        <ele>704.78</ele>
        <time>2014-06-21T14:43:28Z</time>
      </trkpt>
      <trkpt lat="42.78128" lon="1.70305">
        <ele>704.78</ele>
        <time>2014-06-21T14:43:56Z</time>
      </trkpt>
      <trkpt lat="42.78126" lon="1.70303">
        <ele>704.78</ele>
        <time>2014-06-21T14:44:21Z</time>
      </trkpt>
      <trkpt lat="42.78125" lon="1.70297">
        <ele>707.19</ele>
        <time>2014-06-21T14:45:02Z</time>
      </trkpt>
      <trkpt lat="42.78123" lon="1.70299">
        <ele>710.07</ele>
        <time>2014-06-21T14:45:32Z</time>
      </trkpt>
      <trkpt lat="42.78124" lon="1.70306">
        <ele>711.51</ele>
        <time>2014-06-21T14:46:15Z</time>
      </trkpt>
      <trkpt lat="42.78123" lon="1.70306">
        <ele>710.07</ele>
        <time>2014-06-21T14:46:54Z</time>
      </trkpt>
      <trkpt lat="42.78124" lon="1.7031">
        <ele>710.07</ele>
        <time>2014-06-21T14:47:27Z</time>
      </trkpt>
      <trkpt lat="42.78123" lon="1.70306">
        <ele>710.55</ele>
        <time>2014-06-21T14:48:06Z</time>
      </trkpt>
      <trkpt lat="42.78123" lon="1.70307">
        <ele>710.07</ele>
        <time>2014-06-21T14:48:48Z</time>
      </trkpt>
      <trkpt lat="42.78124" lon="1.70305">
        <ele>709.59</ele>
        <time>2014-06-21T14:49:17Z</time>
      </trkpt>
      <trkpt lat="42.78124" lon="1.70305">
        <ele>709.11</ele>
        <time>2014-06-21T14:50:00Z</time>
      </trkpt>
      <trkpt lat="42.78124" lon="1.70308">
        <ele>709.11</ele>
        <time>2014-06-21T14:50:32Z</time>
      </trkpt>
      <trkpt lat="42.78121" lon="1.70308">
        <ele>712.95</ele>
        <time>2014-06-21T14:51:03Z</time>
      </trkpt>
      <trkpt lat="42.78124" lon="1.70308">
        <ele>711.51</ele>
        <time>2014-06-21T14:51:41Z</time>
      </trkpt>
      <trkpt lat="42.78122" lon="1.70307">
        <ele>711.03</ele>
        <time>2014-06-21T14:52:18Z</time>
      </trkpt>
      <trkpt lat="42.78124" lon="1.70302">
        <ele>711.03</ele>
        <time>2014-06-21T14:52:54Z</time>
      </trkpt>
      <trkpt lat="42.78125" lon="1.70304">
        <ele>709.59</ele>
        <time>2014-06-21T14:53:29Z</time>
      </trkpt>
      <trkpt lat="42.78128" lon="1.70303">
        <ele>707.67</ele>
        <time>2014-06-21T14:54:07Z</time>
      </trkpt>
      <trkpt lat="42.78123" lon="1.70307">
        <ele>712.95</ele>
        <time>2014-06-21T14:54:44Z</time>
      </trkpt>
      <trkpt lat="42.78121" lon="1.70307">
        <ele>713.44</ele>
        <time>2014-06-21T14:55:14Z</time>
      </trkpt>
      <trkpt lat="42.78123" lon="1.70307">
        <ele>711.51</ele>
        <time>2014-06-21T14:55:46Z</time>
      </trkpt>
      <trkpt lat="42.78124" lon="1.70304">
        <ele>713.44</ele>
        <time>2014-06-21T14:56:21Z</time>
      </trkpt>
      <trkpt lat="42.78123" lon="1.70303">
        <ele>714.4</ele>
        <time>2014-06-21T14:56:58Z</time>
      </trkpt>
      <trkpt lat="42.78124" lon="1.70306">
        <ele>711.99</ele>
        <time>2014-06-21T14:57:34Z</time>
      </trkpt>
      <trkpt lat="42.78123" lon="1.703">
        <ele>711.51</ele>
        <time>2014-06-21T14:58:16Z</time>
      </trkpt>
      <trkpt lat="42.78123" lon="1.70306">
        <ele>711.03</ele>
        <time>2014-06-21T14:58:49Z</time>
      </trkpt>
      <trkpt lat="42.78123" lon="1.70304">
        <ele>710.55</ele>
        <time>2014-06-21T14:59:25Z</time>
      </trkpt>
      <trkpt lat="42.78123" lon="1.70301">
        <ele>711.03</ele>
        <time>2014-06-21T14:59:59Z</time>
      </trkpt>
      <trkpt lat="42.78123" lon="1.70304">
        <ele>712.95</ele>
        <time>2014-06-21T15:00:20Z</time>
      </trkpt>
      <trkpt lat="42.78125" lon="1.70305">
        <ele>711.99</ele>
        <time>2014-06-21T15:00:45Z</time>
      </trkpt>
      <trkpt lat="42.78128" lon="1.70302">
        <ele>712.47</ele>
        <time>2014-06-21T15:01:00Z</time>
      </trkpt>
      <trkpt lat="42.78129" lon="1.703">
        <ele>713.44</ele>
        <time>2014-06-21T15:01:14Z</time>
      </trkpt>
      <trkpt lat="42.78127" lon="1.703">
        <ele>712.95</ele>
        <time>2014-06-21T15:01:34Z</time>
      </trkpt>
      <trkpt lat="42.78127" lon="1.70301">
        <ele>713.92</ele>
        <time>2014-06-21T15:01:50Z</time>
      </trkpt>
      <trkpt lat="42.78127" lon="1.703">
        <ele>715.36</ele>
        <time>2014-06-21T15:02:15Z</time>
      </trkpt>
      <trkpt lat="42.78126" lon="1.703">
        <ele>715.36</ele>
        <time>2014-06-21T15:02:30Z</time>
      </trkpt>
      <trkpt lat="42.78126" lon="1.70299">
        <ele>716.32</ele>
        <time>2014-06-21T15:02:53Z</time>
      </trkpt>
      <trkpt lat="42.78125" lon="1.703">
        <ele>717.28</ele>
        <time>2014-06-21T15:03:14Z</time>
      </trkpt>
      <trkpt lat="42.7813" lon="1.70301">
        <ele>716.8</ele>
        <time>2014-06-21T15:03:29Z</time>
      </trkpt>
      <trkpt lat="42.78135" lon="1.70308">
        <ele>717.76</ele>
        <time>2014-06-21T15:03:40Z</time>
      </trkpt>
      <trkpt lat="42.78139" lon="1.70328">
        <ele>719.68</ele>
        <time>2014-06-21T15:03:56Z</time>
      </trkpt>
      <trkpt lat="42.78144" lon="1.70342">
        <ele>720.16</ele>
        <time>2014-06-21T15:04:09Z</time>
      </trkpt>
      <trkpt lat="42.78147" lon="1.70346">
        <ele>720.16</ele>
        <time>2014-06-21T15:04:13Z</time>
      </trkpt>
      <trkpt lat="42.78158" lon="1.70362">
        <ele>720.16</ele>
        <time>2014-06-21T15:04:30Z</time>
      </trkpt>
      <trkpt lat="42.78169" lon="1.70384">
        <ele>721.13</ele>
        <time>2014-06-21T15:04:48Z</time>
      </trkpt>
      <trkpt lat="42.78179" lon="1.70422">
        <ele>725.93</ele>
        <time>2014-06-21T15:05:05Z</time>
      </trkpt>
      <trkpt lat="42.7819" lon="1.70461">
        <ele>733.62</ele>
        <time>2014-06-21T15:05:24Z</time>
      </trkpt>
      <trkpt lat="42.78215" lon="1.70461">
        <ele>731.7</ele>
        <time>2014-06-21T15:05:38Z</time>
      </trkpt>
      <trkpt lat="42.78238" lon="1.70442">
        <ele>728.34</ele>
        <time>2014-06-21T15:05:53Z</time>
      </trkpt>
      <trkpt lat="42.78256" lon="1.70428">
        <ele>727.86</ele>
        <time>2014-06-21T15:06:07Z</time>
      </trkpt>
      <trkpt lat="42.78257" lon="1.70428">
        <ele>727.86</ele>
        <time>2014-06-21T15:06:08Z</time>
      </trkpt>
      <trkpt lat="42.78258" lon="1.70427">
        <ele>728.34</ele>
        <time>2014-06-21T15:06:09Z</time>
      </trkpt>
      <trkpt lat="42.7826" lon="1.70426">
        <ele>728.34</ele>
        <time>2014-06-21T15:06:10Z</time>
      </trkpt>
      <trkpt lat="42.78262" lon="1.70425">
        <ele>728.34</ele>
        <time>2014-06-21T15:06:11Z</time>
      </trkpt>
      <trkpt lat="42.78281" lon="1.70414">
        <ele>727.37</ele>
        <time>2014-06-21T15:06:22Z</time>
      </trkpt>
      <trkpt lat="42.78309" lon="1.70403">
        <ele>727.86</ele>
        <time>2014-06-21T15:06:36Z</time>
      </trkpt>
      <trkpt lat="42.78324" lon="1.70396">
        <ele>728.34</ele>
        <time>2014-06-21T15:06:49Z</time>
      </trkpt>
      <trkpt lat="42.78328" lon="1.70395">
        <ele>727.86</ele>
        <time>2014-06-21T15:07:02Z</time>
      </trkpt>
      <trkpt lat="42.7833" lon="1.70396">
        <ele>726.89</ele>
        <time>2014-06-21T15:07:23Z</time>
      </trkpt>
      <trkpt lat="42.78328" lon="1.70396">
        <ele>728.34</ele>
        <time>2014-06-21T15:07:45Z</time>
      </trkpt>
      <trkpt lat="42.78332" lon="1.70396">
        <ele>731.22</ele>
        <time>2014-06-21T15:08:04Z</time>
      </trkpt>
      <trkpt lat="42.7833" lon="1.704">
        <ele>731.7</ele>
        <time>2014-06-21T15:08:25Z</time>
      </trkpt>
      <trkpt lat="42.78328" lon="1.70395">
        <ele>730.74</ele>
        <time>2014-06-21T15:08:47Z</time>
      </trkpt>
      <trkpt lat="42.78329" lon="1.70393">
        <ele>729.3</ele>
        <time>2014-06-21T15:09:05Z</time>
      </trkpt>
      <trkpt lat="42.78335" lon="1.70382">
        <ele>732.18</ele>
        <time>2014-06-21T15:09:19Z</time>
      </trkpt>
      <trkpt lat="42.78339" lon="1.70379">
        <ele>732.18</ele>
        <time>2014-06-21T15:09:39Z</time>
      </trkpt>
      <trkpt lat="42.78339" lon="1.70376">
        <ele>731.7</ele>
        <time>2014-06-21T15:09:42Z</time>
      </trkpt>
      <trkpt lat="42.78339" lon="1.70375">
        <ele>731.7</ele>
        <time>2014-06-21T15:09:43Z</time>
      </trkpt>
      <trkpt lat="42.78339" lon="1.70374">
        <ele>731.7</ele>
        <time>2014-06-21T15:09:44Z</time>
      </trkpt>
      <trkpt lat="42.78335" lon="1.70373">
        <ele>731.7</ele>
        <time>2014-06-21T15:09:58Z</time>
      </trkpt>
      <trkpt lat="42.78333" lon="1.70371">
        <ele>731.22</ele>
        <time>2014-06-21T15:10:03Z</time>
      </trkpt>
      <trkpt lat="42.78332" lon="1.7037">
        <ele>730.74</ele>
        <time>2014-06-21T15:10:05Z</time>
      </trkpt>
      <trkpt lat="42.78326" lon="1.70361">
        <ele>730.26</ele>
        <time>2014-06-21T15:10:18Z</time>
      </trkpt>
      <trkpt lat="42.78321" lon="1.70365">
        <ele>734.58</ele>
        <time>2014-06-21T15:10:27Z</time>
      </trkpt>
      <trkpt lat="42.78317" lon="1.70361">
        <ele>737.47</ele>
        <time>2014-06-21T15:10:40Z</time>
      </trkpt>
      <trkpt lat="42.78311" lon="1.70355">
        <ele>739.87</ele>
        <time>2014-06-21T15:10:51Z</time>
      </trkpt>
      <trkpt lat="42.78305" lon="1.70347">
        <ele>740.35</ele>
        <time>2014-06-21T15:11:03Z</time>
      </trkpt>
      <trkpt lat="42.78307" lon="1.70338">
        <ele>742.76</ele>
        <time>2014-06-21T15:11:15Z</time>
      </trkpt>
      <trkpt lat="42.78311" lon="1.70326">
        <ele>744.2</ele>
        <time>2014-06-21T15:11:29Z</time>
      </trkpt>
      <trkpt lat="42.78314" lon="1.70321">
        <ele>745.16</ele>
        <time>2014-06-21T15:11:35Z</time>
      </trkpt>
      <trkpt lat="42.78314" lon="1.70313">
        <ele>748.04</ele>
        <time>2014-06-21T15:11:49Z</time>
      </trkpt>
      <trkpt lat="42.7831" lon="1.70306">
        <ele>750.45</ele>
        <time>2014-06-21T15:12:03Z</time>
      </trkpt>
      <trkpt lat="42.78303" lon="1.70305">
        <ele>751.41</ele>
        <time>2014-06-21T15:12:16Z</time>
      </trkpt>
      <trkpt lat="42.78298" lon="1.70298">
        <ele>753.81</ele>
        <time>2014-06-21T15:12:28Z</time>
      </trkpt>
      <trkpt lat="42.78298" lon="1.7029">
        <ele>758.14</ele>
        <time>2014-06-21T15:12:42Z</time>
      </trkpt>
      <trkpt lat="42.78294" lon="1.70288">
        <ele>761.02</ele>
        <time>2014-06-21T15:12:53Z</time>
      </trkpt>
      <trkpt lat="42.78293" lon="1.70285">
        <ele>764.39</ele>
        <time>2014-06-21T15:13:11Z</time>
      </trkpt>
      <trkpt lat="42.78295" lon="1.70282">
        <ele>766.79</ele>
        <time>2014-06-21T15:13:21Z</time>
      </trkpt>
      <trkpt lat="42.78295" lon="1.70277">
        <ele>770.15</ele>
        <time>2014-06-21T15:13:34Z</time>
      </trkpt>
      <trkpt lat="42.78294" lon="1.7027">
        <ele>771.6</ele>
        <time>2014-06-21T15:13:48Z</time>
      </trkpt>
      <trkpt lat="42.78291" lon="1.70264">
        <ele>774.48</ele>
        <time>2014-06-21T15:14:00Z</time>
      </trkpt>
      <trkpt lat="42.78291" lon="1.70261">
        <ele>776.4</ele>
        <time>2014-06-21T15:14:11Z</time>
      </trkpt>
      <trkpt lat="42.78292" lon="1.70258">
        <ele>778.81</ele>
        <time>2014-06-21T15:14:21Z</time>
      </trkpt>
      <trkpt lat="42.78291" lon="1.70254">
        <ele>780.73</ele>
        <time>2014-06-21T15:14:31Z</time>
      </trkpt>
      <trkpt lat="42.78291" lon="1.70247">
        <ele>781.21</ele>
        <time>2014-06-21T15:14:44Z</time>
      </trkpt>
      <trkpt lat="42.78292" lon="1.70247">
        <ele>782.17</ele>
        <time>2014-06-21T15:15:00Z</time>
      </trkpt>
      <trkpt lat="42.78298" lon="1.70243">
        <ele>783.61</ele>
        <time>2014-06-21T15:15:14Z</time>
      </trkpt>
      <trkpt lat="42.78297" lon="1.70238">
        <ele>786.5</ele>
        <time>2014-06-21T15:15:23Z</time>
      </trkpt>
      <trkpt lat="42.78296" lon="1.70228">
        <ele>787.94</ele>
        <time>2014-06-21T15:15:35Z</time>
      </trkpt>
      <trkpt lat="42.78294" lon="1.70221">
        <ele>791.3</ele>
        <time>2014-06-21T15:15:49Z</time>
      </trkpt>
      <trkpt lat="42.78297" lon="1.70219">
        <ele>793.22</ele>
        <time>2014-06-21T15:16:01Z</time>
      </trkpt>
      <trkpt lat="42.783" lon="1.70217">
        <ele>793.22</ele>
        <time>2014-06-21T15:16:15Z</time>
      </trkpt>
      <trkpt lat="42.78299" lon="1.70208">
        <ele>793.71</ele>
        <time>2014-06-21T15:16:29Z</time>
      </trkpt>
      <trkpt lat="42.78298" lon="1.70201">
        <ele>796.59</ele>
        <time>2014-06-21T15:16:41Z</time>
      </trkpt>
      <trkpt lat="42.78297" lon="1.70192">
        <ele>800.92</ele>
        <time>2014-06-21T15:16:56Z</time>
      </trkpt>
      <trkpt lat="42.78295" lon="1.70185">
        <ele>802.84</ele>
        <time>2014-06-21T15:17:09Z</time>
      </trkpt>
      <trkpt lat="42.78297" lon="1.70179">
        <ele>805.72</ele>
        <time>2014-06-21T15:17:22Z</time>
      </trkpt>
      <trkpt lat="42.78292" lon="1.7017">
        <ele>808.13</ele>
        <time>2014-06-21T15:17:36Z</time>
      </trkpt>
      <trkpt lat="42.78291" lon="1.70159">
        <ele>808.61</ele>
        <time>2014-06-21T15:17:50Z</time>
      </trkpt>
      <trkpt lat="42.78289" lon="1.70151">
        <ele>813.41</ele>
        <time>2014-06-21T15:18:05Z</time>
      </trkpt>
      <trkpt lat="42.78295" lon="1.70148">
        <ele>814.37</ele>
        <time>2014-06-21T15:18:20Z</time>
      </trkpt>
      <trkpt lat="42.78303" lon="1.70149">
        <ele>815.82</ele>
        <time>2014-06-21T15:18:32Z</time>
      </trkpt>
      <trkpt lat="42.78304" lon="1.70144">
        <ele>820.14</ele>
        <time>2014-06-21T15:18:45Z</time>
      </trkpt>
      <trkpt lat="42.78302" lon="1.70135">
        <ele>822.06</ele>
        <time>2014-06-21T15:18:58Z</time>
      </trkpt>
      <trkpt lat="42.783" lon="1.70126">
        <ele>825.43</ele>
        <time>2014-06-21T15:19:12Z</time>
      </trkpt>
      <trkpt lat="42.78299" lon="1.70123">
        <ele>825.91</ele>
        <time>2014-06-21T15:19:26Z</time>
      </trkpt>
      <trkpt lat="42.78299" lon="1.70123">
        <ele>826.39</ele>
        <time>2014-06-21T15:19:46Z</time>
      </trkpt>
      <trkpt lat="42.78294" lon="1.70116">
        <ele>826.87</ele>
        <time>2014-06-21T15:19:58Z</time>
      </trkpt>
      <trkpt lat="42.78295" lon="1.70111">
        <ele>829.27</ele>
        <time>2014-06-21T15:20:10Z</time>
      </trkpt>
      <trkpt lat="42.783" lon="1.7011">
        <ele>831.2</ele>
        <time>2014-06-21T15:20:17Z</time>
      </trkpt>
      <trkpt lat="42.78297" lon="1.70104">
        <ele>833.12</ele>
        <time>2014-06-21T15:20:29Z</time>
      </trkpt>
      <trkpt lat="42.78296" lon="1.70103">
        <ele>833.12</ele>
        <time>2014-06-21T15:20:30Z</time>
      </trkpt>
      <trkpt lat="42.78294" lon="1.70096">
        <ele>835.52</ele>
        <time>2014-06-21T15:20:41Z</time>
      </trkpt>
      <trkpt lat="42.78292" lon="1.70086">
        <ele>837.45</ele>
        <time>2014-06-21T15:20:56Z</time>
      </trkpt>
      <trkpt lat="42.78288" lon="1.70078">
        <ele>840.81</ele>
        <time>2014-06-21T15:21:11Z</time>
      </trkpt>
      <trkpt lat="42.78289" lon="1.70066">
        <ele>843.21</ele>
        <time>2014-06-21T15:21:26Z</time>
      </trkpt>
      <trkpt lat="42.78295" lon="1.7006">
        <ele>845.62</ele>
        <time>2014-06-21T15:21:39Z</time>
      </trkpt>
      <trkpt lat="42.78297" lon="1.70059">
        <ele>845.62</ele>
        <time>2014-06-21T15:21:42Z</time>
      </trkpt>
      <trkpt lat="42.78301" lon="1.70056">
        <ele>845.62</ele>
        <time>2014-06-21T15:21:57Z</time>
      </trkpt>
      <trkpt lat="42.78307" lon="1.70061">
        <ele>846.1</ele>
        <time>2014-06-21T15:22:08Z</time>
      </trkpt>
      <trkpt lat="42.78306" lon="1.70062">
        <ele>847.06</ele>
        <time>2014-06-21T15:22:26Z</time>
      </trkpt>
      <trkpt lat="42.78306" lon="1.70062">
        <ele>846.58</ele>
        <time>2014-06-21T15:22:39Z</time>
      </trkpt>
      <trkpt lat="42.78308" lon="1.70054">
        <ele>847.06</ele>
        <time>2014-06-21T15:22:58Z</time>
      </trkpt>
      <trkpt lat="42.78307" lon="1.70055">
        <ele>847.06</ele>
        <time>2014-06-21T15:23:14Z</time>
      </trkpt>
      <trkpt lat="42.78307" lon="1.70055">
        <ele>847.06</ele>
        <time>2014-06-21T15:23:33Z</time>
      </trkpt>
      <trkpt lat="42.78307" lon="1.70054">
        <ele>846.58</ele>
        <time>2014-06-21T15:23:47Z</time>
      </trkpt>
      <trkpt lat="42.78307" lon="1.70055">
        <ele>847.54</ele>
        <time>2014-06-21T15:24:07Z</time>
      </trkpt>
      <trkpt lat="42.78309" lon="1.70055">
        <ele>844.66</ele>
        <time>2014-06-21T15:24:29Z</time>
      </trkpt>
      <trkpt lat="42.78309" lon="1.70055">
        <ele>845.14</ele>
        <time>2014-06-21T15:24:53Z</time>
      </trkpt>
      <trkpt lat="42.78307" lon="1.70052">
        <ele>845.14</ele>
        <time>2014-06-21T15:25:12Z</time>
      </trkpt>
      <trkpt lat="42.78308" lon="1.70048">
        <ele>844.18</ele>
        <time>2014-06-21T15:25:30Z</time>
      </trkpt>
      <trkpt lat="42.78305" lon="1.70048">
        <ele>845.14</ele>
        <time>2014-06-21T15:25:52Z</time>
      </trkpt>
      <trkpt lat="42.78303" lon="1.7005">
        <ele>843.21</ele>
        <time>2014-06-21T15:26:23Z</time>
      </trkpt>
      <trkpt lat="42.78304" lon="1.7005">
        <ele>845.14</ele>
        <time>2014-06-21T15:26:34Z</time>
      </trkpt>
      <trkpt lat="42.78304" lon="1.70049">
        <ele>845.14</ele>
        <time>2014-06-21T15:26:59Z</time>
      </trkpt>
      <trkpt lat="42.78303" lon="1.70049">
        <ele>844.66</ele>
        <time>2014-06-21T15:27:16Z</time>
      </trkpt>
      <trkpt lat="42.78303" lon="1.70049">
        <ele>844.66</ele>
        <time>2014-06-21T15:27:23Z</time>
      </trkpt>
      <trkpt lat="42.783" lon="1.70052">
        <ele>843.69</ele>
        <time>2014-06-21T15:27:41Z</time>
      </trkpt>
      <trkpt lat="42.78299" lon="1.70053">
        <ele>843.69</ele>
        <time>2014-06-21T15:28:04Z</time>
      </trkpt>
      <trkpt lat="42.78299" lon="1.70052">
        <ele>841.77</ele>
        <time>2014-06-21T15:28:37Z</time>
      </trkpt>
      <trkpt lat="42.783" lon="1.70051">
        <ele>842.73</ele>
        <time>2014-06-21T15:28:43Z</time>
      </trkpt>
      <trkpt lat="42.78303" lon="1.70048">
        <ele>843.69</ele>
        <time>2014-06-21T15:28:54Z</time>
      </trkpt>
      <trkpt lat="42.78302" lon="1.70051">
        <ele>844.66</ele>
        <time>2014-06-21T15:29:25Z</time>
      </trkpt>
      <trkpt lat="42.78302" lon="1.70048">
        <ele>843.21</ele>
        <time>2014-06-21T15:29:54Z</time>
      </trkpt>
      <trkpt lat="42.78303" lon="1.70049">
        <ele>842.73</ele>
        <time>2014-06-21T15:30:17Z</time>
      </trkpt>
      <trkpt lat="42.78302" lon="1.70049">
        <ele>844.18</ele>
        <time>2014-06-21T15:30:35Z</time>
      </trkpt>
      <trkpt lat="42.78303" lon="1.70049">
        <ele>843.69</ele>
        <time>2014-06-21T15:30:59Z</time>
      </trkpt>
      <trkpt lat="42.78302" lon="1.70048">
        <ele>843.21</ele>
        <time>2014-06-21T15:31:23Z</time>
      </trkpt>
      <trkpt lat="42.78303" lon="1.70049">
        <ele>842.73</ele>
        <time>2014-06-21T15:31:46Z</time>
      </trkpt>
      <trkpt lat="42.78302" lon="1.70051">
        <ele>842.25</ele>
        <time>2014-06-21T15:32:10Z</time>
      </trkpt>
      <trkpt lat="42.783" lon="1.70051">
        <ele>842.73</ele>
        <time>2014-06-21T15:32:35Z</time>
      </trkpt>
      <trkpt lat="42.78301" lon="1.70054">
        <ele>841.77</ele>
        <time>2014-06-21T15:32:54Z</time>
      </trkpt>
      <trkpt lat="42.78302" lon="1.70051">
        <ele>842.73</ele>
        <time>2014-06-21T15:33:25Z</time>
      </trkpt>
      <trkpt lat="42.78302" lon="1.70048">
        <ele>841.29</ele>
        <time>2014-06-21T15:33:42Z</time>
      </trkpt>
      <trkpt lat="42.78301" lon="1.70049">
        <ele>843.21</ele>
        <time>2014-06-21T15:34:07Z</time>
      </trkpt>
      <trkpt lat="42.78301" lon="1.70049">
        <ele>843.21</ele>
        <time>2014-06-21T15:34:25Z</time>
      </trkpt>
      <trkpt lat="42.78301" lon="1.70048">
        <ele>843.21</ele>
        <time>2014-06-21T15:35:01Z</time>
      </trkpt>
      <trkpt lat="42.783" lon="1.7005">
        <ele>843.69</ele>
        <time>2014-06-21T15:35:05Z</time>
      </trkpt>
      <trkpt lat="42.78297" lon="1.70057">
        <ele>843.21</ele>
        <time>2014-06-21T15:35:15Z</time>
      </trkpt>
      <trkpt lat="42.78293" lon="1.70057">
        <ele>843.21</ele>
        <time>2014-06-21T15:35:21Z</time>
      </trkpt>
      <trkpt lat="42.78288" lon="1.70069">
        <ele>841.77</ele>
        <time>2014-06-21T15:35:33Z</time>
      </trkpt>
      <trkpt lat="42.78289" lon="1.70076">
        <ele>839.37</ele>
        <time>2014-06-21T15:35:44Z</time>
      </trkpt>
      <trkpt lat="42.78289" lon="1.70078">
        <ele>838.89</ele>
        <time>2014-06-21T15:35:47Z</time>
      </trkpt>
      <trkpt lat="42.78294" lon="1.70089">
        <ele>834.56</ele>
        <time>2014-06-21T15:35:59Z</time>
      </trkpt>
      <trkpt lat="42.78295" lon="1.70094">
        <ele>831.68</ele>
        <time>2014-06-21T15:36:08Z</time>
      </trkpt>
      <trkpt lat="42.78296" lon="1.701">
        <ele>828.31</ele>
        <time>2014-06-21T15:36:17Z</time>
      </trkpt>
      <trkpt lat="42.78298" lon="1.70101">
        <ele>826.87</ele>
        <time>2014-06-21T15:36:21Z</time>
      </trkpt>
      <trkpt lat="42.78302" lon="1.70107">
        <ele>823.51</ele>
        <time>2014-06-21T15:36:32Z</time>
      </trkpt>
      <trkpt lat="42.78298" lon="1.70108">
        <ele>823.51</ele>
        <time>2014-06-21T15:36:37Z</time>
      </trkpt>
      <trkpt lat="42.78292" lon="1.70109">
        <ele>822.06</ele>
        <time>2014-06-21T15:36:48Z</time>
      </trkpt>
      <trkpt lat="42.78293" lon="1.70112">
        <ele>821.1</ele>
        <time>2014-06-21T15:36:51Z</time>
      </trkpt>
      <trkpt lat="42.78299" lon="1.70118">
        <ele>817.74</ele>
        <time>2014-06-21T15:37:02Z</time>
      </trkpt>
      <trkpt lat="42.78302" lon="1.70127">
        <ele>815.34</ele>
        <time>2014-06-21T15:37:12Z</time>
      </trkpt>
      <trkpt lat="42.78304" lon="1.70138">
        <ele>814.85</ele>
        <time>2014-06-21T15:37:24Z</time>
      </trkpt>
      <trkpt lat="42.78306" lon="1.70146">
        <ele>811.97</ele>
        <time>2014-06-21T15:37:36Z</time>
      </trkpt>
      <trkpt lat="42.78308" lon="1.70154">
        <ele>807.64</ele>
        <time>2014-06-21T15:37:47Z</time>
      </trkpt>
      <trkpt lat="42.78307" lon="1.70156">
        <ele>807.16</ele>
        <time>2014-06-21T15:37:50Z</time>
      </trkpt>
      <trkpt lat="42.78309" lon="1.70164">
        <ele>806.2</ele>
        <time>2014-06-21T15:38:01Z</time>
      </trkpt>
      <trkpt lat="42.78309" lon="1.70164">
        <ele>806.2</ele>
        <time>2014-06-21T15:38:06Z</time>
      </trkpt>
      <trkpt lat="42.78311" lon="1.70172">
        <ele>806.2</ele>
        <time>2014-06-21T15:38:17Z</time>
      </trkpt>
      <trkpt lat="42.78311" lon="1.70173">
        <ele>806.2</ele>
        <time>2014-06-21T15:38:18Z</time>
      </trkpt>
      <trkpt lat="42.78316" lon="1.70184">
        <ele>802.84</ele>
        <time>2014-06-21T15:38:30Z</time>
      </trkpt>
      <trkpt lat="42.78316" lon="1.70185">
        <ele>802.84</ele>
        <time>2014-06-21T15:38:31Z</time>
      </trkpt>
      <trkpt lat="42.78318" lon="1.70194">
        <ele>801.4</ele>
        <time>2014-06-21T15:38:42Z</time>
      </trkpt>
      <trkpt lat="42.7832" lon="1.70198">
        <ele>798.03</ele>
        <time>2014-06-21T15:38:53Z</time>
      </trkpt>
      <trkpt lat="42.78319" lon="1.70199">
        <ele>795.63</ele>
        <time>2014-06-21T15:38:59Z</time>
      </trkpt>
      <trkpt lat="42.78312" lon="1.70202">
        <ele>794.19</ele>
        <time>2014-06-21T15:39:12Z</time>
      </trkpt>
      <trkpt lat="42.7831" lon="1.7021">
        <ele>791.78</ele>
        <time>2014-06-21T15:39:25Z</time>
      </trkpt>
      <trkpt lat="42.7831" lon="1.70212">
        <ele>790.82</ele>
        <time>2014-06-21T15:39:29Z</time>
      </trkpt>
      <trkpt lat="42.78311" lon="1.70216">
        <ele>790.82</ele>
        <time>2014-06-21T15:39:33Z</time>
      </trkpt>
      <trkpt lat="42.78314" lon="1.70222">
        <ele>787.46</ele>
        <time>2014-06-21T15:39:45Z</time>
      </trkpt>
      <trkpt lat="42.78313" lon="1.70227">
        <ele>782.17</ele>
        <time>2014-06-21T15:39:58Z</time>
      </trkpt>
      <trkpt lat="42.78317" lon="1.70226">
        <ele>774.96</ele>
        <time>2014-06-21T15:40:09Z</time>
      </trkpt>
      <trkpt lat="42.78319" lon="1.70225">
        <ele>769.67</ele>
        <time>2014-06-21T15:40:17Z</time>
      </trkpt>
      <trkpt lat="42.78326" lon="1.70228">
        <ele>763.42</ele>
        <time>2014-06-21T15:40:30Z</time>
      </trkpt>
      <trkpt lat="42.78329" lon="1.70231">
        <ele>766.79</ele>
        <time>2014-06-21T15:40:42Z</time>
      </trkpt>
      <trkpt lat="42.78333" lon="1.70239">
        <ele>771.11</ele>
        <time>2014-06-21T15:40:55Z</time>
      </trkpt>
      <trkpt lat="42.78336" lon="1.70241">
        <ele>769.67</ele>
        <time>2014-06-21T15:41:07Z</time>
      </trkpt>
      <trkpt lat="42.78337" lon="1.70241">
        <ele>769.19</ele>
        <time>2014-06-21T15:41:08Z</time>
      </trkpt>
      <trkpt lat="42.78346" lon="1.7024">
        <ele>764.39</ele>
        <time>2014-06-21T15:41:21Z</time>
      </trkpt>
      <trkpt lat="42.78356" lon="1.70239">
        <ele>762.46</ele>
        <time>2014-06-21T15:41:31Z</time>
      </trkpt>
      <trkpt lat="42.78366" lon="1.70242">
        <ele>761.5</ele>
        <time>2014-06-21T15:41:39Z</time>
      </trkpt>
      <trkpt lat="42.78377" lon="1.70251">
        <ele>758.14</ele>
        <time>2014-06-21T15:41:51Z</time>
      </trkpt>
      <trkpt lat="42.78388" lon="1.7025">
        <ele>757.18</ele>
        <time>2014-06-21T15:42:07Z</time>
      </trkpt>
      <trkpt lat="42.78389" lon="1.7025">
        <ele>757.66</ele>
        <time>2014-06-21T15:42:10Z</time>
      </trkpt>
      <trkpt lat="42.78397" lon="1.70249">
        <ele>757.66</ele>
        <time>2014-06-21T15:42:22Z</time>
      </trkpt>
      <trkpt lat="42.78405" lon="1.70247">
        <ele>755.25</ele>
        <time>2014-06-21T15:42:31Z</time>
      </trkpt>
      <trkpt lat="42.78413" lon="1.70242">
        <ele>752.85</ele>
        <time>2014-06-21T15:42:41Z</time>
      </trkpt>
      <trkpt lat="42.78418" lon="1.7024">
        <ele>751.89</ele>
        <time>2014-06-21T15:42:45Z</time>
      </trkpt>
      <trkpt lat="42.78425" lon="1.70229">
        <ele>748.04</ele>
        <time>2014-06-21T15:42:58Z</time>
      </trkpt>
      <trkpt lat="42.78431" lon="1.70222">
        <ele>746.12</ele>
        <time>2014-06-21T15:43:09Z</time>
      </trkpt>
      <trkpt lat="42.78435" lon="1.7023">
        <ele>744.68</ele>
        <time>2014-06-21T15:43:21Z</time>
      </trkpt>
      <trkpt lat="42.78439" lon="1.7023">
        <ele>742.28</ele>
        <time>2014-06-21T15:43:33Z</time>
      </trkpt>
      <trkpt lat="42.78441" lon="1.70228">
        <ele>739.87</ele>
        <time>2014-06-21T15:43:39Z</time>
      </trkpt>
      <trkpt lat="42.78445" lon="1.7023">
        <ele>736.03</ele>
        <time>2014-06-21T15:43:48Z</time>
      </trkpt>
      <trkpt lat="42.78452" lon="1.70229">
        <ele>735.55</ele>
        <time>2014-06-21T15:43:53Z</time>
      </trkpt>
      <trkpt lat="42.78464" lon="1.70228">
        <ele>734.1</ele>
        <time>2014-06-21T15:44:04Z</time>
      </trkpt>
      <trkpt lat="42.78472" lon="1.70229">
        <ele>732.66</ele>
        <time>2014-06-21T15:44:15Z</time>
      </trkpt>
      <trkpt lat="42.78471" lon="1.70229">
        <ele>731.7</ele>
        <time>2014-06-21T15:44:31Z</time>
      </trkpt>
      <trkpt lat="42.78471" lon="1.70228">
        <ele>732.18</ele>
        <time>2014-06-21T15:44:43Z</time>
      </trkpt>
      <trkpt lat="42.78472" lon="1.70227">
        <ele>732.66</ele>
        <time>2014-06-21T15:45:02Z</time>
      </trkpt>
      <trkpt lat="42.78476" lon="1.70225">
        <ele>734.1</ele>
        <time>2014-06-21T15:45:24Z</time>
      </trkpt>
      <trkpt lat="42.78475" lon="1.70222">
        <ele>734.1</ele>
        <time>2014-06-21T15:45:39Z</time>
      </trkpt>
      <trkpt lat="42.78478" lon="1.7022">
        <ele>736.51</ele>
        <time>2014-06-21T15:45:52Z</time>
      </trkpt>
      <trkpt lat="42.78475" lon="1.70225">
        <ele>735.55</ele>
        <time>2014-06-21T15:46:15Z</time>
      </trkpt>
      <trkpt lat="42.78477" lon="1.70221">
        <ele>733.62</ele>
        <time>2014-06-21T15:46:39Z</time>
      </trkpt>
      <trkpt lat="42.78476" lon="1.70218">
        <ele>736.99</ele>
        <time>2014-06-21T15:47:06Z</time>
      </trkpt>
      <trkpt lat="42.78479" lon="1.70219">
        <ele>736.99</ele>
        <time>2014-06-21T15:47:22Z</time>
      </trkpt>
      <trkpt lat="42.78481" lon="1.7022">
        <ele>739.39</ele>
        <time>2014-06-21T15:47:53Z</time>
      </trkpt>
      <trkpt lat="42.78481" lon="1.70222">
        <ele>736.99</ele>
        <time>2014-06-21T15:48:18Z</time>
      </trkpt>
      <trkpt lat="42.78477" lon="1.70219">
        <ele>735.07</ele>
        <time>2014-06-21T15:48:46Z</time>
      </trkpt>
      <trkpt lat="42.78479" lon="1.70219">
        <ele>736.03</ele>
        <time>2014-06-21T15:49:11Z</time>
      </trkpt>
      <trkpt lat="42.78479" lon="1.7022">
        <ele>733.62</ele>
        <time>2014-06-21T15:49:40Z</time>
      </trkpt>
      <trkpt lat="42.78481" lon="1.70222">
        <ele>733.62</ele>
        <time>2014-06-21T15:50:13Z</time>
      </trkpt>
      <trkpt lat="42.7848" lon="1.70221">
        <ele>736.51</ele>
        <time>2014-06-21T15:50:49Z</time>
      </trkpt>
      <trkpt lat="42.78482" lon="1.70221">
        <ele>738.91</ele>
        <time>2014-06-21T15:51:26Z</time>
      </trkpt>
      <trkpt lat="42.78481" lon="1.70219">
        <ele>740.35</ele>
        <time>2014-06-21T15:51:50Z</time>
      </trkpt>
      <trkpt lat="42.78481" lon="1.70217">
        <ele>743.24</ele>
        <time>2014-06-21T15:52:15Z</time>
      </trkpt>
      <trkpt lat="42.78479" lon="1.70216">
        <ele>740.35</ele>
        <time>2014-06-21T15:52:45Z</time>
      </trkpt>
      <trkpt lat="42.78481" lon="1.70219">
        <ele>736.99</ele>
        <time>2014-06-21T15:53:05Z</time>
      </trkpt>
      <trkpt lat="42.78484" lon="1.70216">
        <ele>735.07</ele>
        <time>2014-06-21T15:53:10Z</time>
      </trkpt>
      <trkpt lat="42.7849" lon="1.7021">
        <ele>733.62</ele>
        <time>2014-06-21T15:53:23Z</time>
      </trkpt>
      <trkpt lat="42.78494" lon="1.70199">
        <ele>732.18</ele>
        <time>2014-06-21T15:53:34Z</time>
      </trkpt>
      <trkpt lat="42.78497" lon="1.70189">
        <ele>730.26</ele>
        <time>2014-06-21T15:53:44Z</time>
      </trkpt>
      <trkpt lat="42.78501" lon="1.70179">
        <ele>727.86</ele>
        <time>2014-06-21T15:53:54Z</time>
      </trkpt>
      <trkpt lat="42.78502" lon="1.70168">
        <ele>724.97</ele>
        <time>2014-06-21T15:54:04Z</time>
      </trkpt>
      <trkpt lat="42.78508" lon="1.70159">
        <ele>723.53</ele>
        <time>2014-06-21T15:54:16Z</time>
      </trkpt>
      <trkpt lat="42.78512" lon="1.70144">
        <ele>722.57</ele>
        <time>2014-06-21T15:54:28Z</time>
      </trkpt>
      <trkpt lat="42.78514" lon="1.70139">
        <ele>722.09</ele>
        <time>2014-06-21T15:54:32Z</time>
      </trkpt>
      <trkpt lat="42.78515" lon="1.70136">
        <ele>721.61</ele>
        <time>2014-06-21T15:54:34Z</time>
      </trkpt>
      <trkpt lat="42.78515" lon="1.70132">
        <ele>720.65</ele>
        <time>2014-06-21T15:54:37Z</time>
      </trkpt>
      <trkpt lat="42.78518" lon="1.7012">
        <ele>720.16</ele>
        <time>2014-06-21T15:54:48Z</time>
      </trkpt>
      <trkpt lat="42.78526" lon="1.701">
        <ele>712.47</ele>
        <time>2014-06-21T15:55:03Z</time>
      </trkpt>
      <trkpt lat="42.78533" lon="1.7009">
        <ele>708.15</ele>
        <time>2014-06-21T15:55:18Z</time>
      </trkpt>
      <trkpt lat="42.78534" lon="1.70086">
        <ele>707.67</ele>
        <time>2014-06-21T15:55:20Z</time>
      </trkpt>
      <trkpt lat="42.78538" lon="1.70074">
        <ele>703.82</ele>
        <time>2014-06-21T15:55:32Z</time>
      </trkpt>
      <trkpt lat="42.78538" lon="1.70063">
        <ele>701.9</ele>
        <time>2014-06-21T15:55:45Z</time>
      </trkpt>
      <trkpt lat="42.78539" lon="1.70062">
        <ele>701.42</ele>
        <time>2014-06-21T15:55:48Z</time>
      </trkpt>
      <trkpt lat="42.78548" lon="1.70055">
        <ele>701.9</ele>
        <time>2014-06-21T15:56:02Z</time>
      </trkpt>
      <trkpt lat="42.78556" lon="1.70051">
        <ele>701.9</ele>
        <time>2014-06-21T15:56:12Z</time>
      </trkpt>
      <trkpt lat="42.7857" lon="1.70042">
        <ele>700.94</ele>
        <time>2014-06-21T15:56:26Z</time>
      </trkpt>
      <trkpt lat="42.78572" lon="1.7004">
        <ele>700.46</ele>
        <time>2014-06-21T15:56:29Z</time>
      </trkpt>
      <trkpt lat="42.78576" lon="1.70032">
        <ele>698.53</ele>
        <time>2014-06-21T15:56:35Z</time>
      </trkpt>
      <trkpt lat="42.78583" lon="1.70025">
        <ele>695.17</ele>
        <time>2014-06-21T15:56:46Z</time>
      </trkpt>
      <trkpt lat="42.78587" lon="1.70021">
        <ele>694.21</ele>
        <time>2014-06-21T15:56:51Z</time>
      </trkpt>
      <trkpt lat="42.78595" lon="1.70012">
        <ele>690.36</ele>
        <time>2014-06-21T15:57:06Z</time>
      </trkpt>
      <trkpt lat="42.78602" lon="1.70005">
        <ele>688.92</ele>
        <time>2014-06-21T15:57:19Z</time>
      </trkpt>
      <trkpt lat="42.78604" lon="1.70006">
        <ele>688.92</ele>
        <time>2014-06-21T15:57:51Z</time>
      </trkpt>
      <trkpt lat="42.78603" lon="1.70001">
        <ele>685.56</ele>
        <time>2014-06-21T15:58:21Z</time>
      </trkpt>
      <trkpt lat="42.78603" lon="1.70002">
        <ele>688.44</ele>
        <time>2014-06-21T15:58:55Z</time>
      </trkpt>
      <trkpt lat="42.78603" lon="1.70003">
        <ele>683.63</ele>
        <time>2014-06-21T15:59:17Z</time>
      </trkpt>
      <trkpt lat="42.78611" lon="1.69992">
        <ele>681.71</ele>
        <time>2014-06-21T15:59:36Z</time>
      </trkpt>
      <trkpt lat="42.78616" lon="1.69986">
        <ele>681.71</ele>
        <time>2014-06-21T15:59:41Z</time>
      </trkpt>
      <trkpt lat="42.7862" lon="1.69984">
        <ele>681.71</ele>
        <time>2014-06-21T15:59:45Z</time>
      </trkpt>
      <trkpt lat="42.78624" lon="1.69983">
        <ele>680.75</ele>
        <time>2014-06-21T15:59:49Z</time>
      </trkpt>
      <trkpt lat="42.78629" lon="1.69977">
        <ele>679.31</ele>
        <time>2014-06-21T15:59:54Z</time>
      </trkpt>
      <trkpt lat="42.7864" lon="1.69966">
        <ele>676.91</ele>
        <time>2014-06-21T16:00:10Z</time>
      </trkpt>
      <trkpt lat="42.78647" lon="1.69955">
        <ele>674.98</ele>
        <time>2014-06-21T16:00:23Z</time>
      </trkpt>
      <trkpt lat="42.78649" lon="1.69951">
        <ele>674.5</ele>
        <time>2014-06-21T16:00:27Z</time>
      </trkpt>
      <trkpt lat="42.78655" lon="1.69941">
        <ele>672.58</ele>
        <time>2014-06-21T16:00:40Z</time>
      </trkpt>
      <trkpt lat="42.78664" lon="1.69935">
        <ele>671.62</ele>
        <time>2014-06-21T16:00:54Z</time>
      </trkpt>
      <trkpt lat="42.78669" lon="1.69932">
        <ele>670.66</ele>
        <time>2014-06-21T16:01:10Z</time>
      </trkpt>
      <trkpt lat="42.78675" lon="1.6993">
        <ele>669.7</ele>
        <time>2014-06-21T16:01:21Z</time>
      </trkpt>
      <trkpt lat="42.78683" lon="1.69924">
        <ele>668.73</ele>
        <time>2014-06-21T16:01:34Z</time>
      </trkpt>
      <trkpt lat="42.78691" lon="1.69917">
        <ele>668.25</ele>
        <time>2014-06-21T16:01:46Z</time>
      </trkpt>
      <trkpt lat="42.78696" lon="1.69912">
        <ele>668.73</ele>
        <time>2014-06-21T16:01:56Z</time>
      </trkpt>
      <trkpt lat="42.78705" lon="1.69904">
        <ele>668.25</ele>
        <time>2014-06-21T16:02:12Z</time>
      </trkpt>
      <trkpt lat="42.7871" lon="1.69901">
        <ele>664.89</ele>
        <time>2014-06-21T16:02:29Z</time>
      </trkpt>
      <trkpt lat="42.78707" lon="1.69905">
        <ele>662.49</ele>
        <time>2014-06-21T16:02:50Z</time>
      </trkpt>
      <trkpt lat="42.78707" lon="1.69906">
        <ele>660.56</ele>
        <time>2014-06-21T16:03:07Z</time>
      </trkpt>
      <trkpt lat="42.78707" lon="1.69903">
        <ele>660.56</ele>
        <time>2014-06-21T16:03:38Z</time>
      </trkpt>
      <trkpt lat="42.78709" lon="1.69901">
        <ele>661.04</ele>
        <time>2014-06-21T16:04:02Z</time>
      </trkpt>
      <trkpt lat="42.78708" lon="1.69899">
        <ele>661.04</ele>
        <time>2014-06-21T16:04:22Z</time>
      </trkpt>
      <trkpt lat="42.78709" lon="1.69904">
        <ele>660.08</ele>
        <time>2014-06-21T16:04:41Z</time>
      </trkpt>
      <trkpt lat="42.78706" lon="1.69904">
        <ele>654.8</ele>
        <time>2014-06-21T16:05:08Z</time>
      </trkpt>
      <trkpt lat="42.78708" lon="1.69904">
        <ele>655.28</ele>
        <time>2014-06-21T16:05:28Z</time>
      </trkpt>
      <trkpt lat="42.78706" lon="1.69905">
        <ele>656.24</ele>
        <time>2014-06-21T16:05:53Z</time>
      </trkpt>
      <trkpt lat="42.78708" lon="1.69905">
        <ele>655.76</ele>
        <time>2014-06-21T16:06:22Z</time>
      </trkpt>
      <trkpt lat="42.78709" lon="1.69907">
        <ele>656.24</ele>
        <time>2014-06-21T16:06:48Z</time>
      </trkpt>
      <trkpt lat="42.78709" lon="1.69905">
        <ele>658.64</ele>
        <time>2014-06-21T16:07:13Z</time>
      </trkpt>
      <trkpt lat="42.78707" lon="1.69901">
        <ele>673.06</ele>
        <time>2014-06-21T16:07:54Z</time>
      </trkpt>
      <trkpt lat="42.78707" lon="1.69901">
        <ele>663.45</ele>
        <time>2014-06-21T16:08:24Z</time>
      </trkpt>
      <trkpt lat="42.7871" lon="1.699">
        <ele>658.64</ele>
        <time>2014-06-21T16:08:44Z</time>
      </trkpt>
      <trkpt lat="42.78714" lon="1.69892">
        <ele>657.2</ele>
        <time>2014-06-21T16:08:55Z</time>
      </trkpt>
      <trkpt lat="42.78717" lon="1.69881">
        <ele>652.87</ele>
        <time>2014-06-21T16:09:07Z</time>
      </trkpt>
      <trkpt lat="42.78718" lon="1.69879">
        <ele>652.87</ele>
        <time>2014-06-21T16:09:11Z</time>
      </trkpt>
      <trkpt lat="42.78724" lon="1.69868">
        <ele>651.43</ele>
        <time>2014-06-21T16:09:24Z</time>
      </trkpt>
      <trkpt lat="42.78727" lon="1.69859">
        <ele>649.03</ele>
        <time>2014-06-21T16:09:35Z</time>
      </trkpt>
      <trkpt lat="42.78731" lon="1.69855">
        <ele>648.55</ele>
        <time>2014-06-21T16:09:48Z</time>
      </trkpt>
      <trkpt lat="42.78737" lon="1.69848">
        <ele>648.07</ele>
        <time>2014-06-21T16:10:01Z</time>
      </trkpt>
      <trkpt lat="42.78739" lon="1.69842">
        <ele>647.59</ele>
        <time>2014-06-21T16:10:07Z</time>
      </trkpt>
      <trkpt lat="42.78745" lon="1.6983">
        <ele>644.7</ele>
        <time>2014-06-21T16:10:22Z</time>
      </trkpt>
      <trkpt lat="42.78746" lon="1.69829">
        <ele>644.22</ele>
        <time>2014-06-21T16:10:23Z</time>
      </trkpt>
      <trkpt lat="42.78753" lon="1.69819">
        <ele>643.26</ele>
        <time>2014-06-21T16:10:36Z</time>
      </trkpt>
      <trkpt lat="42.78754" lon="1.69818">
        <ele>642.78</ele>
        <time>2014-06-21T16:10:39Z</time>
      </trkpt>
      <trkpt lat="42.78761" lon="1.69807">
        <ele>642.78</ele>
        <time>2014-06-21T16:10:52Z</time>
      </trkpt>
      <trkpt lat="42.78767" lon="1.69801">
        <ele>643.74</ele>
        <time>2014-06-21T16:11:07Z</time>
      </trkpt>
      <trkpt lat="42.78778" lon="1.69795">
        <ele>644.22</ele>
        <time>2014-06-21T16:11:20Z</time>
      </trkpt>
      <trkpt lat="42.78787" lon="1.69781">
        <ele>645.66</ele>
        <time>2014-06-21T16:11:34Z</time>
      </trkpt>
      <trkpt lat="42.78792" lon="1.69767">
        <ele>639.89</ele>
        <time>2014-06-21T16:11:47Z</time>
      </trkpt>
      <trkpt lat="42.78792" lon="1.69766">
        <ele>639.41</ele>
        <time>2014-06-21T16:11:48Z</time>
      </trkpt>
      <trkpt lat="42.78798" lon="1.69754">
        <ele>629.8</ele>
        <time>2014-06-21T16:12:01Z</time>
      </trkpt>
      <trkpt lat="42.78802" lon="1.69746">
        <ele>623.55</ele>
        <time>2014-06-21T16:12:15Z</time>
      </trkpt>
      <trkpt lat="42.78807" lon="1.69743">
        <ele>621.15</ele>
        <time>2014-06-21T16:12:23Z</time>
      </trkpt>
      <trkpt lat="42.78806" lon="1.69739">
        <ele>620.67</ele>
        <time>2014-06-21T16:12:25Z</time>
      </trkpt>
      <trkpt lat="42.78803" lon="1.69728">
        <ele>616.82</ele>
        <time>2014-06-21T16:12:40Z</time>
      </trkpt>
      <trkpt lat="42.78801" lon="1.69723">
        <ele>614.9</ele>
        <time>2014-06-21T16:12:53Z</time>
      </trkpt>
      <trkpt lat="42.78801" lon="1.69705">
        <ele>611.54</ele>
        <time>2014-06-21T16:13:06Z</time>
      </trkpt>
      <trkpt lat="42.788" lon="1.69697">
        <ele>609.61</ele>
        <time>2014-06-21T16:13:11Z</time>
      </trkpt>
      <trkpt lat="42.78791" lon="1.69686">
        <ele>608.17</ele>
        <time>2014-06-21T16:13:18Z</time>
      </trkpt>
      <trkpt lat="42.78788" lon="1.69664">
        <ele>597.12</ele>
        <time>2014-06-21T16:13:31Z</time>
      </trkpt>
      <trkpt lat="42.78785" lon="1.69664">
        <ele>596.15</ele>
        <time>2014-06-21T16:13:55Z</time>
      </trkpt>
      <trkpt lat="42.78788" lon="1.69664">
        <ele>594.71</ele>
        <time>2014-06-21T16:14:23Z</time>
      </trkpt>
      <trkpt lat="42.78787" lon="1.69661">
        <ele>594.71</ele>
        <time>2014-06-21T16:14:40Z</time>
      </trkpt>
      <trkpt lat="42.78783" lon="1.6966">
        <ele>596.64</ele>
        <time>2014-06-21T16:15:06Z</time>
      </trkpt>
      <trkpt lat="42.78782" lon="1.6966">
        <ele>597.6</ele>
        <time>2014-06-21T16:15:25Z</time>
      </trkpt>
      <trkpt lat="42.78784" lon="1.69645">
        <ele>609.13</ele>
        <time>2014-06-21T16:15:49Z</time>
      </trkpt>
      <trkpt lat="42.78787" lon="1.69645">
        <ele>611.54</ele>
        <time>2014-06-21T16:16:13Z</time>
      </trkpt>
      <trkpt lat="42.78783" lon="1.69648">
        <ele>607.21</ele>
        <time>2014-06-21T16:16:32Z</time>
      </trkpt>
      <trkpt lat="42.78779" lon="1.69644">
        <ele>603.85</ele>
        <time>2014-06-21T16:16:46Z</time>
      </trkpt>
      <trkpt lat="42.78774" lon="1.69635">
        <ele>602.4</ele>
        <time>2014-06-21T16:17:00Z</time>
      </trkpt>
      <trkpt lat="42.78769" lon="1.69628">
        <ele>600.96</ele>
        <time>2014-06-21T16:17:11Z</time>
      </trkpt>
      <trkpt lat="42.78762" lon="1.6962">
        <ele>599.52</ele>
        <time>2014-06-21T16:17:27Z</time>
      </trkpt>
      <trkpt lat="42.78754" lon="1.69608">
        <ele>595.19</ele>
        <time>2014-06-21T16:17:43Z</time>
      </trkpt>
      <trkpt lat="42.78747" lon="1.69598">
        <ele>593.75</ele>
        <time>2014-06-21T16:17:57Z</time>
      </trkpt>
      <trkpt lat="42.78742" lon="1.6959">
        <ele>594.23</ele>
        <time>2014-06-21T16:18:09Z</time>
      </trkpt>
      <trkpt lat="42.78742" lon="1.69589">
        <ele>594.71</ele>
        <time>2014-06-21T16:18:10Z</time>
      </trkpt>
      <trkpt lat="42.78732" lon="1.69576">
        <ele>590.39</ele>
        <time>2014-06-21T16:18:24Z</time>
      </trkpt>
      <trkpt lat="42.78725" lon="1.69569">
        <ele>587.5</ele>
        <time>2014-06-21T16:18:40Z</time>
      </trkpt>
      <trkpt lat="42.78729" lon="1.69564">
        <ele>587.98</ele>
        <time>2014-06-21T16:18:54Z</time>
      </trkpt>
      <trkpt lat="42.78746" lon="1.69546">
        <ele>590.39</ele>
        <time>2014-06-21T16:19:10Z</time>
      </trkpt>
      <trkpt lat="42.78746" lon="1.69536">
        <ele>588.95</ele>
        <time>2014-06-21T16:19:24Z</time>
      </trkpt>
      <trkpt lat="42.78755" lon="1.69515">
        <ele>590.87</ele>
        <time>2014-06-21T16:19:40Z</time>
      </trkpt>
      <trkpt lat="42.78762" lon="1.69496">
        <ele>590.39</ele>
        <time>2014-06-21T16:19:55Z</time>
      </trkpt>
      <trkpt lat="42.78769" lon="1.69482">
        <ele>591.35</ele>
        <time>2014-06-21T16:20:08Z</time>
      </trkpt>
      <trkpt lat="42.78773" lon="1.69468">
        <ele>590.39</ele>
        <time>2014-06-21T16:20:24Z</time>
      </trkpt>
      <trkpt lat="42.78783" lon="1.69448">
        <ele>590.87</ele>
        <time>2014-06-21T16:20:38Z</time>
      </trkpt>
      <trkpt lat="42.78792" lon="1.69434">
        <ele>587.98</ele>
        <time>2014-06-21T16:20:56Z</time>
      </trkpt>
      <trkpt lat="42.78803" lon="1.69423">
        <ele>588.46</ele>
        <time>2014-06-21T16:21:12Z</time>
      </trkpt>
      <trkpt lat="42.7882" lon="1.69417">
        <ele>589.91</ele>
        <time>2014-06-21T16:21:26Z</time>
      </trkpt>
      <trkpt lat="42.78827" lon="1.6941">
        <ele>590.39</ele>
        <time>2014-06-21T16:21:34Z</time>
      </trkpt>
      <trkpt lat="42.78833" lon="1.69395">
        <ele>589.91</ele>
        <time>2014-06-21T16:21:49Z</time>
      </trkpt>
      <trkpt lat="42.78835" lon="1.6939">
        <ele>590.39</ele>
        <time>2014-06-21T16:21:54Z</time>
      </trkpt>
      <trkpt lat="42.78839" lon="1.69376">
        <ele>590.87</ele>
        <time>2014-06-21T16:22:05Z</time>
      </trkpt>
      <trkpt lat="42.78844" lon="1.69361">
        <ele>587.5</ele>
        <time>2014-06-21T16:22:18Z</time>
      </trkpt>
      <trkpt lat="42.78843" lon="1.6936">
        <ele>587.02</ele>
        <time>2014-06-21T16:22:20Z</time>
      </trkpt>
      <trkpt lat="42.78845" lon="1.69351">
        <ele>585.1</ele>
        <time>2014-06-21T16:22:26Z</time>
      </trkpt>
      <trkpt lat="42.78849" lon="1.69343">
        <ele>582.7</ele>
        <time>2014-06-21T16:22:37Z</time>
      </trkpt>
      <trkpt lat="42.78855" lon="1.69335">
        <ele>581.25</ele>
        <time>2014-06-21T16:22:50Z</time>
      </trkpt>
      <trkpt lat="42.78862" lon="1.69324">
        <ele>577.89</ele>
        <time>2014-06-21T16:23:02Z</time>
      </trkpt>
      <trkpt lat="42.78867" lon="1.69314">
        <ele>575.01</ele>
        <time>2014-06-21T16:23:11Z</time>
      </trkpt>
      <trkpt lat="42.78878" lon="1.69305">
        <ele>575.97</ele>
        <time>2014-06-21T16:23:23Z</time>
      </trkpt>
      <trkpt lat="42.78881" lon="1.69291">
        <ele>577.89</ele>
        <time>2014-06-21T16:23:37Z</time>
      </trkpt>
      <trkpt lat="42.78882" lon="1.69281">
        <ele>576.45</ele>
        <time>2014-06-21T16:23:46Z</time>
      </trkpt>
      <trkpt lat="42.78885" lon="1.69262">
        <ele>573.56</ele>
        <time>2014-06-21T16:24:00Z</time>
      </trkpt>
      <trkpt lat="42.78891" lon="1.69242">
        <ele>568.28</ele>
        <time>2014-06-21T16:24:16Z</time>
      </trkpt>
      <trkpt lat="42.78893" lon="1.69238">
        <ele>567.8</ele>
        <time>2014-06-21T16:24:21Z</time>
      </trkpt>
      <trkpt lat="42.78904" lon="1.69227">
        <ele>566.35</ele>
        <time>2014-06-21T16:24:35Z</time>
      </trkpt>
      <trkpt lat="42.78915" lon="1.69209">
        <ele>567.32</ele>
        <time>2014-06-21T16:24:50Z</time>
      </trkpt>
      <trkpt lat="42.78922" lon="1.692">
        <ele>564.91</ele>
        <time>2014-06-21T16:25:01Z</time>
      </trkpt>
      <trkpt lat="42.78926" lon="1.6919">
        <ele>563.95</ele>
        <time>2014-06-21T16:25:10Z</time>
      </trkpt>
      <trkpt lat="42.7893" lon="1.69178">
        <ele>564.91</ele>
        <time>2014-06-21T16:25:22Z</time>
      </trkpt>
      <trkpt lat="42.78935" lon="1.69164">
        <ele>565.39</ele>
        <time>2014-06-21T16:25:34Z</time>
      </trkpt>
      <trkpt lat="42.78939" lon="1.69157">
        <ele>565.39</ele>
        <time>2014-06-21T16:25:41Z</time>
      </trkpt>
      <trkpt lat="42.7895" lon="1.69147">
        <ele>565.87</ele>
        <time>2014-06-21T16:25:56Z</time>
      </trkpt>
      <trkpt lat="42.78952" lon="1.69145">
        <ele>565.39</ele>
        <time>2014-06-21T16:25:58Z</time>
      </trkpt>
      <trkpt lat="42.78962" lon="1.69139">
        <ele>563.95</ele>
        <time>2014-06-21T16:26:13Z</time>
      </trkpt>
      <trkpt lat="42.78974" lon="1.69141">
        <ele>563.47</ele>
        <time>2014-06-21T16:26:26Z</time>
      </trkpt>
      <trkpt lat="42.7899" lon="1.69142">
        <ele>561.55</ele>
        <time>2014-06-21T16:26:41Z</time>
      </trkpt>
      <trkpt lat="42.78986" lon="1.69141">
        <ele>561.07</ele>
        <time>2014-06-21T16:26:54Z</time>
      </trkpt>
      <trkpt lat="42.78993" lon="1.69145">
        <ele>560.59</ele>
        <time>2014-06-21T16:27:01Z</time>
      </trkpt>
      <trkpt lat="42.79006" lon="1.69134">
        <ele>560.59</ele>
        <time>2014-06-21T16:27:13Z</time>
      </trkpt>
      <trkpt lat="42.79021" lon="1.69122">
        <ele>560.11</ele>
        <time>2014-06-21T16:27:29Z</time>
      </trkpt>
      <trkpt lat="42.79029" lon="1.6911">
        <ele>557.7</ele>
        <time>2014-06-21T16:27:42Z</time>
      </trkpt>
      <trkpt lat="42.79027" lon="1.69108">
        <ele>556.26</ele>
        <time>2014-06-21T16:28:00Z</time>
      </trkpt>
      <trkpt lat="42.7903" lon="1.69108">
        <ele>556.26</ele>
        <time>2014-06-21T16:28:21Z</time>
      </trkpt>
      <trkpt lat="42.79033" lon="1.69106">
        <ele>559.62</ele>
        <time>2014-06-21T16:28:35Z</time>
      </trkpt>
      <trkpt lat="42.79034" lon="1.69105">
        <ele>557.22</ele>
        <time>2014-06-21T16:28:51Z</time>
      </trkpt>
      <trkpt lat="42.79034" lon="1.69105">
        <ele>556.74</ele>
        <time>2014-06-21T16:28:53Z</time>
      </trkpt>
      <trkpt lat="42.79032" lon="1.691">
        <ele>556.74</ele>
        <time>2014-06-21T16:29:02Z</time>
      </trkpt>
      <trkpt lat="42.79027" lon="1.69091">
        <ele>557.22</ele>
        <time>2014-06-21T16:29:13Z</time>
      </trkpt>
      <trkpt lat="42.79014" lon="1.69072">
        <ele>554.82</ele>
        <time>2014-06-21T16:29:29Z</time>
      </trkpt>
      <trkpt lat="42.79006" lon="1.69062">
        <ele>551.93</ele>
        <time>2014-06-21T16:29:45Z</time>
      </trkpt>
      <trkpt lat="42.78997" lon="1.69067">
        <ele>552.41</ele>
        <time>2014-06-21T16:29:58Z</time>
      </trkpt>
      <trkpt lat="42.78982" lon="1.69072">
        <ele>551.45</ele>
        <time>2014-06-21T16:30:15Z</time>
      </trkpt>
      <trkpt lat="42.7897" lon="1.69075">
        <ele>550.97</ele>
        <time>2014-06-21T16:30:32Z</time>
      </trkpt>
      <trkpt lat="42.78957" lon="1.69069">
        <ele>547.61</ele>
        <time>2014-06-21T16:30:48Z</time>
      </trkpt>
      <trkpt lat="42.78954" lon="1.69069">
        <ele>546.17</ele>
        <time>2014-06-21T16:30:51Z</time>
      </trkpt>
      <trkpt lat="42.78942" lon="1.69061">
        <ele>543.28</ele>
        <time>2014-06-21T16:31:08Z</time>
      </trkpt>
      <trkpt lat="42.78936" lon="1.69059">
        <ele>540.4</ele>
        <time>2014-06-21T16:31:20Z</time>
      </trkpt>
      <trkpt lat="42.78934" lon="1.6906">
        <ele>537.51</ele>
        <time>2014-06-21T16:31:35Z</time>
      </trkpt>
      <trkpt lat="42.78932" lon="1.69057">
        <ele>533.67</ele>
        <time>2014-06-21T16:31:52Z</time>
      </trkpt>
      <trkpt lat="42.7893" lon="1.6905">
        <ele>536.07</ele>
        <time>2014-06-21T16:32:11Z</time>
      </trkpt>
      <trkpt lat="42.78924" lon="1.69045">
        <ele>537.03</ele>
        <time>2014-06-21T16:32:24Z</time>
      </trkpt>
      <trkpt lat="42.78909" lon="1.69032">
        <ele>537.99</ele>
        <time>2014-06-21T16:32:42Z</time>
      </trkpt>
      <trkpt lat="42.78899" lon="1.69023">
        <ele>538.48</ele>
        <time>2014-06-21T16:32:52Z</time>
      </trkpt>
      <trkpt lat="42.7889" lon="1.69008">
        <ele>538.48</ele>
        <time>2014-06-21T16:33:05Z</time>
      </trkpt>
      <trkpt lat="42.78889" lon="1.69006">
        <ele>538.48</ele>
        <time>2014-06-21T16:33:06Z</time>
      </trkpt>
      <trkpt lat="42.78881" lon="1.68993">
        <ele>539.44</ele>
        <time>2014-06-21T16:33:18Z</time>
      </trkpt>
      <trkpt lat="42.7887" lon="1.68982">
        <ele>539.44</ele>
        <time>2014-06-21T16:33:33Z</time>
      </trkpt>
      <trkpt lat="42.78857" lon="1.68967">
        <ele>538.48</ele>
        <time>2014-06-21T16:33:49Z</time>
      </trkpt>
      <trkpt lat="42.78856" lon="1.68966">
        <ele>541.36</ele>
        <time>2014-06-21T16:34:12Z</time>
      </trkpt>
      <trkpt lat="42.78859" lon="1.68966">
        <ele>542.8</ele>
        <time>2014-06-21T16:34:34Z</time>
      </trkpt>
      <trkpt lat="42.78862" lon="1.68969">
        <ele>540.88</ele>
        <time>2014-06-21T16:34:52Z</time>
      </trkpt>
      <trkpt lat="42.78867" lon="1.68959">
        <ele>537.03</ele>
        <time>2014-06-21T16:35:05Z</time>
      </trkpt>
      <trkpt lat="42.78869" lon="1.68952">
        <ele>536.07</ele>
        <time>2014-06-21T16:35:11Z</time>
      </trkpt>
      <trkpt lat="42.7887" lon="1.68942">
        <ele>535.59</ele>
        <time>2014-06-21T16:35:29Z</time>
      </trkpt>
      <trkpt lat="42.78876" lon="1.68934">
        <ele>535.59</ele>
        <time>2014-06-21T16:35:44Z</time>
      </trkpt>
      <trkpt lat="42.78891" lon="1.68931">
        <ele>536.07</ele>
        <time>2014-06-21T16:36:00Z</time>
      </trkpt>
      <trkpt lat="42.78893" lon="1.68928">
        <ele>535.11</ele>
        <time>2014-06-21T16:36:03Z</time>
      </trkpt>
      <trkpt lat="42.78901" lon="1.68908">
        <ele>532.23</ele>
        <time>2014-06-21T16:36:21Z</time>
      </trkpt>
      <trkpt lat="42.78901" lon="1.68909">
        <ele>532.71</ele>
        <time>2014-06-21T16:36:35Z</time>
      </trkpt>
      <trkpt lat="42.78915" lon="1.68887">
        <ele>532.71</ele>
        <time>2014-06-21T16:36:54Z</time>
      </trkpt>
      <trkpt lat="42.7892" lon="1.68878">
        <ele>532.23</ele>
        <time>2014-06-21T16:37:01Z</time>
      </trkpt>
      <trkpt lat="42.78922" lon="1.68876">
        <ele>532.71</ele>
        <time>2014-06-21T16:37:14Z</time>
      </trkpt>
      <trkpt lat="42.78922" lon="1.68875">
        <ele>532.23</ele>
        <time>2014-06-21T16:37:20Z</time>
      </trkpt>
      <trkpt lat="42.78921" lon="1.6886">
        <ele>532.71</ele>
        <time>2014-06-21T16:37:30Z</time>
      </trkpt>
      <trkpt lat="42.78925" lon="1.68837">
        <ele>532.71</ele>
        <time>2014-06-21T16:37:45Z</time>
      </trkpt>
      <trkpt lat="42.78925" lon="1.68814">
        <ele>534.63</ele>
        <time>2014-06-21T16:37:58Z</time>
      </trkpt>
      <trkpt lat="42.78919" lon="1.68797">
        <ele>534.63</ele>
        <time>2014-06-21T16:38:12Z</time>
      </trkpt>
      <trkpt lat="42.78919" lon="1.68779">
        <ele>537.99</ele>
        <time>2014-06-21T16:38:28Z</time>
      </trkpt>
      <trkpt lat="42.78921" lon="1.6876">
        <ele>537.51</ele>
        <time>2014-06-21T16:38:41Z</time>
      </trkpt>
      <trkpt lat="42.78921" lon="1.68753">
        <ele>537.03</ele>
        <time>2014-06-21T16:38:45Z</time>
      </trkpt>
      <trkpt lat="42.78922" lon="1.6875">
        <ele>537.51</ele>
        <time>2014-06-21T16:38:57Z</time>
      </trkpt>
      <trkpt lat="42.78922" lon="1.68749">
        <ele>537.03</ele>
        <time>2014-06-21T16:39:14Z</time>
      </trkpt>
      <trkpt lat="42.78925" lon="1.68736">
        <ele>536.55</ele>
        <time>2014-06-21T16:39:26Z</time>
      </trkpt>
      <trkpt lat="42.78928" lon="1.6872">
        <ele>535.59</ele>
        <time>2014-06-21T16:39:39Z</time>
      </trkpt>
      <trkpt lat="42.78929" lon="1.68719">
        <ele>535.59</ele>
        <time>2014-06-21T16:39:40Z</time>
      </trkpt>
      <trkpt lat="42.78926" lon="1.68708">
        <ele>534.15</ele>
        <time>2014-06-21T16:39:51Z</time>
      </trkpt>
      <trkpt lat="42.78922" lon="1.68702">
        <ele>535.59</ele>
        <time>2014-06-21T16:39:56Z</time>
      </trkpt>
      <trkpt lat="42.7891" lon="1.68699">
        <ele>538.48</ele>
        <time>2014-06-21T16:40:12Z</time>
      </trkpt>
      <trkpt lat="42.78886" lon="1.68686">
        <ele>538.48</ele>
        <time>2014-06-21T16:40:33Z</time>
      </trkpt>
      <trkpt lat="42.78862" lon="1.68676">
        <ele>538.96</ele>
        <time>2014-06-21T16:40:53Z</time>
      </trkpt>
      <trkpt lat="42.78844" lon="1.68666">
        <ele>540.4</ele>
        <time>2014-06-21T16:41:12Z</time>
      </trkpt>
      <trkpt lat="42.78828" lon="1.68659">
        <ele>541.84</ele>
        <time>2014-06-21T16:41:26Z</time>
      </trkpt>
      <trkpt lat="42.7881" lon="1.6865">
        <ele>544.24</ele>
        <time>2014-06-21T16:41:39Z</time>
      </trkpt>
      <trkpt lat="42.78807" lon="1.68648">
        <ele>544.72</ele>
        <time>2014-06-21T16:41:43Z</time>
      </trkpt>
      <trkpt lat="42.78806" lon="1.68648">
        <ele>544.72</ele>
        <time>2014-06-21T16:41:44Z</time>
      </trkpt>
      <trkpt lat="42.78793" lon="1.68642">
        <ele>543.28</ele>
        <time>2014-06-21T16:41:55Z</time>
      </trkpt>
      <trkpt lat="42.78784" lon="1.68639">
        <ele>543.28</ele>
        <time>2014-06-21T16:42:07Z</time>
      </trkpt>
      <trkpt lat="42.7877" lon="1.68631">
        <ele>545.2</ele>
        <time>2014-06-21T16:42:21Z</time>
      </trkpt>
      <trkpt lat="42.78755" lon="1.68623">
        <ele>548.57</ele>
        <time>2014-06-21T16:42:34Z</time>
      </trkpt>
      <trkpt lat="42.7874" lon="1.68614">
        <ele>550.01</ele>
        <time>2014-06-21T16:42:48Z</time>
      </trkpt>
      <trkpt lat="42.78729" lon="1.68606">
        <ele>550.01</ele>
        <time>2014-06-21T16:43:00Z</time>
      </trkpt>
      <trkpt lat="42.78722" lon="1.68601">
        <ele>548.09</ele>
        <time>2014-06-21T16:43:08Z</time>
      </trkpt>
      <trkpt lat="42.78725" lon="1.6858">
        <ele>545.69</ele>
        <time>2014-06-21T16:43:22Z</time>
      </trkpt>
      <trkpt lat="42.78727" lon="1.68564">
        <ele>544.24</ele>
        <time>2014-06-21T16:43:32Z</time>
      </trkpt>
      <trkpt lat="42.78734" lon="1.68547">
        <ele>540.88</ele>
        <time>2014-06-21T16:43:45Z</time>
      </trkpt>
      <trkpt lat="42.78733" lon="1.68543">
        <ele>538.48</ele>
        <time>2014-06-21T16:44:06Z</time>
      </trkpt>
      <trkpt lat="42.78734" lon="1.68541">
        <ele>539.92</ele>
        <time>2014-06-21T16:44:21Z</time>
      </trkpt>
      <trkpt lat="42.78734" lon="1.68543">
        <ele>538.48</ele>
        <time>2014-06-21T16:44:42Z</time>
      </trkpt>
      <trkpt lat="42.78742" lon="1.68542">
        <ele>538.48</ele>
        <time>2014-06-21T16:44:49Z</time>
      </trkpt>
      <trkpt lat="42.78745" lon="1.68543">
        <ele>537.99</ele>
        <time>2014-06-21T16:44:51Z</time>
      </trkpt>
      <trkpt lat="42.78751" lon="1.68546">
        <ele>537.03</ele>
        <time>2014-06-21T16:44:57Z</time>
      </trkpt>
      <trkpt lat="42.7876" lon="1.68541">
        <ele>533.19</ele>
        <time>2014-06-21T16:45:10Z</time>
      </trkpt>
      <trkpt lat="42.7876" lon="1.68536">
        <ele>526.94</ele>
        <time>2014-06-21T16:45:30Z</time>
      </trkpt>
      <trkpt lat="42.78756" lon="1.68528">
        <ele>524.06</ele>
        <time>2014-06-21T16:46:20Z</time>
      </trkpt>
      <trkpt lat="42.78761" lon="1.68527">
        <ele>516.37</ele>
        <time>2014-06-21T16:47:02Z</time>
      </trkpt>
      <trkpt lat="42.7876" lon="1.68523">
        <ele>513.48</ele>
        <time>2014-06-21T16:47:32Z</time>
      </trkpt>
    </trkseg>
  </trk>
</gpx>